<?xml version="1.0" encoding="UTF-8" standalone="no" ?>
<gpx xmlns="http://www.topografix.com/GPX/1/1" xmlns:xsi="http://www.w3.org/2001/XMLSchema-instance" xsi:schemaLocation="http://www.topografix.com/GPX/1/1 http://www.topografix.com/GPX/1/1/gpx.xsd" version="1.1" creator="VisuGPX - https://www.visugpx.com">
  <metadata>
    <name>Ste Victoire Nord-Puits d'Auzon</name>
    <desc><![CDATA[Parcours très agréable, sans difficultés, modulable à souhaits. ]]></desc>
  </metadata>
  <trk>
    <name><![CDATA[20180324233532-l8g7u]]></name>
    <trkseg>
      <trkpt lat="43.554" lon="5.68713">
        <ele>544</ele>
        <time>2017-03-19T06:58:02Z</time>
      </trkpt>
      <trkpt lat="43.55416" lon="5.68699">
        <ele>545</ele>
        <time>2017-03-19T06:59:51Z</time>
      </trkpt>
      <trkpt lat="43.55423" lon="5.68674">
        <ele>548</ele>
        <time>2017-03-19T07:00:06Z</time>
      </trkpt>
      <trkpt lat="43.55435" lon="5.68655">
        <ele>551</ele>
        <time>2017-03-19T07:00:20Z</time>
      </trkpt>
      <trkpt lat="43.55451" lon="5.68639">
        <ele>552</ele>
        <time>2017-03-19T07:00:32Z</time>
      </trkpt>
      <trkpt lat="43.55467" lon="5.68626">
        <ele>553</ele>
        <time>2017-03-19T07:00:41Z</time>
      </trkpt>
      <trkpt lat="43.5548" lon="5.68607">
        <ele>553</ele>
        <time>2017-03-19T07:00:52Z</time>
      </trkpt>
      <trkpt lat="43.55494" lon="5.68589">
        <ele>554</ele>
        <time>2017-03-19T07:01:02Z</time>
      </trkpt>
      <trkpt lat="43.55512" lon="5.68576">
        <ele>556</ele>
        <time>2017-03-19T07:01:10Z</time>
      </trkpt>
      <trkpt lat="43.55531" lon="5.68576">
        <ele>556</ele>
        <time>2017-03-19T07:01:16Z</time>
      </trkpt>
      <trkpt lat="43.55548" lon="5.68583">
        <ele>556</ele>
        <time>2017-03-19T07:01:21Z</time>
      </trkpt>
      <trkpt lat="43.55565" lon="5.68598">
        <ele>556</ele>
        <time>2017-03-19T07:01:26Z</time>
      </trkpt>
      <trkpt lat="43.55581" lon="5.68619">
        <ele>556</ele>
        <time>2017-03-19T07:01:31Z</time>
      </trkpt>
      <trkpt lat="43.55594" lon="5.68638">
        <ele>554</ele>
        <time>2017-03-19T07:01:35Z</time>
      </trkpt>
      <trkpt lat="43.55607" lon="5.6866">
        <ele>554</ele>
        <time>2017-03-19T07:01:39Z</time>
      </trkpt>
      <trkpt lat="43.55621" lon="5.68682">
        <ele>552</ele>
        <time>2017-03-19T07:01:43Z</time>
      </trkpt>
      <trkpt lat="43.55631" lon="5.6871">
        <ele>551</ele>
        <time>2017-03-19T07:01:47Z</time>
      </trkpt>
      <trkpt lat="43.55629" lon="5.68736">
        <ele>551</ele>
        <time>2017-03-19T07:01:51Z</time>
      </trkpt>
      <trkpt lat="43.55629" lon="5.68764">
        <ele>549</ele>
        <time>2017-03-19T07:01:56Z</time>
      </trkpt>
      <trkpt lat="43.55618" lon="5.68783">
        <ele>549</ele>
        <time>2017-03-19T07:04:48Z</time>
      </trkpt>
      <trkpt lat="43.55597" lon="5.68784">
        <ele>550</ele>
        <time>2017-03-19T07:04:55Z</time>
      </trkpt>
      <trkpt lat="43.55579" lon="5.68784">
        <ele>550</ele>
        <time>2017-03-19T07:05:01Z</time>
      </trkpt>
      <trkpt lat="43.55561" lon="5.68786">
        <ele>549</ele>
        <time>2017-03-19T07:05:07Z</time>
      </trkpt>
      <trkpt lat="43.55542" lon="5.68793">
        <ele>549</ele>
        <time>2017-03-19T07:05:13Z</time>
      </trkpt>
      <trkpt lat="43.55535" lon="5.68816">
        <ele>548</ele>
        <time>2017-03-19T07:05:26Z</time>
      </trkpt>
      <trkpt lat="43.55547" lon="5.68834">
        <ele>545</ele>
        <time>2017-03-19T07:05:32Z</time>
      </trkpt>
      <trkpt lat="43.5556" lon="5.68853">
        <ele>546</ele>
        <time>2017-03-19T07:05:38Z</time>
      </trkpt>
      <trkpt lat="43.55574" lon="5.68874">
        <ele>545</ele>
        <time>2017-03-19T07:05:45Z</time>
      </trkpt>
      <trkpt lat="43.55588" lon="5.68892">
        <ele>547</ele>
        <time>2017-03-19T07:05:52Z</time>
      </trkpt>
      <trkpt lat="43.55601" lon="5.6891">
        <ele>546</ele>
        <time>2017-03-19T07:05:59Z</time>
      </trkpt>
      <trkpt lat="43.55613" lon="5.68932">
        <ele>546</ele>
        <time>2017-03-19T07:06:06Z</time>
      </trkpt>
      <trkpt lat="43.55622" lon="5.68955">
        <ele>546</ele>
        <time>2017-03-19T07:06:12Z</time>
      </trkpt>
      <trkpt lat="43.55632" lon="5.68979">
        <ele>547</ele>
        <time>2017-03-19T07:06:18Z</time>
      </trkpt>
      <trkpt lat="43.55644" lon="5.69">
        <ele>546</ele>
        <time>2017-03-19T07:06:24Z</time>
      </trkpt>
      <trkpt lat="43.55656" lon="5.6902">
        <ele>546</ele>
        <time>2017-03-19T07:06:30Z</time>
      </trkpt>
      <trkpt lat="43.55667" lon="5.69041">
        <ele>550</ele>
        <time>2017-03-19T07:06:36Z</time>
      </trkpt>
      <trkpt lat="43.55674" lon="5.69064">
        <ele>550</ele>
        <time>2017-03-19T07:06:42Z</time>
      </trkpt>
      <trkpt lat="43.55679" lon="5.69092">
        <ele>550</ele>
        <time>2017-03-19T07:06:48Z</time>
      </trkpt>
      <trkpt lat="43.55687" lon="5.69115">
        <ele>550</ele>
        <time>2017-03-19T07:06:54Z</time>
      </trkpt>
      <trkpt lat="43.55696" lon="5.69137">
        <ele>551</ele>
        <time>2017-03-19T07:07:01Z</time>
      </trkpt>
      <trkpt lat="43.55704" lon="5.69162">
        <ele>551</ele>
        <time>2017-03-19T07:07:09Z</time>
      </trkpt>
      <trkpt lat="43.5571" lon="5.69188">
        <ele>552</ele>
        <time>2017-03-19T07:07:17Z</time>
      </trkpt>
      <trkpt lat="43.55711" lon="5.69214">
        <ele>552</ele>
        <time>2017-03-19T07:07:24Z</time>
      </trkpt>
      <trkpt lat="43.55713" lon="5.69239">
        <ele>553</ele>
        <time>2017-03-19T07:07:32Z</time>
      </trkpt>
      <trkpt lat="43.55716" lon="5.69266">
        <ele>554</ele>
        <time>2017-03-19T07:07:41Z</time>
      </trkpt>
      <trkpt lat="43.55718" lon="5.69293">
        <ele>555</ele>
        <time>2017-03-19T07:07:50Z</time>
      </trkpt>
      <trkpt lat="43.55723" lon="5.6932">
        <ele>556</ele>
        <time>2017-03-19T07:07:58Z</time>
      </trkpt>
      <trkpt lat="43.55727" lon="5.69347">
        <ele>557</ele>
        <time>2017-03-19T07:08:06Z</time>
      </trkpt>
      <trkpt lat="43.5573" lon="5.69374">
        <ele>557</ele>
        <time>2017-03-19T07:08:14Z</time>
      </trkpt>
      <trkpt lat="43.55732" lon="5.69399">
        <ele>558</ele>
        <time>2017-03-19T07:08:21Z</time>
      </trkpt>
      <trkpt lat="43.55738" lon="5.69423">
        <ele>559</ele>
        <time>2017-03-19T07:08:28Z</time>
      </trkpt>
      <trkpt lat="43.55744" lon="5.6945">
        <ele>558</ele>
        <time>2017-03-19T07:08:35Z</time>
      </trkpt>
      <trkpt lat="43.5575" lon="5.69474">
        <ele>558</ele>
        <time>2017-03-19T07:08:41Z</time>
      </trkpt>
      <trkpt lat="43.55756" lon="5.69499">
        <ele>562</ele>
        <time>2017-03-19T07:08:47Z</time>
      </trkpt>
      <trkpt lat="43.55764" lon="5.69525">
        <ele>561</ele>
        <time>2017-03-19T07:08:53Z</time>
      </trkpt>
      <trkpt lat="43.5577" lon="5.69552">
        <ele>560</ele>
        <time>2017-03-19T07:08:59Z</time>
      </trkpt>
      <trkpt lat="43.55774" lon="5.69581">
        <ele>560</ele>
        <time>2017-03-19T07:09:05Z</time>
      </trkpt>
      <trkpt lat="43.55775" lon="5.69608">
        <ele>559</ele>
        <time>2017-03-19T07:09:10Z</time>
      </trkpt>
      <trkpt lat="43.55776" lon="5.69637">
        <ele>559</ele>
        <time>2017-03-19T07:09:15Z</time>
      </trkpt>
      <trkpt lat="43.55778" lon="5.69666">
        <ele>558</ele>
        <time>2017-03-19T07:09:20Z</time>
      </trkpt>
      <trkpt lat="43.55782" lon="5.69694">
        <ele>559</ele>
        <time>2017-03-19T07:09:25Z</time>
      </trkpt>
      <trkpt lat="43.55783" lon="5.69723">
        <ele>559</ele>
        <time>2017-03-19T07:09:30Z</time>
      </trkpt>
      <trkpt lat="43.55786" lon="5.69751">
        <ele>559</ele>
        <time>2017-03-19T07:09:35Z</time>
      </trkpt>
      <trkpt lat="43.55792" lon="5.69778">
        <ele>559</ele>
        <time>2017-03-19T07:09:40Z</time>
      </trkpt>
      <trkpt lat="43.558" lon="5.69804">
        <ele>559</ele>
        <time>2017-03-19T07:09:45Z</time>
      </trkpt>
      <trkpt lat="43.55806" lon="5.69832">
        <ele>559</ele>
        <time>2017-03-19T07:09:50Z</time>
      </trkpt>
      <trkpt lat="43.5581" lon="5.69858">
        <ele>557</ele>
        <time>2017-03-19T07:09:55Z</time>
      </trkpt>
      <trkpt lat="43.55813" lon="5.69886">
        <ele>557</ele>
        <time>2017-03-19T07:10:00Z</time>
      </trkpt>
      <trkpt lat="43.55813" lon="5.69912">
        <ele>557</ele>
        <time>2017-03-19T07:10:04Z</time>
      </trkpt>
      <trkpt lat="43.55816" lon="5.6994">
        <ele>554</ele>
        <time>2017-03-19T07:10:08Z</time>
      </trkpt>
      <trkpt lat="43.55825" lon="5.69965">
        <ele>553</ele>
        <time>2017-03-19T07:10:12Z</time>
      </trkpt>
      <trkpt lat="43.55838" lon="5.69988">
        <ele>556</ele>
        <time>2017-03-19T07:10:16Z</time>
      </trkpt>
      <trkpt lat="43.55852" lon="5.70011">
        <ele>554</ele>
        <time>2017-03-19T07:10:20Z</time>
      </trkpt>
      <trkpt lat="43.55864" lon="5.70033">
        <ele>554</ele>
        <time>2017-03-19T07:10:24Z</time>
      </trkpt>
      <trkpt lat="43.55875" lon="5.70057">
        <ele>553</ele>
        <time>2017-03-19T07:10:28Z</time>
      </trkpt>
      <trkpt lat="43.55886" lon="5.70085">
        <ele>551</ele>
        <time>2017-03-19T07:10:32Z</time>
      </trkpt>
      <trkpt lat="43.55897" lon="5.70106">
        <ele>551</ele>
        <time>2017-03-19T07:10:35Z</time>
      </trkpt>
      <trkpt lat="43.55912" lon="5.70127">
        <ele>550</ele>
        <time>2017-03-19T07:10:39Z</time>
      </trkpt>
      <trkpt lat="43.55926" lon="5.70144">
        <ele>550</ele>
        <time>2017-03-19T07:12:40Z</time>
      </trkpt>
      <trkpt lat="43.55924" lon="5.7017">
        <ele>549</ele>
        <time>2017-03-19T07:12:55Z</time>
      </trkpt>
      <trkpt lat="43.55916" lon="5.70194">
        <ele>546</ele>
        <time>2017-03-19T07:14:00Z</time>
      </trkpt>
      <trkpt lat="43.5591" lon="5.70219">
        <ele>545</ele>
        <time>2017-03-19T07:14:12Z</time>
      </trkpt>
      <trkpt lat="43.55925" lon="5.70237">
        <ele>548</ele>
        <time>2017-03-19T07:14:23Z</time>
      </trkpt>
      <trkpt lat="43.55939" lon="5.70256">
        <ele>546</ele>
        <time>2017-03-19T07:14:31Z</time>
      </trkpt>
      <trkpt lat="43.55954" lon="5.7027">
        <ele>545</ele>
        <time>2017-03-19T07:14:38Z</time>
      </trkpt>
      <trkpt lat="43.5597" lon="5.70286">
        <ele>545</ele>
        <time>2017-03-19T07:14:45Z</time>
      </trkpt>
      <trkpt lat="43.55986" lon="5.703">
        <ele>545</ele>
        <time>2017-03-19T07:14:53Z</time>
      </trkpt>
      <trkpt lat="43.55996" lon="5.70321">
        <ele>545</ele>
        <time>2017-03-19T07:15:00Z</time>
      </trkpt>
      <trkpt lat="43.56007" lon="5.70342">
        <ele>548</ele>
        <time>2017-03-19T07:15:09Z</time>
      </trkpt>
      <trkpt lat="43.56018" lon="5.70362">
        <ele>549</ele>
        <time>2017-03-19T07:15:18Z</time>
      </trkpt>
      <trkpt lat="43.56031" lon="5.70382">
        <ele>550</ele>
        <time>2017-03-19T07:15:28Z</time>
      </trkpt>
      <trkpt lat="43.56043" lon="5.70401">
        <ele>551</ele>
        <time>2017-03-19T07:15:38Z</time>
      </trkpt>
      <trkpt lat="43.56057" lon="5.70421">
        <ele>551</ele>
        <time>2017-03-19T07:15:49Z</time>
      </trkpt>
      <trkpt lat="43.56071" lon="5.7044">
        <ele>552</ele>
        <time>2017-03-19T07:16:00Z</time>
      </trkpt>
      <trkpt lat="43.56083" lon="5.7046">
        <ele>552</ele>
        <time>2017-03-19T07:16:11Z</time>
      </trkpt>
      <trkpt lat="43.56097" lon="5.70479">
        <ele>557</ele>
        <time>2017-03-19T07:16:22Z</time>
      </trkpt>
      <trkpt lat="43.56111" lon="5.70498">
        <ele>558</ele>
        <time>2017-03-19T07:16:33Z</time>
      </trkpt>
      <trkpt lat="43.56124" lon="5.70517">
        <ele>559</ele>
        <time>2017-03-19T07:16:44Z</time>
      </trkpt>
      <trkpt lat="43.56136" lon="5.70537">
        <ele>560</ele>
        <time>2017-03-19T07:16:54Z</time>
      </trkpt>
      <trkpt lat="43.56146" lon="5.70559">
        <ele>561</ele>
        <time>2017-03-19T07:17:04Z</time>
      </trkpt>
      <trkpt lat="43.56156" lon="5.70582">
        <ele>563</ele>
        <time>2017-03-19T07:17:14Z</time>
      </trkpt>
      <trkpt lat="43.56163" lon="5.70606">
        <ele>564</ele>
        <time>2017-03-19T07:17:23Z</time>
      </trkpt>
      <trkpt lat="43.56169" lon="5.7063">
        <ele>564</ele>
        <time>2017-03-19T07:17:32Z</time>
      </trkpt>
      <trkpt lat="43.56174" lon="5.70655">
        <ele>565</ele>
        <time>2017-03-19T07:17:41Z</time>
      </trkpt>
      <trkpt lat="43.56177" lon="5.7068">
        <ele>567</ele>
        <time>2017-03-19T07:17:50Z</time>
      </trkpt>
      <trkpt lat="43.56181" lon="5.70705">
        <ele>566</ele>
        <time>2017-03-19T07:17:59Z</time>
      </trkpt>
      <trkpt lat="43.56189" lon="5.70731">
        <ele>567</ele>
        <time>2017-03-19T07:18:08Z</time>
      </trkpt>
      <trkpt lat="43.56195" lon="5.70757">
        <ele>567</ele>
        <time>2017-03-19T07:18:17Z</time>
      </trkpt>
      <trkpt lat="43.56201" lon="5.70781">
        <ele>566</ele>
        <time>2017-03-19T07:18:24Z</time>
      </trkpt>
      <trkpt lat="43.56206" lon="5.70806">
        <ele>566</ele>
        <time>2017-03-19T07:18:31Z</time>
      </trkpt>
      <trkpt lat="43.56211" lon="5.70835">
        <ele>565</ele>
        <time>2017-03-19T07:18:38Z</time>
      </trkpt>
      <trkpt lat="43.56215" lon="5.70864">
        <ele>564</ele>
        <time>2017-03-19T07:18:44Z</time>
      </trkpt>
      <trkpt lat="43.5622" lon="5.7089">
        <ele>564</ele>
        <time>2017-03-19T07:18:49Z</time>
      </trkpt>
      <trkpt lat="43.56228" lon="5.70915">
        <ele>563</ele>
        <time>2017-03-19T07:18:54Z</time>
      </trkpt>
      <trkpt lat="43.56238" lon="5.70937">
        <ele>561</ele>
        <time>2017-03-19T07:18:58Z</time>
      </trkpt>
      <trkpt lat="43.56249" lon="5.70959">
        <ele>561</ele>
        <time>2017-03-19T07:19:02Z</time>
      </trkpt>
      <trkpt lat="43.56263" lon="5.70982">
        <ele>555</ele>
        <time>2017-03-19T07:19:06Z</time>
      </trkpt>
      <trkpt lat="43.56275" lon="5.71005">
        <ele>555</ele>
        <time>2017-03-19T07:19:10Z</time>
      </trkpt>
      <trkpt lat="43.56286" lon="5.71027">
        <ele>553</ele>
        <time>2017-03-19T07:19:14Z</time>
      </trkpt>
      <trkpt lat="43.56296" lon="5.71047">
        <ele>553</ele>
        <time>2017-03-19T07:19:18Z</time>
      </trkpt>
      <trkpt lat="43.56308" lon="5.71068">
        <ele>552</ele>
        <time>2017-03-19T07:19:22Z</time>
      </trkpt>
      <trkpt lat="43.56321" lon="5.71089">
        <ele>549</ele>
        <time>2017-03-19T07:19:26Z</time>
      </trkpt>
      <trkpt lat="43.56337" lon="5.7111">
        <ele>546</ele>
        <time>2017-03-19T07:19:30Z</time>
      </trkpt>
      <trkpt lat="43.56352" lon="5.71125">
        <ele>546</ele>
        <time>2017-03-19T07:19:33Z</time>
      </trkpt>
      <trkpt lat="43.56367" lon="5.71139">
        <ele>545</ele>
        <time>2017-03-19T07:19:36Z</time>
      </trkpt>
      <trkpt lat="43.56382" lon="5.71152">
        <ele>545</ele>
        <time>2017-03-19T07:19:39Z</time>
      </trkpt>
      <trkpt lat="43.56402" lon="5.71169">
        <ele>544</ele>
        <time>2017-03-19T07:19:43Z</time>
      </trkpt>
      <trkpt lat="43.5642" lon="5.71184">
        <ele>544</ele>
        <time>2017-03-19T07:19:47Z</time>
      </trkpt>
      <trkpt lat="43.56439" lon="5.71198">
        <ele>543</ele>
        <time>2017-03-19T07:19:52Z</time>
      </trkpt>
      <trkpt lat="43.56458" lon="5.71212">
        <ele>542</ele>
        <time>2017-03-19T07:19:57Z</time>
      </trkpt>
      <trkpt lat="43.56475" lon="5.71226">
        <ele>542</ele>
        <time>2017-03-19T07:20:02Z</time>
      </trkpt>
      <trkpt lat="43.5649" lon="5.71241">
        <ele>541</ele>
        <time>2017-03-19T07:20:07Z</time>
      </trkpt>
      <trkpt lat="43.56503" lon="5.71261">
        <ele>540</ele>
        <time>2017-03-19T07:20:12Z</time>
      </trkpt>
      <trkpt lat="43.56515" lon="5.71282">
        <ele>538</ele>
        <time>2017-03-19T07:20:16Z</time>
      </trkpt>
      <trkpt lat="43.56524" lon="5.71308">
        <ele>537</ele>
        <time>2017-03-19T07:20:20Z</time>
      </trkpt>
      <trkpt lat="43.5653" lon="5.71335">
        <ele>537</ele>
        <time>2017-03-19T07:20:24Z</time>
      </trkpt>
      <trkpt lat="43.56536" lon="5.71359">
        <ele>537</ele>
        <time>2017-03-19T07:20:28Z</time>
      </trkpt>
      <trkpt lat="43.56541" lon="5.71388">
        <ele>538</ele>
        <time>2017-03-19T07:20:33Z</time>
      </trkpt>
      <trkpt lat="43.56545" lon="5.71413">
        <ele>538</ele>
        <time>2017-03-19T07:20:39Z</time>
      </trkpt>
      <trkpt lat="43.56549" lon="5.7144">
        <ele>541</ele>
        <time>2017-03-19T07:20:46Z</time>
      </trkpt>
      <trkpt lat="43.56554" lon="5.71464">
        <ele>542</ele>
        <time>2017-03-19T07:20:53Z</time>
      </trkpt>
      <trkpt lat="43.56565" lon="5.71487">
        <ele>544</ele>
        <time>2017-03-19T07:21:01Z</time>
      </trkpt>
      <trkpt lat="43.5658" lon="5.71502">
        <ele>547</ele>
        <time>2017-03-19T07:21:08Z</time>
      </trkpt>
      <trkpt lat="43.56596" lon="5.71516">
        <ele>547</ele>
        <time>2017-03-19T07:21:15Z</time>
      </trkpt>
      <trkpt lat="43.56612" lon="5.71528">
        <ele>547</ele>
        <time>2017-03-19T07:21:22Z</time>
      </trkpt>
      <trkpt lat="43.5663" lon="5.71539">
        <ele>547</ele>
        <time>2017-03-19T07:21:30Z</time>
      </trkpt>
      <trkpt lat="43.56647" lon="5.71551">
        <ele>547</ele>
        <time>2017-03-19T07:21:38Z</time>
      </trkpt>
      <trkpt lat="43.56666" lon="5.71563">
        <ele>548</ele>
        <time>2017-03-19T07:21:46Z</time>
      </trkpt>
      <trkpt lat="43.56685" lon="5.71571">
        <ele>548</ele>
        <time>2017-03-19T07:21:54Z</time>
      </trkpt>
      <trkpt lat="43.56704" lon="5.71574">
        <ele>549</ele>
        <time>2017-03-19T07:22:01Z</time>
      </trkpt>
      <trkpt lat="43.56724" lon="5.71571">
        <ele>549</ele>
        <time>2017-03-19T07:22:09Z</time>
      </trkpt>
      <trkpt lat="43.56743" lon="5.71565">
        <ele>550</ele>
        <time>2017-03-19T07:22:17Z</time>
      </trkpt>
      <trkpt lat="43.56762" lon="5.71559">
        <ele>550</ele>
        <time>2017-03-19T07:22:25Z</time>
      </trkpt>
      <trkpt lat="43.56781" lon="5.71556">
        <ele>550</ele>
        <time>2017-03-19T07:22:33Z</time>
      </trkpt>
      <trkpt lat="43.56801" lon="5.71557">
        <ele>550</ele>
        <time>2017-03-19T07:22:41Z</time>
      </trkpt>
      <trkpt lat="43.56822" lon="5.71552">
        <ele>550</ele>
        <time>2017-03-19T07:22:48Z</time>
      </trkpt>
      <trkpt lat="43.56842" lon="5.71542">
        <ele>548</ele>
        <time>2017-03-19T07:22:53Z</time>
      </trkpt>
      <trkpt lat="43.56861" lon="5.71535">
        <ele>548</ele>
        <time>2017-03-19T07:22:57Z</time>
      </trkpt>
      <trkpt lat="43.5688" lon="5.71532">
        <ele>547</ele>
        <time>2017-03-19T07:23:01Z</time>
      </trkpt>
      <trkpt lat="43.56898" lon="5.7153">
        <ele>547</ele>
        <time>2017-03-19T07:23:05Z</time>
      </trkpt>
      <trkpt lat="43.56916" lon="5.7153">
        <ele>547</ele>
        <time>2017-03-19T07:23:09Z</time>
      </trkpt>
      <trkpt lat="43.5694" lon="5.71535">
        <ele>543</ele>
        <time>2017-03-19T07:23:13Z</time>
      </trkpt>
      <trkpt lat="43.56961" lon="5.71543">
        <ele>542</ele>
        <time>2017-03-19T07:23:16Z</time>
      </trkpt>
      <trkpt lat="43.56984" lon="5.71552">
        <ele>540</ele>
        <time>2017-03-19T07:23:19Z</time>
      </trkpt>
      <trkpt lat="43.57008" lon="5.71564">
        <ele>535</ele>
        <time>2017-03-19T07:23:22Z</time>
      </trkpt>
      <trkpt lat="43.5703" lon="5.71581">
        <ele>534</ele>
        <time>2017-03-19T07:23:25Z</time>
      </trkpt>
      <trkpt lat="43.57051" lon="5.71597">
        <ele>528</ele>
        <time>2017-03-19T07:23:28Z</time>
      </trkpt>
      <trkpt lat="43.57071" lon="5.71612">
        <ele>527</ele>
        <time>2017-03-19T07:23:31Z</time>
      </trkpt>
      <trkpt lat="43.57089" lon="5.71633">
        <ele>520</ele>
        <time>2017-03-19T07:23:34Z</time>
      </trkpt>
      <trkpt lat="43.57103" lon="5.71663">
        <ele>520</ele>
        <time>2017-03-19T07:23:37Z</time>
      </trkpt>
      <trkpt lat="43.57113" lon="5.71684">
        <ele>519</ele>
        <time>2017-03-19T07:23:39Z</time>
      </trkpt>
      <trkpt lat="43.57123" lon="5.71706">
        <ele>518</ele>
        <time>2017-03-19T07:23:41Z</time>
      </trkpt>
      <trkpt lat="43.57134" lon="5.71727">
        <ele>517</ele>
        <time>2017-03-19T07:23:43Z</time>
      </trkpt>
      <trkpt lat="43.57145" lon="5.71748">
        <ele>517</ele>
        <time>2017-03-19T07:23:45Z</time>
      </trkpt>
      <trkpt lat="43.57159" lon="5.71778">
        <ele>515</ele>
        <time>2017-03-19T07:23:48Z</time>
      </trkpt>
      <trkpt lat="43.57175" lon="5.71807">
        <ele>510</ele>
        <time>2017-03-19T07:23:51Z</time>
      </trkpt>
      <trkpt lat="43.5719" lon="5.71837">
        <ele>508</ele>
        <time>2017-03-19T07:23:54Z</time>
      </trkpt>
      <trkpt lat="43.57205" lon="5.71867">
        <ele>506</ele>
        <time>2017-03-19T07:23:57Z</time>
      </trkpt>
      <trkpt lat="43.57215" lon="5.71887">
        <ele>505</ele>
        <time>2017-03-19T07:23:59Z</time>
      </trkpt>
      <trkpt lat="43.57226" lon="5.71908">
        <ele>504</ele>
        <time>2017-03-19T07:24:01Z</time>
      </trkpt>
      <trkpt lat="43.57238" lon="5.71927">
        <ele>502</ele>
        <time>2017-03-19T07:24:03Z</time>
      </trkpt>
      <trkpt lat="43.57251" lon="5.71946">
        <ele>497</ele>
        <time>2017-03-19T07:24:05Z</time>
      </trkpt>
      <trkpt lat="43.57263" lon="5.71964">
        <ele>496</ele>
        <time>2017-03-19T07:24:07Z</time>
      </trkpt>
      <trkpt lat="43.57281" lon="5.71989">
        <ele>496</ele>
        <time>2017-03-19T07:24:10Z</time>
      </trkpt>
      <trkpt lat="43.57298" lon="5.72009">
        <ele>499</ele>
        <time>2017-03-19T07:24:13Z</time>
      </trkpt>
      <trkpt lat="43.57313" lon="5.72027">
        <ele>499</ele>
        <time>2017-03-19T07:24:16Z</time>
      </trkpt>
      <trkpt lat="43.5733" lon="5.72047">
        <ele>500</ele>
        <time>2017-03-19T07:24:20Z</time>
      </trkpt>
      <trkpt lat="43.57344" lon="5.72065">
        <ele>497</ele>
        <time>2017-03-19T07:24:24Z</time>
      </trkpt>
      <trkpt lat="43.5736" lon="5.72083">
        <ele>497</ele>
        <time>2017-03-19T07:24:29Z</time>
      </trkpt>
      <trkpt lat="43.57364" lon="5.72054">
        <ele>495</ele>
        <time>2017-03-19T07:29:30Z</time>
      </trkpt>
      <trkpt lat="43.57362" lon="5.72026">
        <ele>493</ele>
        <time>2017-03-19T07:29:38Z</time>
      </trkpt>
      <trkpt lat="43.57351" lon="5.72003">
        <ele>494</ele>
        <time>2017-03-19T07:29:46Z</time>
      </trkpt>
      <trkpt lat="43.57335" lon="5.71988">
        <ele>489</ele>
        <time>2017-03-19T07:29:52Z</time>
      </trkpt>
      <trkpt lat="43.57319" lon="5.71974">
        <ele>493</ele>
        <time>2017-03-19T07:29:57Z</time>
      </trkpt>
      <trkpt lat="43.57303" lon="5.71963">
        <ele>493</ele>
        <time>2017-03-19T07:30:01Z</time>
      </trkpt>
      <trkpt lat="43.57288" lon="5.71948">
        <ele>494</ele>
        <time>2017-03-19T07:30:05Z</time>
      </trkpt>
      <trkpt lat="43.57278" lon="5.71922">
        <ele>495</ele>
        <time>2017-03-19T07:30:10Z</time>
      </trkpt>
      <trkpt lat="43.57272" lon="5.71893">
        <ele>491</ele>
        <time>2017-03-19T07:30:15Z</time>
      </trkpt>
      <trkpt lat="43.57272" lon="5.71868">
        <ele>490</ele>
        <time>2017-03-19T07:30:19Z</time>
      </trkpt>
      <trkpt lat="43.57278" lon="5.71844">
        <ele>490</ele>
        <time>2017-03-19T07:30:24Z</time>
      </trkpt>
      <trkpt lat="43.57286" lon="5.71821">
        <ele>486</ele>
        <time>2017-03-19T07:30:32Z</time>
      </trkpt>
      <trkpt lat="43.57295" lon="5.71797">
        <ele>484</ele>
        <time>2017-03-19T07:30:36Z</time>
      </trkpt>
      <trkpt lat="43.57301" lon="5.71766">
        <ele>483</ele>
        <time>2017-03-19T07:30:40Z</time>
      </trkpt>
      <trkpt lat="43.57302" lon="5.71734">
        <ele>481</ele>
        <time>2017-03-19T07:30:44Z</time>
      </trkpt>
      <trkpt lat="43.57298" lon="5.71703">
        <ele>481</ele>
        <time>2017-03-19T07:30:48Z</time>
      </trkpt>
      <trkpt lat="43.57286" lon="5.71675">
        <ele>483</ele>
        <time>2017-03-19T07:30:52Z</time>
      </trkpt>
      <trkpt lat="43.57275" lon="5.71652">
        <ele>480</ele>
        <time>2017-03-19T07:30:55Z</time>
      </trkpt>
      <trkpt lat="43.57264" lon="5.71632">
        <ele>479</ele>
        <time>2017-03-19T07:30:58Z</time>
      </trkpt>
      <trkpt lat="43.57248" lon="5.71609">
        <ele>492</ele>
        <time>2017-03-19T07:31:02Z</time>
      </trkpt>
      <trkpt lat="43.57232" lon="5.71587">
        <ele>490</ele>
        <time>2017-03-19T07:31:06Z</time>
      </trkpt>
      <trkpt lat="43.57219" lon="5.71566">
        <ele>492</ele>
        <time>2017-03-19T07:31:10Z</time>
      </trkpt>
      <trkpt lat="43.57211" lon="5.71542">
        <ele>494</ele>
        <time>2017-03-19T07:31:15Z</time>
      </trkpt>
      <trkpt lat="43.57228" lon="5.7153">
        <ele>491</ele>
        <time>2017-03-19T07:31:22Z</time>
      </trkpt>
      <trkpt lat="43.57247" lon="5.71524">
        <ele>489</ele>
        <time>2017-03-19T07:31:35Z</time>
      </trkpt>
      <trkpt lat="43.57267" lon="5.71519">
        <ele>476</ele>
        <time>2017-03-19T07:31:40Z</time>
      </trkpt>
      <trkpt lat="43.57286" lon="5.71514">
        <ele>473</ele>
        <time>2017-03-19T07:31:44Z</time>
      </trkpt>
      <trkpt lat="43.57306" lon="5.71512">
        <ele>469</ele>
        <time>2017-03-19T07:31:48Z</time>
      </trkpt>
      <trkpt lat="43.57325" lon="5.71516">
        <ele>467</ele>
        <time>2017-03-19T07:31:52Z</time>
      </trkpt>
      <trkpt lat="43.57347" lon="5.71524">
        <ele>455</ele>
        <time>2017-03-19T07:31:56Z</time>
      </trkpt>
      <trkpt lat="43.57368" lon="5.71527">
        <ele>453</ele>
        <time>2017-03-19T07:32:00Z</time>
      </trkpt>
      <trkpt lat="43.57387" lon="5.71515">
        <ele>451</ele>
        <time>2017-03-19T07:32:04Z</time>
      </trkpt>
      <trkpt lat="43.57393" lon="5.71489">
        <ele>451</ele>
        <time>2017-03-19T07:32:08Z</time>
      </trkpt>
      <trkpt lat="43.5738" lon="5.71468">
        <ele>452</ele>
        <time>2017-03-19T07:32:12Z</time>
      </trkpt>
      <trkpt lat="43.57367" lon="5.7145">
        <ele>452</ele>
        <time>2017-03-19T07:32:15Z</time>
      </trkpt>
      <trkpt lat="43.57354" lon="5.71428">
        <ele>453</ele>
        <time>2017-03-19T07:32:18Z</time>
      </trkpt>
      <trkpt lat="43.57343" lon="5.71402">
        <ele>452</ele>
        <time>2017-03-19T07:32:21Z</time>
      </trkpt>
      <trkpt lat="43.57332" lon="5.71376">
        <ele>457</ele>
        <time>2017-03-19T07:32:24Z</time>
      </trkpt>
      <trkpt lat="43.57322" lon="5.7135">
        <ele>454</ele>
        <time>2017-03-19T07:32:27Z</time>
      </trkpt>
      <trkpt lat="43.57311" lon="5.71326">
        <ele>452</ele>
        <time>2017-03-19T07:32:30Z</time>
      </trkpt>
      <trkpt lat="43.57295" lon="5.71308">
        <ele>454</ele>
        <time>2017-03-19T07:32:33Z</time>
      </trkpt>
      <trkpt lat="43.57281" lon="5.71292">
        <ele>455</ele>
        <time>2017-03-19T07:32:37Z</time>
      </trkpt>
      <trkpt lat="43.573" lon="5.71284">
        <ele>454</ele>
        <time>2017-03-19T07:33:46Z</time>
      </trkpt>
      <trkpt lat="43.57318" lon="5.7129">
        <ele>454</ele>
        <time>2017-03-19T07:33:50Z</time>
      </trkpt>
      <trkpt lat="43.57334" lon="5.71304">
        <ele>456</ele>
        <time>2017-03-19T07:33:54Z</time>
      </trkpt>
      <trkpt lat="43.57346" lon="5.71327">
        <ele>452</ele>
        <time>2017-03-19T07:33:58Z</time>
      </trkpt>
      <trkpt lat="43.57355" lon="5.7135">
        <ele>450</ele>
        <time>2017-03-19T07:34:02Z</time>
      </trkpt>
      <trkpt lat="43.57366" lon="5.7137">
        <ele>451</ele>
        <time>2017-03-19T07:34:06Z</time>
      </trkpt>
      <trkpt lat="43.57379" lon="5.71389">
        <ele>450</ele>
        <time>2017-03-19T07:34:10Z</time>
      </trkpt>
      <trkpt lat="43.57396" lon="5.71408">
        <ele>448</ele>
        <time>2017-03-19T07:34:14Z</time>
      </trkpt>
      <trkpt lat="43.57414" lon="5.71418">
        <ele>444</ele>
        <time>2017-03-19T07:34:18Z</time>
      </trkpt>
      <trkpt lat="43.57435" lon="5.71424">
        <ele>443</ele>
        <time>2017-03-19T07:34:22Z</time>
      </trkpt>
      <trkpt lat="43.57458" lon="5.71428">
        <ele>444</ele>
        <time>2017-03-19T07:34:26Z</time>
      </trkpt>
      <trkpt lat="43.57479" lon="5.71432">
        <ele>444</ele>
        <time>2017-03-19T07:34:30Z</time>
      </trkpt>
      <trkpt lat="43.57499" lon="5.7144">
        <ele>444</ele>
        <time>2017-03-19T07:34:34Z</time>
      </trkpt>
      <trkpt lat="43.57516" lon="5.71455">
        <ele>451</ele>
        <time>2017-03-19T07:34:38Z</time>
      </trkpt>
      <trkpt lat="43.57522" lon="5.71481">
        <ele>449</ele>
        <time>2017-03-19T07:34:42Z</time>
      </trkpt>
      <trkpt lat="43.57521" lon="5.71507">
        <ele>446</ele>
        <time>2017-03-19T07:34:46Z</time>
      </trkpt>
      <trkpt lat="43.57512" lon="5.71531">
        <ele>447</ele>
        <time>2017-03-19T07:34:51Z</time>
      </trkpt>
      <trkpt lat="43.57493" lon="5.71541">
        <ele>439</ele>
        <time>2017-03-19T07:34:55Z</time>
      </trkpt>
      <trkpt lat="43.57475" lon="5.71553">
        <ele>440</ele>
        <time>2017-03-19T07:34:59Z</time>
      </trkpt>
      <trkpt lat="43.57461" lon="5.71574">
        <ele>440</ele>
        <time>2017-03-19T07:35:03Z</time>
      </trkpt>
      <trkpt lat="43.57447" lon="5.71596">
        <ele>439</ele>
        <time>2017-03-19T07:35:07Z</time>
      </trkpt>
      <trkpt lat="43.57438" lon="5.71621">
        <ele>439</ele>
        <time>2017-03-19T07:35:11Z</time>
      </trkpt>
      <trkpt lat="43.57439" lon="5.71652">
        <ele>438</ele>
        <time>2017-03-19T07:35:15Z</time>
      </trkpt>
      <trkpt lat="43.57442" lon="5.71683">
        <ele>437</ele>
        <time>2017-03-19T07:35:19Z</time>
      </trkpt>
      <trkpt lat="43.57435" lon="5.71706">
        <ele>436</ele>
        <time>2017-03-19T07:35:23Z</time>
      </trkpt>
      <trkpt lat="43.57429" lon="5.71731">
        <ele>435</ele>
        <time>2017-03-19T07:35:27Z</time>
      </trkpt>
      <trkpt lat="43.57433" lon="5.71761">
        <ele>433</ele>
        <time>2017-03-19T07:35:32Z</time>
      </trkpt>
      <trkpt lat="43.57452" lon="5.71775">
        <ele>433</ele>
        <time>2017-03-19T07:35:37Z</time>
      </trkpt>
      <trkpt lat="43.57473" lon="5.71783">
        <ele>433</ele>
        <time>2017-03-19T07:35:41Z</time>
      </trkpt>
      <trkpt lat="43.57492" lon="5.71795">
        <ele>432</ele>
        <time>2017-03-19T07:35:45Z</time>
      </trkpt>
      <trkpt lat="43.57507" lon="5.71817">
        <ele>430</ele>
        <time>2017-03-19T07:35:49Z</time>
      </trkpt>
      <trkpt lat="43.57519" lon="5.7184">
        <ele>427</ele>
        <time>2017-03-19T07:35:53Z</time>
      </trkpt>
      <trkpt lat="43.57536" lon="5.71849">
        <ele>427</ele>
        <time>2017-03-19T07:35:57Z</time>
      </trkpt>
      <trkpt lat="43.57556" lon="5.7184">
        <ele>426</ele>
        <time>2017-03-19T07:36:01Z</time>
      </trkpt>
      <trkpt lat="43.57577" lon="5.71833">
        <ele>426</ele>
        <time>2017-03-19T07:36:05Z</time>
      </trkpt>
      <trkpt lat="43.57597" lon="5.71837">
        <ele>422</ele>
        <time>2017-03-19T07:36:09Z</time>
      </trkpt>
      <trkpt lat="43.57619" lon="5.71843">
        <ele>421</ele>
        <time>2017-03-19T07:36:13Z</time>
      </trkpt>
      <trkpt lat="43.57638" lon="5.71846">
        <ele>420</ele>
        <time>2017-03-19T07:36:16Z</time>
      </trkpt>
      <trkpt lat="43.57659" lon="5.7184">
        <ele>420</ele>
        <time>2017-03-19T07:36:20Z</time>
      </trkpt>
      <trkpt lat="43.57677" lon="5.71845">
        <ele>418</ele>
        <time>2017-03-19T07:36:25Z</time>
      </trkpt>
      <trkpt lat="43.57681" lon="5.71871">
        <ele>416</ele>
        <time>2017-03-19T07:36:29Z</time>
      </trkpt>
      <trkpt lat="43.57689" lon="5.71895">
        <ele>414</ele>
        <time>2017-03-19T07:36:34Z</time>
      </trkpt>
      <trkpt lat="43.57688" lon="5.7192">
        <ele>411</ele>
        <time>2017-03-19T07:40:54Z</time>
      </trkpt>
      <trkpt lat="43.57671" lon="5.7193">
        <ele>411</ele>
        <time>2017-03-19T07:43:39Z</time>
      </trkpt>
      <trkpt lat="43.57651" lon="5.71931">
        <ele>416</ele>
        <time>2017-03-19T07:43:48Z</time>
      </trkpt>
      <trkpt lat="43.57633" lon="5.71938">
        <ele>418</ele>
        <time>2017-03-19T07:43:56Z</time>
      </trkpt>
      <trkpt lat="43.57618" lon="5.71953">
        <ele>420</ele>
        <time>2017-03-19T07:44:05Z</time>
      </trkpt>
      <trkpt lat="43.57626" lon="5.71975">
        <ele>420</ele>
        <time>2017-03-19T07:44:14Z</time>
      </trkpt>
      <trkpt lat="43.57646" lon="5.7198">
        <ele>418</ele>
        <time>2017-03-19T07:44:22Z</time>
      </trkpt>
      <trkpt lat="43.57665" lon="5.71979">
        <ele>417</ele>
        <time>2017-03-19T07:44:28Z</time>
      </trkpt>
      <trkpt lat="43.57683" lon="5.71986">
        <ele>411</ele>
        <time>2017-03-19T07:44:35Z</time>
      </trkpt>
      <trkpt lat="43.57701" lon="5.72">
        <ele>418</ele>
        <time>2017-03-19T07:44:41Z</time>
      </trkpt>
      <trkpt lat="43.57721" lon="5.72003">
        <ele>417</ele>
        <time>2017-03-19T07:44:47Z</time>
      </trkpt>
      <trkpt lat="43.5774" lon="5.71997">
        <ele>410</ele>
        <time>2017-03-19T07:44:54Z</time>
      </trkpt>
      <trkpt lat="43.57756" lon="5.71982">
        <ele>409</ele>
        <time>2017-03-19T07:45:01Z</time>
      </trkpt>
      <trkpt lat="43.5776" lon="5.71957">
        <ele>408</ele>
        <time>2017-03-19T07:45:08Z</time>
      </trkpt>
      <trkpt lat="43.5775" lon="5.71933">
        <ele>407</ele>
        <time>2017-03-19T07:45:14Z</time>
      </trkpt>
      <trkpt lat="43.57743" lon="5.71909">
        <ele>409</ele>
        <time>2017-03-19T07:45:23Z</time>
      </trkpt>
      <trkpt lat="43.57751" lon="5.71885">
        <ele>413</ele>
        <time>2017-03-19T07:45:30Z</time>
      </trkpt>
      <trkpt lat="43.57769" lon="5.71885">
        <ele>413</ele>
        <time>2017-03-19T07:45:40Z</time>
      </trkpt>
      <trkpt lat="43.57786" lon="5.71899">
        <ele>412</ele>
        <time>2017-03-19T07:45:47Z</time>
      </trkpt>
      <trkpt lat="43.57802" lon="5.71912">
        <ele>410</ele>
        <time>2017-03-19T07:45:53Z</time>
      </trkpt>
      <trkpt lat="43.57818" lon="5.71923">
        <ele>405</ele>
        <time>2017-03-19T07:45:59Z</time>
      </trkpt>
      <trkpt lat="43.57838" lon="5.7193">
        <ele>405</ele>
        <time>2017-03-19T07:46:07Z</time>
      </trkpt>
      <trkpt lat="43.57855" lon="5.71915">
        <ele>407</ele>
        <time>2017-03-19T07:46:13Z</time>
      </trkpt>
      <trkpt lat="43.57874" lon="5.71902">
        <ele>408</ele>
        <time>2017-03-19T07:46:19Z</time>
      </trkpt>
      <trkpt lat="43.57891" lon="5.71891">
        <ele>408</ele>
        <time>2017-03-19T07:46:25Z</time>
      </trkpt>
      <trkpt lat="43.57906" lon="5.71875">
        <ele>410</ele>
        <time>2017-03-19T07:46:31Z</time>
      </trkpt>
      <trkpt lat="43.57923" lon="5.71863">
        <ele>409</ele>
        <time>2017-03-19T07:46:38Z</time>
      </trkpt>
      <trkpt lat="43.57943" lon="5.71865">
        <ele>409</ele>
        <time>2017-03-19T07:46:44Z</time>
      </trkpt>
      <trkpt lat="43.57959" lon="5.71879">
        <ele>408</ele>
        <time>2017-03-19T07:46:52Z</time>
      </trkpt>
      <trkpt lat="43.57976" lon="5.71895">
        <ele>406</ele>
        <time>2017-03-19T07:46:58Z</time>
      </trkpt>
      <trkpt lat="43.57991" lon="5.71909">
        <ele>404</ele>
        <time>2017-03-19T07:47:04Z</time>
      </trkpt>
      <trkpt lat="43.58009" lon="5.7192">
        <ele>401</ele>
        <time>2017-03-19T07:47:10Z</time>
      </trkpt>
      <trkpt lat="43.58029" lon="5.71928">
        <ele>401</ele>
        <time>2017-03-19T07:47:17Z</time>
      </trkpt>
      <trkpt lat="43.5804" lon="5.71951">
        <ele>400</ele>
        <time>2017-03-19T07:47:22Z</time>
      </trkpt>
      <trkpt lat="43.58039" lon="5.71978">
        <ele>400</ele>
        <time>2017-03-19T07:47:28Z</time>
      </trkpt>
      <trkpt lat="43.58052" lon="5.72001">
        <ele>403</ele>
        <time>2017-03-19T07:47:36Z</time>
      </trkpt>
      <trkpt lat="43.58068" lon="5.72016">
        <ele>401</ele>
        <time>2017-03-19T07:47:44Z</time>
      </trkpt>
      <trkpt lat="43.58089" lon="5.72016">
        <ele>395</ele>
        <time>2017-03-19T07:47:51Z</time>
      </trkpt>
      <trkpt lat="43.58109" lon="5.72017">
        <ele>395</ele>
        <time>2017-03-19T07:47:57Z</time>
      </trkpt>
      <trkpt lat="43.58128" lon="5.7201">
        <ele>394</ele>
        <time>2017-03-19T07:48:04Z</time>
      </trkpt>
      <trkpt lat="43.58144" lon="5.71997">
        <ele>391</ele>
        <time>2017-03-19T07:48:10Z</time>
      </trkpt>
      <trkpt lat="43.58163" lon="5.71988">
        <ele>391</ele>
        <time>2017-03-19T07:48:17Z</time>
      </trkpt>
      <trkpt lat="43.58158" lon="5.71961">
        <ele>392</ele>
        <time>2017-03-19T07:48:30Z</time>
      </trkpt>
      <trkpt lat="43.58148" lon="5.71937">
        <ele>392</ele>
        <time>2017-03-19T07:48:38Z</time>
      </trkpt>
      <trkpt lat="43.58139" lon="5.71915">
        <ele>395</ele>
        <time>2017-03-19T07:48:45Z</time>
      </trkpt>
      <trkpt lat="43.58133" lon="5.7189">
        <ele>397</ele>
        <time>2017-03-19T07:48:51Z</time>
      </trkpt>
      <trkpt lat="43.58126" lon="5.71866">
        <ele>398</ele>
        <time>2017-03-19T07:48:57Z</time>
      </trkpt>
      <trkpt lat="43.58122" lon="5.7184">
        <ele>399</ele>
        <time>2017-03-19T07:49:04Z</time>
      </trkpt>
      <trkpt lat="43.58119" lon="5.71813">
        <ele>403</ele>
        <time>2017-03-19T07:49:12Z</time>
      </trkpt>
      <trkpt lat="43.58124" lon="5.71785">
        <ele>402</ele>
        <time>2017-03-19T07:49:19Z</time>
      </trkpt>
      <trkpt lat="43.58132" lon="5.71763">
        <ele>401</ele>
        <time>2017-03-19T07:49:34Z</time>
      </trkpt>
      <trkpt lat="43.58132" lon="5.71739">
        <ele>402</ele>
        <time>2017-03-19T07:50:02Z</time>
      </trkpt>
      <trkpt lat="43.58144" lon="5.7172">
        <ele>401</ele>
        <time>2017-03-19T07:51:22Z</time>
      </trkpt>
      <trkpt lat="43.58155" lon="5.71698">
        <ele>400</ele>
        <time>2017-03-19T07:51:30Z</time>
      </trkpt>
      <trkpt lat="43.58162" lon="5.71675">
        <ele>397</ele>
        <time>2017-03-19T07:51:37Z</time>
      </trkpt>
      <trkpt lat="43.58164" lon="5.71649">
        <ele>400</ele>
        <time>2017-03-19T07:51:45Z</time>
      </trkpt>
      <trkpt lat="43.58165" lon="5.71623">
        <ele>402</ele>
        <time>2017-03-19T07:51:53Z</time>
      </trkpt>
      <trkpt lat="43.58164" lon="5.71596">
        <ele>401</ele>
        <time>2017-03-19T07:52:03Z</time>
      </trkpt>
      <trkpt lat="43.58156" lon="5.71571">
        <ele>402</ele>
        <time>2017-03-19T07:52:12Z</time>
      </trkpt>
      <trkpt lat="43.58149" lon="5.71546">
        <ele>404</ele>
        <time>2017-03-19T07:52:20Z</time>
      </trkpt>
      <trkpt lat="43.5814" lon="5.71524">
        <ele>405</ele>
        <time>2017-03-19T07:52:28Z</time>
      </trkpt>
      <trkpt lat="43.58132" lon="5.715">
        <ele>405</ele>
        <time>2017-03-19T07:52:36Z</time>
      </trkpt>
      <trkpt lat="43.58121" lon="5.71478">
        <ele>405</ele>
        <time>2017-03-19T07:52:45Z</time>
      </trkpt>
      <trkpt lat="43.58103" lon="5.71466">
        <ele>406</ele>
        <time>2017-03-19T07:52:57Z</time>
      </trkpt>
      <trkpt lat="43.5809" lon="5.71447">
        <ele>405</ele>
        <time>2017-03-19T07:53:06Z</time>
      </trkpt>
      <trkpt lat="43.58076" lon="5.71428">
        <ele>407</ele>
        <time>2017-03-19T07:53:16Z</time>
      </trkpt>
      <trkpt lat="43.5806" lon="5.71414">
        <ele>405</ele>
        <time>2017-03-19T07:53:25Z</time>
      </trkpt>
      <trkpt lat="43.58045" lon="5.71397">
        <ele>407</ele>
        <time>2017-03-19T07:53:35Z</time>
      </trkpt>
      <trkpt lat="43.58028" lon="5.71386">
        <ele>408</ele>
        <time>2017-03-19T07:53:43Z</time>
      </trkpt>
      <trkpt lat="43.58011" lon="5.71374">
        <ele>408</ele>
        <time>2017-03-19T07:53:50Z</time>
      </trkpt>
      <trkpt lat="43.57996" lon="5.7136">
        <ele>412</ele>
        <time>2017-03-19T07:53:58Z</time>
      </trkpt>
      <trkpt lat="43.57985" lon="5.71339">
        <ele>411</ele>
        <time>2017-03-19T07:54:29Z</time>
      </trkpt>
      <trkpt lat="43.57986" lon="5.71314">
        <ele>410</ele>
        <time>2017-03-19T07:55:07Z</time>
      </trkpt>
      <trkpt lat="43.58002" lon="5.71303">
        <ele>408</ele>
        <time>2017-03-19T07:57:13Z</time>
      </trkpt>
      <trkpt lat="43.58019" lon="5.71288">
        <ele>408</ele>
        <time>2017-03-19T07:57:26Z</time>
      </trkpt>
      <trkpt lat="43.58028" lon="5.71265">
        <ele>409</ele>
        <time>2017-03-19T07:57:37Z</time>
      </trkpt>
      <trkpt lat="43.58035" lon="5.71239">
        <ele>412</ele>
        <time>2017-03-19T07:57:46Z</time>
      </trkpt>
      <trkpt lat="43.58043" lon="5.71217">
        <ele>412</ele>
        <time>2017-03-19T07:57:55Z</time>
      </trkpt>
      <trkpt lat="43.58045" lon="5.7119">
        <ele>413</ele>
        <time>2017-03-19T07:58:04Z</time>
      </trkpt>
      <trkpt lat="43.58056" lon="5.71168">
        <ele>412</ele>
        <time>2017-03-19T07:58:11Z</time>
      </trkpt>
      <trkpt lat="43.58069" lon="5.71148">
        <ele>415</ele>
        <time>2017-03-19T07:58:17Z</time>
      </trkpt>
      <trkpt lat="43.58079" lon="5.71127">
        <ele>416</ele>
        <time>2017-03-19T07:58:30Z</time>
      </trkpt>
      <trkpt lat="43.58076" lon="5.71102">
        <ele>416</ele>
        <time>2017-03-19T07:58:40Z</time>
      </trkpt>
      <trkpt lat="43.58087" lon="5.71081">
        <ele>412</ele>
        <time>2017-03-19T07:58:47Z</time>
      </trkpt>
      <trkpt lat="43.58098" lon="5.7106">
        <ele>412</ele>
        <time>2017-03-19T07:58:54Z</time>
      </trkpt>
      <trkpt lat="43.58101" lon="5.71031">
        <ele>413</ele>
        <time>2017-03-19T07:59:02Z</time>
      </trkpt>
      <trkpt lat="43.58096" lon="5.71006">
        <ele>414</ele>
        <time>2017-03-19T07:59:09Z</time>
      </trkpt>
      <trkpt lat="43.58099" lon="5.7098">
        <ele>416</ele>
        <time>2017-03-19T07:59:17Z</time>
      </trkpt>
      <trkpt lat="43.58104" lon="5.70955">
        <ele>416</ele>
        <time>2017-03-19T07:59:24Z</time>
      </trkpt>
      <trkpt lat="43.58111" lon="5.70928">
        <ele>417</ele>
        <time>2017-03-19T07:59:31Z</time>
      </trkpt>
      <trkpt lat="43.58122" lon="5.70907">
        <ele>420</ele>
        <time>2017-03-19T07:59:37Z</time>
      </trkpt>
      <trkpt lat="43.58133" lon="5.70887">
        <ele>419</ele>
        <time>2017-03-19T07:59:42Z</time>
      </trkpt>
      <trkpt lat="43.58145" lon="5.70866">
        <ele>419</ele>
        <time>2017-03-19T07:59:47Z</time>
      </trkpt>
      <trkpt lat="43.58147" lon="5.70839">
        <ele>418</ele>
        <time>2017-03-19T07:59:55Z</time>
      </trkpt>
      <trkpt lat="43.58155" lon="5.70815">
        <ele>422</ele>
        <time>2017-03-19T08:00:02Z</time>
      </trkpt>
      <trkpt lat="43.58164" lon="5.70791">
        <ele>424</ele>
        <time>2017-03-19T08:00:10Z</time>
      </trkpt>
      <trkpt lat="43.58175" lon="5.7077">
        <ele>421</ele>
        <time>2017-03-19T08:00:22Z</time>
      </trkpt>
      <trkpt lat="43.58181" lon="5.70746">
        <ele>424</ele>
        <time>2017-03-19T08:00:36Z</time>
      </trkpt>
      <trkpt lat="43.58179" lon="5.7072">
        <ele>424</ele>
        <time>2017-03-19T08:00:49Z</time>
      </trkpt>
      <trkpt lat="43.58164" lon="5.70704">
        <ele>427</ele>
        <time>2017-03-19T08:01:01Z</time>
      </trkpt>
      <trkpt lat="43.58154" lon="5.70681">
        <ele>426</ele>
        <time>2017-03-19T08:01:13Z</time>
      </trkpt>
      <trkpt lat="43.58141" lon="5.70658">
        <ele>425</ele>
        <time>2017-03-19T08:01:18Z</time>
      </trkpt>
      <trkpt lat="43.58131" lon="5.70636">
        <ele>426</ele>
        <time>2017-03-19T08:01:26Z</time>
      </trkpt>
      <trkpt lat="43.58121" lon="5.70612">
        <ele>426</ele>
        <time>2017-03-19T08:01:33Z</time>
      </trkpt>
      <trkpt lat="43.58113" lon="5.70585">
        <ele>427</ele>
        <time>2017-03-19T08:01:38Z</time>
      </trkpt>
      <trkpt lat="43.58106" lon="5.70562">
        <ele>426</ele>
        <time>2017-03-19T08:01:42Z</time>
      </trkpt>
      <trkpt lat="43.58101" lon="5.70533">
        <ele>426</ele>
        <time>2017-03-19T08:01:47Z</time>
      </trkpt>
      <trkpt lat="43.58098" lon="5.70505">
        <ele>426</ele>
        <time>2017-03-19T08:01:52Z</time>
      </trkpt>
      <trkpt lat="43.58093" lon="5.70476">
        <ele>428</ele>
        <time>2017-03-19T08:01:58Z</time>
      </trkpt>
      <trkpt lat="43.58087" lon="5.70451">
        <ele>427</ele>
        <time>2017-03-19T08:02:04Z</time>
      </trkpt>
      <trkpt lat="43.58082" lon="5.70426">
        <ele>429</ele>
        <time>2017-03-19T08:02:10Z</time>
      </trkpt>
      <trkpt lat="43.58076" lon="5.70399">
        <ele>433</ele>
        <time>2017-03-19T08:02:17Z</time>
      </trkpt>
      <trkpt lat="43.58077" lon="5.70371">
        <ele>436</ele>
        <time>2017-03-19T08:02:23Z</time>
      </trkpt>
      <trkpt lat="43.58074" lon="5.70343">
        <ele>433</ele>
        <time>2017-03-19T08:02:30Z</time>
      </trkpt>
      <trkpt lat="43.58069" lon="5.70318">
        <ele>435</ele>
        <time>2017-03-19T08:02:36Z</time>
      </trkpt>
      <trkpt lat="43.58066" lon="5.70292">
        <ele>438</ele>
        <time>2017-03-19T08:02:41Z</time>
      </trkpt>
      <trkpt lat="43.58062" lon="5.70266">
        <ele>437</ele>
        <time>2017-03-19T08:02:46Z</time>
      </trkpt>
      <trkpt lat="43.58059" lon="5.70239">
        <ele>437</ele>
        <time>2017-03-19T08:02:51Z</time>
      </trkpt>
      <trkpt lat="43.58051" lon="5.70212">
        <ele>439</ele>
        <time>2017-03-19T08:02:57Z</time>
      </trkpt>
      <trkpt lat="43.58044" lon="5.70185">
        <ele>440</ele>
        <time>2017-03-19T08:03:03Z</time>
      </trkpt>
      <trkpt lat="43.58037" lon="5.70162">
        <ele>440</ele>
        <time>2017-03-19T08:03:09Z</time>
      </trkpt>
      <trkpt lat="43.58031" lon="5.70135">
        <ele>440</ele>
        <time>2017-03-19T08:03:15Z</time>
      </trkpt>
      <trkpt lat="43.58028" lon="5.70108">
        <ele>440</ele>
        <time>2017-03-19T08:03:20Z</time>
      </trkpt>
      <trkpt lat="43.58027" lon="5.70079">
        <ele>440</ele>
        <time>2017-03-19T08:03:25Z</time>
      </trkpt>
      <trkpt lat="43.58024" lon="5.70051">
        <ele>440</ele>
        <time>2017-03-19T08:03:30Z</time>
      </trkpt>
      <trkpt lat="43.58022" lon="5.70023">
        <ele>439</ele>
        <time>2017-03-19T08:03:35Z</time>
      </trkpt>
      <trkpt lat="43.58018" lon="5.69998">
        <ele>439</ele>
        <time>2017-03-19T08:03:40Z</time>
      </trkpt>
      <trkpt lat="43.5801" lon="5.69975">
        <ele>440</ele>
        <time>2017-03-19T08:03:46Z</time>
      </trkpt>
      <trkpt lat="43.58003" lon="5.69949">
        <ele>440</ele>
        <time>2017-03-19T08:03:52Z</time>
      </trkpt>
      <trkpt lat="43.58" lon="5.69923">
        <ele>435</ele>
        <time>2017-03-19T08:03:57Z</time>
      </trkpt>
      <trkpt lat="43.57992" lon="5.69897">
        <ele>438</ele>
        <time>2017-03-19T08:04:03Z</time>
      </trkpt>
      <trkpt lat="43.57987" lon="5.69872">
        <ele>440</ele>
        <time>2017-03-19T08:04:08Z</time>
      </trkpt>
      <trkpt lat="43.57982" lon="5.69848">
        <ele>440</ele>
        <time>2017-03-19T08:04:13Z</time>
      </trkpt>
      <trkpt lat="43.57978" lon="5.69823">
        <ele>440</ele>
        <time>2017-03-19T08:04:18Z</time>
      </trkpt>
      <trkpt lat="43.57971" lon="5.69796">
        <ele>441</ele>
        <time>2017-03-19T08:04:24Z</time>
      </trkpt>
      <trkpt lat="43.57959" lon="5.69774">
        <ele>442</ele>
        <time>2017-03-19T08:04:31Z</time>
      </trkpt>
      <trkpt lat="43.57951" lon="5.6975">
        <ele>442</ele>
        <time>2017-03-19T08:04:37Z</time>
      </trkpt>
      <trkpt lat="43.57944" lon="5.69724">
        <ele>442</ele>
        <time>2017-03-19T08:04:43Z</time>
      </trkpt>
      <trkpt lat="43.57933" lon="5.69701">
        <ele>442</ele>
        <time>2017-03-19T08:04:50Z</time>
      </trkpt>
      <trkpt lat="43.57926" lon="5.69677">
        <ele>440</ele>
        <time>2017-03-19T08:04:56Z</time>
      </trkpt>
      <trkpt lat="43.57918" lon="5.69654">
        <ele>441</ele>
        <time>2017-03-19T08:05:02Z</time>
      </trkpt>
      <trkpt lat="43.57912" lon="5.69628">
        <ele>444</ele>
        <time>2017-03-19T08:05:09Z</time>
      </trkpt>
      <trkpt lat="43.57906" lon="5.69601">
        <ele>443</ele>
        <time>2017-03-19T08:05:16Z</time>
      </trkpt>
      <trkpt lat="43.57895" lon="5.69579">
        <ele>442</ele>
        <time>2017-03-19T08:05:26Z</time>
      </trkpt>
      <trkpt lat="43.57891" lon="5.69551">
        <ele>443</ele>
        <time>2017-03-19T08:05:35Z</time>
      </trkpt>
      <trkpt lat="43.57882" lon="5.69524">
        <ele>443</ele>
        <time>2017-03-19T08:05:41Z</time>
      </trkpt>
      <trkpt lat="43.57878" lon="5.69497">
        <ele>441</ele>
        <time>2017-03-19T08:05:48Z</time>
      </trkpt>
      <trkpt lat="43.57868" lon="5.69471">
        <ele>442</ele>
        <time>2017-03-19T08:05:54Z</time>
      </trkpt>
      <trkpt lat="43.57863" lon="5.69444">
        <ele>442</ele>
        <time>2017-03-19T08:06:01Z</time>
      </trkpt>
      <trkpt lat="43.57854" lon="5.69419">
        <ele>442</ele>
        <time>2017-03-19T08:06:08Z</time>
      </trkpt>
      <trkpt lat="43.57842" lon="5.69398">
        <ele>442</ele>
        <time>2017-03-19T08:06:16Z</time>
      </trkpt>
      <trkpt lat="43.57835" lon="5.69375">
        <ele>442</ele>
        <time>2017-03-19T08:06:22Z</time>
      </trkpt>
      <trkpt lat="43.57831" lon="5.69348">
        <ele>447</ele>
        <time>2017-03-19T08:06:28Z</time>
      </trkpt>
      <trkpt lat="43.57827" lon="5.69323">
        <ele>445</ele>
        <time>2017-03-19T08:06:34Z</time>
      </trkpt>
      <trkpt lat="43.57822" lon="5.69298">
        <ele>448</ele>
        <time>2017-03-19T08:06:40Z</time>
      </trkpt>
      <trkpt lat="43.57819" lon="5.69271">
        <ele>447</ele>
        <time>2017-03-19T08:06:47Z</time>
      </trkpt>
      <trkpt lat="43.57813" lon="5.69244">
        <ele>445</ele>
        <time>2017-03-19T08:06:54Z</time>
      </trkpt>
      <trkpt lat="43.57809" lon="5.69216">
        <ele>447</ele>
        <time>2017-03-19T08:07:01Z</time>
      </trkpt>
      <trkpt lat="43.57805" lon="5.6919">
        <ele>448</ele>
        <time>2017-03-19T08:07:07Z</time>
      </trkpt>
      <trkpt lat="43.57801" lon="5.69166">
        <ele>450</ele>
        <time>2017-03-19T08:07:13Z</time>
      </trkpt>
      <trkpt lat="43.57795" lon="5.6914">
        <ele>451</ele>
        <time>2017-03-19T08:07:22Z</time>
      </trkpt>
      <trkpt lat="43.57791" lon="5.69114">
        <ele>452</ele>
        <time>2017-03-19T08:07:28Z</time>
      </trkpt>
      <trkpt lat="43.57789" lon="5.69089">
        <ele>453</ele>
        <time>2017-03-19T08:07:33Z</time>
      </trkpt>
      <trkpt lat="43.57787" lon="5.6906">
        <ele>453</ele>
        <time>2017-03-19T08:07:39Z</time>
      </trkpt>
      <trkpt lat="43.57788" lon="5.69031">
        <ele>452</ele>
        <time>2017-03-19T08:07:45Z</time>
      </trkpt>
      <trkpt lat="43.57805" lon="5.69019">
        <ele>449</ele>
        <time>2017-03-19T08:07:55Z</time>
      </trkpt>
      <trkpt lat="43.57824" lon="5.69017">
        <ele>447</ele>
        <time>2017-03-19T08:08:02Z</time>
      </trkpt>
      <trkpt lat="43.57843" lon="5.69015">
        <ele>444</ele>
        <time>2017-03-19T08:08:08Z</time>
      </trkpt>
      <trkpt lat="43.57849" lon="5.6899">
        <ele>445</ele>
        <time>2017-03-19T08:12:36Z</time>
      </trkpt>
      <trkpt lat="43.57842" lon="5.68965">
        <ele>447</ele>
        <time>2017-03-19T08:12:46Z</time>
      </trkpt>
      <trkpt lat="43.57837" lon="5.6894">
        <ele>447</ele>
        <time>2017-03-19T08:12:55Z</time>
      </trkpt>
      <trkpt lat="43.57834" lon="5.68914">
        <ele>444</ele>
        <time>2017-03-19T08:13:03Z</time>
      </trkpt>
      <trkpt lat="43.57828" lon="5.68888">
        <ele>448</ele>
        <time>2017-03-19T08:13:10Z</time>
      </trkpt>
      <trkpt lat="43.57823" lon="5.68861">
        <ele>448</ele>
        <time>2017-03-19T08:13:17Z</time>
      </trkpt>
      <trkpt lat="43.57817" lon="5.68835">
        <ele>448</ele>
        <time>2017-03-19T08:13:23Z</time>
      </trkpt>
      <trkpt lat="43.57807" lon="5.68811">
        <ele>449</ele>
        <time>2017-03-19T08:13:30Z</time>
      </trkpt>
      <trkpt lat="43.57799" lon="5.68787">
        <ele>450</ele>
        <time>2017-03-19T08:13:37Z</time>
      </trkpt>
      <trkpt lat="43.57791" lon="5.68764">
        <ele>450</ele>
        <time>2017-03-19T08:13:44Z</time>
      </trkpt>
      <trkpt lat="43.57784" lon="5.6874">
        <ele>450</ele>
        <time>2017-03-19T08:13:50Z</time>
      </trkpt>
      <trkpt lat="43.57777" lon="5.68717">
        <ele>449</ele>
        <time>2017-03-19T08:13:56Z</time>
      </trkpt>
      <trkpt lat="43.57771" lon="5.68692">
        <ele>449</ele>
        <time>2017-03-19T08:14:02Z</time>
      </trkpt>
      <trkpt lat="43.57765" lon="5.68668">
        <ele>447</ele>
        <time>2017-03-19T08:14:08Z</time>
      </trkpt>
      <trkpt lat="43.57746" lon="5.68655">
        <ele>446</ele>
        <time>2017-03-19T08:14:15Z</time>
      </trkpt>
      <trkpt lat="43.57731" lon="5.68636">
        <ele>447</ele>
        <time>2017-03-19T08:14:21Z</time>
      </trkpt>
      <trkpt lat="43.5772" lon="5.68612">
        <ele>448</ele>
        <time>2017-03-19T08:14:27Z</time>
      </trkpt>
      <trkpt lat="43.5771" lon="5.68586">
        <ele>447</ele>
        <time>2017-03-19T08:14:33Z</time>
      </trkpt>
      <trkpt lat="43.57702" lon="5.68559">
        <ele>446</ele>
        <time>2017-03-19T08:14:39Z</time>
      </trkpt>
      <trkpt lat="43.57693" lon="5.68537">
        <ele>447</ele>
        <time>2017-03-19T08:14:44Z</time>
      </trkpt>
      <trkpt lat="43.57683" lon="5.68513">
        <ele>446</ele>
        <time>2017-03-19T08:14:50Z</time>
      </trkpt>
      <trkpt lat="43.57671" lon="5.68488">
        <ele>447</ele>
        <time>2017-03-19T08:14:56Z</time>
      </trkpt>
      <trkpt lat="43.5766" lon="5.68464">
        <ele>449</ele>
        <time>2017-03-19T08:15:02Z</time>
      </trkpt>
      <trkpt lat="43.5765" lon="5.6844">
        <ele>449</ele>
        <time>2017-03-19T08:15:08Z</time>
      </trkpt>
      <trkpt lat="43.5764" lon="5.68415">
        <ele>450</ele>
        <time>2017-03-19T08:15:14Z</time>
      </trkpt>
      <trkpt lat="43.5763" lon="5.68391">
        <ele>451</ele>
        <time>2017-03-19T08:15:20Z</time>
      </trkpt>
      <trkpt lat="43.57624" lon="5.68368">
        <ele>451</ele>
        <time>2017-03-19T08:15:26Z</time>
      </trkpt>
      <trkpt lat="43.57627" lon="5.68343">
        <ele>452</ele>
        <time>2017-03-19T08:15:33Z</time>
      </trkpt>
      <trkpt lat="43.57645" lon="5.68331">
        <ele>454</ele>
        <time>2017-03-19T08:15:40Z</time>
      </trkpt>
      <trkpt lat="43.57661" lon="5.68319">
        <ele>454</ele>
        <time>2017-03-19T08:15:47Z</time>
      </trkpt>
      <trkpt lat="43.57677" lon="5.68306">
        <ele>459</ele>
        <time>2017-03-19T08:15:54Z</time>
      </trkpt>
      <trkpt lat="43.57694" lon="5.68293">
        <ele>461</ele>
        <time>2017-03-19T08:16:03Z</time>
      </trkpt>
      <trkpt lat="43.57696" lon="5.68284">
        <ele>462</ele>
        <time>2017-03-19T08:18:45Z</time>
      </trkpt>
      <trkpt lat="43.57683" lon="5.68265">
        <ele>461</ele>
        <time>2017-03-19T08:19:42Z</time>
      </trkpt>
      <trkpt lat="43.5767" lon="5.68247">
        <ele>460</ele>
        <time>2017-03-19T08:19:48Z</time>
      </trkpt>
      <trkpt lat="43.57663" lon="5.68219">
        <ele>460</ele>
        <time>2017-03-19T08:19:54Z</time>
      </trkpt>
      <trkpt lat="43.57661" lon="5.68192">
        <ele>461</ele>
        <time>2017-03-19T08:19:59Z</time>
      </trkpt>
      <trkpt lat="43.5766" lon="5.68165">
        <ele>464</ele>
        <time>2017-03-19T08:20:04Z</time>
      </trkpt>
      <trkpt lat="43.57653" lon="5.6814">
        <ele>463</ele>
        <time>2017-03-19T08:20:10Z</time>
      </trkpt>
      <trkpt lat="43.57637" lon="5.68126">
        <ele>463</ele>
        <time>2017-03-19T08:20:18Z</time>
      </trkpt>
      <trkpt lat="43.5762" lon="5.68115">
        <ele>463</ele>
        <time>2017-03-19T08:20:28Z</time>
      </trkpt>
      <trkpt lat="43.57603" lon="5.68108">
        <ele>463</ele>
        <time>2017-03-19T08:20:37Z</time>
      </trkpt>
      <trkpt lat="43.57587" lon="5.68095">
        <ele>463</ele>
        <time>2017-03-19T08:20:46Z</time>
      </trkpt>
      <trkpt lat="43.57577" lon="5.68074">
        <ele>464</ele>
        <time>2017-03-19T08:20:57Z</time>
      </trkpt>
      <trkpt lat="43.57573" lon="5.68048">
        <ele>466</ele>
        <time>2017-03-19T08:21:08Z</time>
      </trkpt>
      <trkpt lat="43.57567" lon="5.68024">
        <ele>468</ele>
        <time>2017-03-19T08:21:19Z</time>
      </trkpt>
      <trkpt lat="43.57557" lon="5.68001">
        <ele>468</ele>
        <time>2017-03-19T08:21:30Z</time>
      </trkpt>
      <trkpt lat="43.57545" lon="5.67983">
        <ele>475</ele>
        <time>2017-03-19T08:21:40Z</time>
      </trkpt>
      <trkpt lat="43.5753" lon="5.67968">
        <ele>475</ele>
        <time>2017-03-19T08:21:52Z</time>
      </trkpt>
      <trkpt lat="43.57511" lon="5.67961">
        <ele>475</ele>
        <time>2017-03-19T08:22:04Z</time>
      </trkpt>
      <trkpt lat="43.57494" lon="5.6795">
        <ele>471</ele>
        <time>2017-03-19T08:22:15Z</time>
      </trkpt>
      <trkpt lat="43.57485" lon="5.67928">
        <ele>474</ele>
        <time>2017-03-19T08:22:27Z</time>
      </trkpt>
      <trkpt lat="43.5748" lon="5.67902">
        <ele>478</ele>
        <time>2017-03-19T08:22:38Z</time>
      </trkpt>
      <trkpt lat="43.57476" lon="5.67878">
        <ele>478</ele>
        <time>2017-03-19T08:22:48Z</time>
      </trkpt>
      <trkpt lat="43.57472" lon="5.67852">
        <ele>480</ele>
        <time>2017-03-19T08:22:59Z</time>
      </trkpt>
      <trkpt lat="43.57467" lon="5.67827">
        <ele>484</ele>
        <time>2017-03-19T08:23:09Z</time>
      </trkpt>
      <trkpt lat="43.57466" lon="5.67802">
        <ele>484</ele>
        <time>2017-03-19T08:23:20Z</time>
      </trkpt>
      <trkpt lat="43.57464" lon="5.67776">
        <ele>485</ele>
        <time>2017-03-19T08:23:31Z</time>
      </trkpt>
      <trkpt lat="43.57462" lon="5.6775">
        <ele>486</ele>
        <time>2017-03-19T08:23:43Z</time>
      </trkpt>
      <trkpt lat="43.5746" lon="5.67725">
        <ele>488</ele>
        <time>2017-03-19T08:23:53Z</time>
      </trkpt>
      <trkpt lat="43.57459" lon="5.67699">
        <ele>489</ele>
        <time>2017-03-19T08:24:06Z</time>
      </trkpt>
      <trkpt lat="43.57457" lon="5.67672">
        <ele>489</ele>
        <time>2017-03-19T08:24:17Z</time>
      </trkpt>
      <trkpt lat="43.57459" lon="5.67646">
        <ele>490</ele>
        <time>2017-03-19T08:24:29Z</time>
      </trkpt>
      <trkpt lat="43.57461" lon="5.67619">
        <ele>491</ele>
        <time>2017-03-19T08:24:42Z</time>
      </trkpt>
      <trkpt lat="43.57463" lon="5.67594">
        <ele>491</ele>
        <time>2017-03-19T08:24:55Z</time>
      </trkpt>
      <trkpt lat="43.57463" lon="5.67568">
        <ele>492</ele>
        <time>2017-03-19T08:25:07Z</time>
      </trkpt>
      <trkpt lat="43.57461" lon="5.67541">
        <ele>493</ele>
        <time>2017-03-19T08:25:19Z</time>
      </trkpt>
      <trkpt lat="43.57457" lon="5.67515">
        <ele>493</ele>
        <time>2017-03-19T08:25:30Z</time>
      </trkpt>
      <trkpt lat="43.57454" lon="5.67489">
        <ele>495</ele>
        <time>2017-03-19T08:25:41Z</time>
      </trkpt>
      <trkpt lat="43.5745" lon="5.67463">
        <ele>496</ele>
        <time>2017-03-19T08:25:53Z</time>
      </trkpt>
      <trkpt lat="43.57445" lon="5.67438">
        <ele>497</ele>
        <time>2017-03-19T08:26:05Z</time>
      </trkpt>
      <trkpt lat="43.5744" lon="5.67414">
        <ele>501</ele>
        <time>2017-03-19T08:26:17Z</time>
      </trkpt>
      <trkpt lat="43.57433" lon="5.67389">
        <ele>502</ele>
        <time>2017-03-19T08:26:29Z</time>
      </trkpt>
      <trkpt lat="43.57422" lon="5.67367">
        <ele>503</ele>
        <time>2017-03-19T08:26:41Z</time>
      </trkpt>
      <trkpt lat="43.5741" lon="5.67347">
        <ele>508</ele>
        <time>2017-03-19T08:26:52Z</time>
      </trkpt>
      <trkpt lat="43.57398" lon="5.67328">
        <ele>512</ele>
        <time>2017-03-19T08:27:03Z</time>
      </trkpt>
      <trkpt lat="43.57385" lon="5.67307">
        <ele>514</ele>
        <time>2017-03-19T08:27:15Z</time>
      </trkpt>
      <trkpt lat="43.57374" lon="5.67285">
        <ele>515</ele>
        <time>2017-03-19T08:27:27Z</time>
      </trkpt>
      <trkpt lat="43.57367" lon="5.67262">
        <ele>516</ele>
        <time>2017-03-19T08:27:39Z</time>
      </trkpt>
      <trkpt lat="43.57366" lon="5.67236">
        <ele>517</ele>
        <time>2017-03-19T08:27:51Z</time>
      </trkpt>
      <trkpt lat="43.57374" lon="5.67213">
        <ele>516</ele>
        <time>2017-03-19T08:28:01Z</time>
      </trkpt>
      <trkpt lat="43.57376" lon="5.67184">
        <ele>515</ele>
        <time>2017-03-19T08:28:10Z</time>
      </trkpt>
      <trkpt lat="43.57367" lon="5.67161">
        <ele>513</ele>
        <time>2017-03-19T08:28:16Z</time>
      </trkpt>
      <trkpt lat="43.57356" lon="5.67138">
        <ele>513</ele>
        <time>2017-03-19T08:28:21Z</time>
      </trkpt>
      <trkpt lat="43.57346" lon="5.67111">
        <ele>512</ele>
        <time>2017-03-19T08:28:26Z</time>
      </trkpt>
      <trkpt lat="43.57339" lon="5.67083">
        <ele>513</ele>
        <time>2017-03-19T08:28:31Z</time>
      </trkpt>
      <trkpt lat="43.57329" lon="5.67056">
        <ele>513</ele>
        <time>2017-03-19T08:28:36Z</time>
      </trkpt>
      <trkpt lat="43.5732" lon="5.67034">
        <ele>512</ele>
        <time>2017-03-19T08:28:40Z</time>
      </trkpt>
      <trkpt lat="43.57306" lon="5.67016">
        <ele>512</ele>
        <time>2017-03-19T08:28:45Z</time>
      </trkpt>
      <trkpt lat="43.57289" lon="5.67003">
        <ele>512</ele>
        <time>2017-03-19T08:28:50Z</time>
      </trkpt>
      <trkpt lat="43.57273" lon="5.6699">
        <ele>510</ele>
        <time>2017-03-19T08:28:55Z</time>
      </trkpt>
      <trkpt lat="43.57262" lon="5.66968">
        <ele>509</ele>
        <time>2017-03-19T08:29:00Z</time>
      </trkpt>
      <trkpt lat="43.57252" lon="5.66944">
        <ele>508</ele>
        <time>2017-03-19T08:29:06Z</time>
      </trkpt>
      <trkpt lat="43.5725" lon="5.66915">
        <ele>507</ele>
        <time>2017-03-19T08:29:12Z</time>
      </trkpt>
      <trkpt lat="43.57249" lon="5.66888">
        <ele>510</ele>
        <time>2017-03-19T08:29:18Z</time>
      </trkpt>
      <trkpt lat="43.57255" lon="5.66861">
        <ele>509</ele>
        <time>2017-03-19T08:29:25Z</time>
      </trkpt>
      <trkpt lat="43.57254" lon="5.66834">
        <ele>510</ele>
        <time>2017-03-19T08:29:32Z</time>
      </trkpt>
      <trkpt lat="43.5725" lon="5.66808">
        <ele>512</ele>
        <time>2017-03-19T08:29:39Z</time>
      </trkpt>
      <trkpt lat="43.57243" lon="5.66783">
        <ele>512</ele>
        <time>2017-03-19T08:29:46Z</time>
      </trkpt>
      <trkpt lat="43.57235" lon="5.66758">
        <ele>512</ele>
        <time>2017-03-19T08:29:53Z</time>
      </trkpt>
      <trkpt lat="43.57234" lon="5.66733">
        <ele>512</ele>
        <time>2017-03-19T08:29:59Z</time>
      </trkpt>
      <trkpt lat="43.57226" lon="5.66705">
        <ele>512</ele>
        <time>2017-03-19T08:30:05Z</time>
      </trkpt>
      <trkpt lat="43.57223" lon="5.66676">
        <ele>512</ele>
        <time>2017-03-19T08:30:10Z</time>
      </trkpt>
      <trkpt lat="43.57217" lon="5.66647">
        <ele>513</ele>
        <time>2017-03-19T08:30:15Z</time>
      </trkpt>
      <trkpt lat="43.57211" lon="5.66619">
        <ele>513</ele>
        <time>2017-03-19T08:30:21Z</time>
      </trkpt>
      <trkpt lat="43.57219" lon="5.66593">
        <ele>513</ele>
        <time>2017-03-19T08:30:26Z</time>
      </trkpt>
      <trkpt lat="43.57227" lon="5.66568">
        <ele>515</ele>
        <time>2017-03-19T08:30:31Z</time>
      </trkpt>
      <trkpt lat="43.57237" lon="5.66544">
        <ele>516</ele>
        <time>2017-03-19T08:30:37Z</time>
      </trkpt>
      <trkpt lat="43.57238" lon="5.66517">
        <ele>517</ele>
        <time>2017-03-19T08:30:43Z</time>
      </trkpt>
      <trkpt lat="43.57232" lon="5.66491">
        <ele>520</ele>
        <time>2017-03-19T08:30:49Z</time>
      </trkpt>
      <trkpt lat="43.57228" lon="5.66465">
        <ele>520</ele>
        <time>2017-03-19T08:30:56Z</time>
      </trkpt>
      <trkpt lat="43.57223" lon="5.66441">
        <ele>521</ele>
        <time>2017-03-19T08:31:04Z</time>
      </trkpt>
      <trkpt lat="43.57218" lon="5.66414">
        <ele>525</ele>
        <time>2017-03-19T08:31:12Z</time>
      </trkpt>
      <trkpt lat="43.5721" lon="5.66392">
        <ele>525</ele>
        <time>2017-03-19T08:31:20Z</time>
      </trkpt>
      <trkpt lat="43.57205" lon="5.66367">
        <ele>525</ele>
        <time>2017-03-19T08:31:29Z</time>
      </trkpt>
      <trkpt lat="43.57199" lon="5.66342">
        <ele>525</ele>
        <time>2017-03-19T08:31:37Z</time>
      </trkpt>
      <trkpt lat="43.57195" lon="5.66315">
        <ele>527</ele>
        <time>2017-03-19T08:31:45Z</time>
      </trkpt>
      <trkpt lat="43.57192" lon="5.6629">
        <ele>527</ele>
        <time>2017-03-19T08:31:53Z</time>
      </trkpt>
      <trkpt lat="43.5719" lon="5.66263">
        <ele>527</ele>
        <time>2017-03-19T08:32:02Z</time>
      </trkpt>
      <trkpt lat="43.57199" lon="5.6624">
        <ele>529</ele>
        <time>2017-03-19T08:35:58Z</time>
      </trkpt>
      <trkpt lat="43.57206" lon="5.66217">
        <ele>531</ele>
        <time>2017-03-19T08:36:10Z</time>
      </trkpt>
      <trkpt lat="43.57211" lon="5.66191">
        <ele>531</ele>
        <time>2017-03-19T08:36:24Z</time>
      </trkpt>
      <trkpt lat="43.57215" lon="5.66167">
        <ele>532</ele>
        <time>2017-03-19T08:36:38Z</time>
      </trkpt>
      <trkpt lat="43.57216" lon="5.66142">
        <ele>534</ele>
        <time>2017-03-19T08:36:51Z</time>
      </trkpt>
      <trkpt lat="43.57217" lon="5.66116">
        <ele>535</ele>
        <time>2017-03-19T08:37:02Z</time>
      </trkpt>
      <trkpt lat="43.57217" lon="5.6609">
        <ele>535</ele>
        <time>2017-03-19T08:37:14Z</time>
      </trkpt>
      <trkpt lat="43.57218" lon="5.66064">
        <ele>537</ele>
        <time>2017-03-19T08:37:27Z</time>
      </trkpt>
      <trkpt lat="43.5722" lon="5.66039">
        <ele>537</ele>
        <time>2017-03-19T08:37:40Z</time>
      </trkpt>
      <trkpt lat="43.57225" lon="5.66015">
        <ele>539</ele>
        <time>2017-03-19T08:37:53Z</time>
      </trkpt>
      <trkpt lat="43.57232" lon="5.65991">
        <ele>542</ele>
        <time>2017-03-19T08:38:07Z</time>
      </trkpt>
      <trkpt lat="43.57247" lon="5.65974">
        <ele>542</ele>
        <time>2017-03-19T08:38:21Z</time>
      </trkpt>
      <trkpt lat="43.57262" lon="5.65961">
        <ele>547</ele>
        <time>2017-03-19T08:38:33Z</time>
      </trkpt>
      <trkpt lat="43.57277" lon="5.65946">
        <ele>547</ele>
        <time>2017-03-19T08:38:44Z</time>
      </trkpt>
      <trkpt lat="43.57291" lon="5.65925">
        <ele>548</ele>
        <time>2017-03-19T08:38:51Z</time>
      </trkpt>
      <trkpt lat="43.57302" lon="5.65905">
        <ele>548</ele>
        <time>2017-03-19T08:38:56Z</time>
      </trkpt>
      <trkpt lat="43.57311" lon="5.6588">
        <ele>548</ele>
        <time>2017-03-19T08:39:01Z</time>
      </trkpt>
      <trkpt lat="43.57314" lon="5.65854">
        <ele>548</ele>
        <time>2017-03-19T08:39:06Z</time>
      </trkpt>
      <trkpt lat="43.57313" lon="5.65826">
        <ele>548</ele>
        <time>2017-03-19T08:39:11Z</time>
      </trkpt>
      <trkpt lat="43.573" lon="5.65802">
        <ele>549</ele>
        <time>2017-03-19T08:39:17Z</time>
      </trkpt>
      <trkpt lat="43.5729" lon="5.65779">
        <ele>549</ele>
        <time>2017-03-19T08:39:22Z</time>
      </trkpt>
      <trkpt lat="43.57289" lon="5.65751">
        <ele>550</ele>
        <time>2017-03-19T08:39:27Z</time>
      </trkpt>
      <trkpt lat="43.5729" lon="5.65722">
        <ele>551</ele>
        <time>2017-03-19T08:39:32Z</time>
      </trkpt>
      <trkpt lat="43.57291" lon="5.65692">
        <ele>551</ele>
        <time>2017-03-19T08:39:37Z</time>
      </trkpt>
      <trkpt lat="43.57293" lon="5.65664">
        <ele>551</ele>
        <time>2017-03-19T08:39:42Z</time>
      </trkpt>
      <trkpt lat="43.57291" lon="5.65637">
        <ele>551</ele>
        <time>2017-03-19T08:39:47Z</time>
      </trkpt>
      <trkpt lat="43.57291" lon="5.6561">
        <ele>550</ele>
        <time>2017-03-19T08:39:52Z</time>
      </trkpt>
      <trkpt lat="43.57289" lon="5.65583">
        <ele>550</ele>
        <time>2017-03-19T08:39:57Z</time>
      </trkpt>
      <trkpt lat="43.57281" lon="5.65556">
        <ele>550</ele>
        <time>2017-03-19T08:40:02Z</time>
      </trkpt>
      <trkpt lat="43.57271" lon="5.65529">
        <ele>551</ele>
        <time>2017-03-19T08:40:07Z</time>
      </trkpt>
      <trkpt lat="43.57263" lon="5.65503">
        <ele>552</ele>
        <time>2017-03-19T08:40:12Z</time>
      </trkpt>
      <trkpt lat="43.57265" lon="5.65477">
        <ele>553</ele>
        <time>2017-03-19T08:40:17Z</time>
      </trkpt>
      <trkpt lat="43.57266" lon="5.6545">
        <ele>553</ele>
        <time>2017-03-19T08:40:27Z</time>
      </trkpt>
      <trkpt lat="43.57266" lon="5.65425">
        <ele>555</ele>
        <time>2017-03-19T08:40:37Z</time>
      </trkpt>
      <trkpt lat="43.57268" lon="5.65399">
        <ele>557</ele>
        <time>2017-03-19T08:40:46Z</time>
      </trkpt>
      <trkpt lat="43.57268" lon="5.65374">
        <ele>557</ele>
        <time>2017-03-19T08:40:55Z</time>
      </trkpt>
      <trkpt lat="43.57271" lon="5.65348">
        <ele>558</ele>
        <time>2017-03-19T08:41:03Z</time>
      </trkpt>
      <trkpt lat="43.5727" lon="5.65321">
        <ele>560</ele>
        <time>2017-03-19T08:41:11Z</time>
      </trkpt>
      <trkpt lat="43.57268" lon="5.65295">
        <ele>560</ele>
        <time>2017-03-19T08:41:19Z</time>
      </trkpt>
      <trkpt lat="43.57268" lon="5.65268">
        <ele>562</ele>
        <time>2017-03-19T08:41:26Z</time>
      </trkpt>
      <trkpt lat="43.57265" lon="5.65242">
        <ele>563</ele>
        <time>2017-03-19T08:41:33Z</time>
      </trkpt>
      <trkpt lat="43.57264" lon="5.65214">
        <ele>562</ele>
        <time>2017-03-19T08:41:40Z</time>
      </trkpt>
      <trkpt lat="43.57264" lon="5.65188">
        <ele>562</ele>
        <time>2017-03-19T08:41:46Z</time>
      </trkpt>
      <trkpt lat="43.57261" lon="5.65162">
        <ele>563</ele>
        <time>2017-03-19T08:41:55Z</time>
      </trkpt>
      <trkpt lat="43.57244" lon="5.65149">
        <ele>564</ele>
        <time>2017-03-19T08:42:05Z</time>
      </trkpt>
      <trkpt lat="43.57231" lon="5.65129">
        <ele>563</ele>
        <time>2017-03-19T08:42:13Z</time>
      </trkpt>
      <trkpt lat="43.57226" lon="5.65103">
        <ele>563</ele>
        <time>2017-03-19T08:42:21Z</time>
      </trkpt>
      <trkpt lat="43.57221" lon="5.65077">
        <ele>564</ele>
        <time>2017-03-19T08:42:29Z</time>
      </trkpt>
      <trkpt lat="43.57217" lon="5.65053">
        <ele>564</ele>
        <time>2017-03-19T08:42:36Z</time>
      </trkpt>
      <trkpt lat="43.57205" lon="5.65032">
        <ele>564</ele>
        <time>2017-03-19T08:42:44Z</time>
      </trkpt>
      <trkpt lat="43.57191" lon="5.65012">
        <ele>565</ele>
        <time>2017-03-19T08:42:52Z</time>
      </trkpt>
      <trkpt lat="43.5719" lon="5.64986">
        <ele>566</ele>
        <time>2017-03-19T08:43:00Z</time>
      </trkpt>
      <trkpt lat="43.57189" lon="5.64959">
        <ele>567</ele>
        <time>2017-03-19T08:43:08Z</time>
      </trkpt>
      <trkpt lat="43.57183" lon="5.64934">
        <ele>568</ele>
        <time>2017-03-19T08:43:16Z</time>
      </trkpt>
      <trkpt lat="43.57172" lon="5.64911">
        <ele>570</ele>
        <time>2017-03-19T08:43:25Z</time>
      </trkpt>
      <trkpt lat="43.57167" lon="5.64887">
        <ele>570</ele>
        <time>2017-03-19T08:43:34Z</time>
      </trkpt>
      <trkpt lat="43.57166" lon="5.6486">
        <ele>579</ele>
        <time>2017-03-19T08:43:44Z</time>
      </trkpt>
      <trkpt lat="43.57158" lon="5.64838">
        <ele>578</ele>
        <time>2017-03-19T08:43:54Z</time>
      </trkpt>
      <trkpt lat="43.57158" lon="5.64812">
        <ele>583</ele>
        <time>2017-03-19T08:44:03Z</time>
      </trkpt>
      <trkpt lat="43.57157" lon="5.64786">
        <ele>585</ele>
        <time>2017-03-19T08:44:13Z</time>
      </trkpt>
      <trkpt lat="43.57157" lon="5.64761">
        <ele>585</ele>
        <time>2017-03-19T08:44:22Z</time>
      </trkpt>
      <trkpt lat="43.57153" lon="5.64736">
        <ele>586</ele>
        <time>2017-03-19T08:44:32Z</time>
      </trkpt>
      <trkpt lat="43.57154" lon="5.6471">
        <ele>586</ele>
        <time>2017-03-19T08:44:42Z</time>
      </trkpt>
      <trkpt lat="43.57155" lon="5.64683">
        <ele>585</ele>
        <time>2017-03-19T08:44:53Z</time>
      </trkpt>
      <trkpt lat="43.57155" lon="5.64657">
        <ele>583</ele>
        <time>2017-03-19T08:45:02Z</time>
      </trkpt>
      <trkpt lat="43.5714" lon="5.64638">
        <ele>585</ele>
        <time>2017-03-19T08:45:09Z</time>
      </trkpt>
      <trkpt lat="43.57121" lon="5.64628">
        <ele>586</ele>
        <time>2017-03-19T08:45:13Z</time>
      </trkpt>
      <trkpt lat="43.5711" lon="5.64607">
        <ele>587</ele>
        <time>2017-03-19T08:45:17Z</time>
      </trkpt>
      <trkpt lat="43.57111" lon="5.64581">
        <ele>588</ele>
        <time>2017-03-19T08:45:22Z</time>
      </trkpt>
      <trkpt lat="43.57117" lon="5.64552">
        <ele>588</ele>
        <time>2017-03-19T08:45:27Z</time>
      </trkpt>
      <trkpt lat="43.57119" lon="5.64525">
        <ele>589</ele>
        <time>2017-03-19T08:45:32Z</time>
      </trkpt>
      <trkpt lat="43.57124" lon="5.645">
        <ele>592</ele>
        <time>2017-03-19T08:45:38Z</time>
      </trkpt>
      <trkpt lat="43.57127" lon="5.64474">
        <ele>592</ele>
        <time>2017-03-19T08:45:44Z</time>
      </trkpt>
      <trkpt lat="43.5713" lon="5.64445">
        <ele>593</ele>
        <time>2017-03-19T08:45:50Z</time>
      </trkpt>
      <trkpt lat="43.57134" lon="5.64418">
        <ele>592</ele>
        <time>2017-03-19T08:45:56Z</time>
      </trkpt>
      <trkpt lat="43.57137" lon="5.64392">
        <ele>594</ele>
        <time>2017-03-19T08:46:02Z</time>
      </trkpt>
      <trkpt lat="43.57139" lon="5.64364">
        <ele>594</ele>
        <time>2017-03-19T08:46:08Z</time>
      </trkpt>
      <trkpt lat="43.57142" lon="5.64339">
        <ele>593</ele>
        <time>2017-03-19T08:46:14Z</time>
      </trkpt>
      <trkpt lat="43.57144" lon="5.64311">
        <ele>595</ele>
        <time>2017-03-19T08:46:21Z</time>
      </trkpt>
      <trkpt lat="43.57144" lon="5.64283">
        <ele>596</ele>
        <time>2017-03-19T08:46:28Z</time>
      </trkpt>
      <trkpt lat="43.57141" lon="5.64256">
        <ele>595</ele>
        <time>2017-03-19T08:46:36Z</time>
      </trkpt>
      <trkpt lat="43.57137" lon="5.64231">
        <ele>600</ele>
        <time>2017-03-19T08:46:45Z</time>
      </trkpt>
      <trkpt lat="43.57135" lon="5.64204">
        <ele>602</ele>
        <time>2017-03-19T08:46:54Z</time>
      </trkpt>
      <trkpt lat="43.57135" lon="5.64178">
        <ele>602</ele>
        <time>2017-03-19T08:47:02Z</time>
      </trkpt>
      <trkpt lat="43.57137" lon="5.6415">
        <ele>605</ele>
        <time>2017-03-19T08:47:11Z</time>
      </trkpt>
      <trkpt lat="43.57137" lon="5.64124">
        <ele>606</ele>
        <time>2017-03-19T08:47:19Z</time>
      </trkpt>
      <trkpt lat="43.57138" lon="5.64097">
        <ele>605</ele>
        <time>2017-03-19T08:47:27Z</time>
      </trkpt>
      <trkpt lat="43.5714" lon="5.6407">
        <ele>608</ele>
        <time>2017-03-19T08:47:35Z</time>
      </trkpt>
      <trkpt lat="43.57143" lon="5.64044">
        <ele>609</ele>
        <time>2017-03-19T08:47:43Z</time>
      </trkpt>
      <trkpt lat="43.57147" lon="5.64018">
        <ele>609</ele>
        <time>2017-03-19T08:47:50Z</time>
      </trkpt>
      <trkpt lat="43.57151" lon="5.63993">
        <ele>610</ele>
        <time>2017-03-19T08:47:57Z</time>
      </trkpt>
      <trkpt lat="43.57156" lon="5.63966">
        <ele>613</ele>
        <time>2017-03-19T08:48:04Z</time>
      </trkpt>
      <trkpt lat="43.57157" lon="5.63941">
        <ele>613</ele>
        <time>2017-03-19T08:48:11Z</time>
      </trkpt>
      <trkpt lat="43.57158" lon="5.63914">
        <ele>611</ele>
        <time>2017-03-19T08:48:19Z</time>
      </trkpt>
      <trkpt lat="43.5716" lon="5.63886">
        <ele>615</ele>
        <time>2017-03-19T08:48:27Z</time>
      </trkpt>
      <trkpt lat="43.5716" lon="5.63859">
        <ele>615</ele>
        <time>2017-03-19T08:48:34Z</time>
      </trkpt>
      <trkpt lat="43.57161" lon="5.63834">
        <ele>609</ele>
        <time>2017-03-19T08:48:39Z</time>
      </trkpt>
      <trkpt lat="43.57164" lon="5.63808">
        <ele>613</ele>
        <time>2017-03-19T08:48:45Z</time>
      </trkpt>
      <trkpt lat="43.57162" lon="5.63783">
        <ele>614</ele>
        <time>2017-03-19T08:48:50Z</time>
      </trkpt>
      <trkpt lat="43.57163" lon="5.63756">
        <ele>610</ele>
        <time>2017-03-19T08:48:54Z</time>
      </trkpt>
      <trkpt lat="43.57164" lon="5.63728">
        <ele>612</ele>
        <time>2017-03-19T08:49:00Z</time>
      </trkpt>
      <trkpt lat="43.57164" lon="5.63703">
        <ele>613</ele>
        <time>2017-03-19T08:49:09Z</time>
      </trkpt>
      <trkpt lat="43.57175" lon="5.63679">
        <ele>602</ele>
        <time>2017-03-19T08:51:59Z</time>
      </trkpt>
      <trkpt lat="43.57183" lon="5.6365">
        <ele>601</ele>
        <time>2017-03-19T08:52:04Z</time>
      </trkpt>
      <trkpt lat="43.57188" lon="5.63623">
        <ele>600</ele>
        <time>2017-03-19T08:52:08Z</time>
      </trkpt>
      <trkpt lat="43.57197" lon="5.63595">
        <ele>600</ele>
        <time>2017-03-19T08:52:12Z</time>
      </trkpt>
      <trkpt lat="43.57207" lon="5.63568">
        <ele>598</ele>
        <time>2017-03-19T08:52:16Z</time>
      </trkpt>
      <trkpt lat="43.57211" lon="5.63537">
        <ele>597</ele>
        <time>2017-03-19T08:52:20Z</time>
      </trkpt>
      <trkpt lat="43.57217" lon="5.63507">
        <ele>597</ele>
        <time>2017-03-19T08:52:24Z</time>
      </trkpt>
      <trkpt lat="43.57225" lon="5.63477">
        <ele>596</ele>
        <time>2017-03-19T08:52:28Z</time>
      </trkpt>
      <trkpt lat="43.57233" lon="5.63455">
        <ele>596</ele>
        <time>2017-03-19T08:52:31Z</time>
      </trkpt>
      <trkpt lat="43.5724" lon="5.63432">
        <ele>597</ele>
        <time>2017-03-19T08:52:34Z</time>
      </trkpt>
      <trkpt lat="43.57246" lon="5.634">
        <ele>596</ele>
        <time>2017-03-19T08:52:38Z</time>
      </trkpt>
      <trkpt lat="43.57249" lon="5.6337">
        <ele>595</ele>
        <time>2017-03-19T08:52:42Z</time>
      </trkpt>
      <trkpt lat="43.57255" lon="5.63342">
        <ele>597</ele>
        <time>2017-03-19T08:52:46Z</time>
      </trkpt>
      <trkpt lat="43.57261" lon="5.63313">
        <ele>597</ele>
        <time>2017-03-19T08:52:50Z</time>
      </trkpt>
      <trkpt lat="43.57264" lon="5.63283">
        <ele>596</ele>
        <time>2017-03-19T08:52:54Z</time>
      </trkpt>
      <trkpt lat="43.57266" lon="5.63255">
        <ele>596</ele>
        <time>2017-03-19T08:52:58Z</time>
      </trkpt>
      <trkpt lat="43.57269" lon="5.63229">
        <ele>596</ele>
        <time>2017-03-19T08:53:02Z</time>
      </trkpt>
      <trkpt lat="43.57271" lon="5.63203">
        <ele>596</ele>
        <time>2017-03-19T08:53:06Z</time>
      </trkpt>
      <trkpt lat="43.57275" lon="5.63173">
        <ele>596</ele>
        <time>2017-03-19T08:53:11Z</time>
      </trkpt>
      <trkpt lat="43.57275" lon="5.63147">
        <ele>595</ele>
        <time>2017-03-19T08:53:15Z</time>
      </trkpt>
      <trkpt lat="43.57278" lon="5.63117">
        <ele>595</ele>
        <time>2017-03-19T08:53:19Z</time>
      </trkpt>
      <trkpt lat="43.57284" lon="5.63089">
        <ele>594</ele>
        <time>2017-03-19T08:53:23Z</time>
      </trkpt>
      <trkpt lat="43.57289" lon="5.63059">
        <ele>592</ele>
        <time>2017-03-19T08:53:27Z</time>
      </trkpt>
      <trkpt lat="43.57292" lon="5.63034">
        <ele>592</ele>
        <time>2017-03-19T08:53:30Z</time>
      </trkpt>
      <trkpt lat="43.57295" lon="5.63007">
        <ele>591</ele>
        <time>2017-03-19T08:53:33Z</time>
      </trkpt>
      <trkpt lat="43.57298" lon="5.62979">
        <ele>588</ele>
        <time>2017-03-19T08:53:36Z</time>
      </trkpt>
      <trkpt lat="43.57302" lon="5.62949">
        <ele>587</ele>
        <time>2017-03-19T08:53:39Z</time>
      </trkpt>
      <trkpt lat="43.57309" lon="5.62919">
        <ele>587</ele>
        <time>2017-03-19T08:53:42Z</time>
      </trkpt>
      <trkpt lat="43.57317" lon="5.62891">
        <ele>583</ele>
        <time>2017-03-19T08:53:45Z</time>
      </trkpt>
      <trkpt lat="43.57322" lon="5.62865">
        <ele>582</ele>
        <time>2017-03-19T08:53:48Z</time>
      </trkpt>
      <trkpt lat="43.57317" lon="5.62833">
        <ele>579</ele>
        <time>2017-03-19T08:53:52Z</time>
      </trkpt>
      <trkpt lat="43.57322" lon="5.62803">
        <ele>577</ele>
        <time>2017-03-19T08:53:57Z</time>
      </trkpt>
      <trkpt lat="43.57329" lon="5.62778">
        <ele>575</ele>
        <time>2017-03-19T08:54:02Z</time>
      </trkpt>
      <trkpt lat="43.57333" lon="5.62751">
        <ele>575</ele>
        <time>2017-03-19T08:54:08Z</time>
      </trkpt>
      <trkpt lat="43.5734" lon="5.62728">
        <ele>577</ele>
        <time>2017-03-19T08:54:16Z</time>
      </trkpt>
      <trkpt lat="43.57346" lon="5.62705">
        <ele>577</ele>
        <time>2017-03-19T08:54:25Z</time>
      </trkpt>
      <trkpt lat="43.5735" lon="5.62679">
        <ele>576</ele>
        <time>2017-03-19T08:55:53Z</time>
      </trkpt>
      <trkpt lat="43.57347" lon="5.62652">
        <ele>575</ele>
        <time>2017-03-19T08:56:02Z</time>
      </trkpt>
      <trkpt lat="43.57347" lon="5.62626">
        <ele>576</ele>
        <time>2017-03-19T08:56:09Z</time>
      </trkpt>
      <trkpt lat="43.57351" lon="5.62597">
        <ele>576</ele>
        <time>2017-03-19T08:56:15Z</time>
      </trkpt>
      <trkpt lat="43.57351" lon="5.62569">
        <ele>577</ele>
        <time>2017-03-19T08:56:21Z</time>
      </trkpt>
      <trkpt lat="43.57351" lon="5.62543">
        <ele>578</ele>
        <time>2017-03-19T08:56:26Z</time>
      </trkpt>
      <trkpt lat="43.57349" lon="5.62518">
        <ele>577</ele>
        <time>2017-03-19T08:56:30Z</time>
      </trkpt>
      <trkpt lat="43.57346" lon="5.62491">
        <ele>577</ele>
        <time>2017-03-19T08:56:34Z</time>
      </trkpt>
      <trkpt lat="43.57343" lon="5.62464">
        <ele>577</ele>
        <time>2017-03-19T08:56:39Z</time>
      </trkpt>
      <trkpt lat="43.57339" lon="5.62439">
        <ele>577</ele>
        <time>2017-03-19T08:56:45Z</time>
      </trkpt>
      <trkpt lat="43.57333" lon="5.62414">
        <ele>576</ele>
        <time>2017-03-19T08:56:54Z</time>
      </trkpt>
      <trkpt lat="43.57315" lon="5.62421">
        <ele>577</ele>
        <time>2017-03-19T08:57:11Z</time>
      </trkpt>
      <trkpt lat="43.57302" lon="5.62443">
        <ele>578</ele>
        <time>2017-03-19T08:57:20Z</time>
      </trkpt>
      <trkpt lat="43.57292" lon="5.62468">
        <ele>578</ele>
        <time>2017-03-19T08:57:26Z</time>
      </trkpt>
      <trkpt lat="43.57279" lon="5.62494">
        <ele>578</ele>
        <time>2017-03-19T08:57:31Z</time>
      </trkpt>
      <trkpt lat="43.57263" lon="5.6251">
        <ele>575</ele>
        <time>2017-03-19T08:57:34Z</time>
      </trkpt>
      <trkpt lat="43.57251" lon="5.62529">
        <ele>574</ele>
        <time>2017-03-19T08:57:37Z</time>
      </trkpt>
      <trkpt lat="43.57246" lon="5.62556">
        <ele>569</ele>
        <time>2017-03-19T08:57:41Z</time>
      </trkpt>
      <trkpt lat="43.57228" lon="5.62564">
        <ele>569</ele>
        <time>2017-03-19T08:57:45Z</time>
      </trkpt>
      <trkpt lat="43.5721" lon="5.62577">
        <ele>568</ele>
        <time>2017-03-19T08:57:48Z</time>
      </trkpt>
      <trkpt lat="43.57192" lon="5.62589">
        <ele>565</ele>
        <time>2017-03-19T08:57:51Z</time>
      </trkpt>
      <trkpt lat="43.5717" lon="5.62592">
        <ele>564</ele>
        <time>2017-03-19T08:57:54Z</time>
      </trkpt>
      <trkpt lat="43.57149" lon="5.62599">
        <ele>566</ele>
        <time>2017-03-19T08:57:57Z</time>
      </trkpt>
      <trkpt lat="43.57131" lon="5.62606">
        <ele>567</ele>
        <time>2017-03-19T08:58:00Z</time>
      </trkpt>
      <trkpt lat="43.57112" lon="5.62597">
        <ele>568</ele>
        <time>2017-03-19T08:58:04Z</time>
      </trkpt>
      <trkpt lat="43.57096" lon="5.62584">
        <ele>568</ele>
        <time>2017-03-19T08:58:09Z</time>
      </trkpt>
      <trkpt lat="43.57084" lon="5.62565">
        <ele>568</ele>
        <time>2017-03-19T08:58:15Z</time>
      </trkpt>
      <trkpt lat="43.5707" lon="5.62544">
        <ele>570</ele>
        <time>2017-03-19T08:58:22Z</time>
      </trkpt>
      <trkpt lat="43.57056" lon="5.62528">
        <ele>569</ele>
        <time>2017-03-19T08:58:28Z</time>
      </trkpt>
      <trkpt lat="43.5704" lon="5.62512">
        <ele>570</ele>
        <time>2017-03-19T08:58:36Z</time>
      </trkpt>
      <trkpt lat="43.57023" lon="5.62499">
        <ele>568</ele>
        <time>2017-03-19T08:58:46Z</time>
      </trkpt>
      <trkpt lat="43.57006" lon="5.62488">
        <ele>570</ele>
        <time>2017-03-19T08:58:55Z</time>
      </trkpt>
      <trkpt lat="43.56988" lon="5.62478">
        <ele>571</ele>
        <time>2017-03-19T08:59:04Z</time>
      </trkpt>
      <trkpt lat="43.56971" lon="5.62469">
        <ele>571</ele>
        <time>2017-03-19T08:59:12Z</time>
      </trkpt>
      <trkpt lat="43.56953" lon="5.62459">
        <ele>571</ele>
        <time>2017-03-19T08:59:23Z</time>
      </trkpt>
      <trkpt lat="43.56934" lon="5.62462">
        <ele>572</ele>
        <time>2017-03-19T08:59:31Z</time>
      </trkpt>
      <trkpt lat="43.56926" lon="5.62485">
        <ele>573</ele>
        <time>2017-03-19T08:59:38Z</time>
      </trkpt>
      <trkpt lat="43.56918" lon="5.6251">
        <ele>575</ele>
        <time>2017-03-19T08:59:45Z</time>
      </trkpt>
      <trkpt lat="43.56911" lon="5.62536">
        <ele>570</ele>
        <time>2017-03-19T08:59:52Z</time>
      </trkpt>
      <trkpt lat="43.56907" lon="5.62561">
        <ele>571</ele>
        <time>2017-03-19T08:59:58Z</time>
      </trkpt>
      <trkpt lat="43.56907" lon="5.62586">
        <ele>573</ele>
        <time>2017-03-19T09:00:04Z</time>
      </trkpt>
      <trkpt lat="43.56908" lon="5.62611">
        <ele>570</ele>
        <time>2017-03-19T09:00:10Z</time>
      </trkpt>
      <trkpt lat="43.56911" lon="5.62639">
        <ele>571</ele>
        <time>2017-03-19T09:00:17Z</time>
      </trkpt>
      <trkpt lat="43.56912" lon="5.62664">
        <ele>576</ele>
        <time>2017-03-19T09:00:24Z</time>
      </trkpt>
      <trkpt lat="43.56914" lon="5.62689">
        <ele>574</ele>
        <time>2017-03-19T09:00:32Z</time>
      </trkpt>
      <trkpt lat="43.56916" lon="5.62716">
        <ele>573</ele>
        <time>2017-03-19T09:00:42Z</time>
      </trkpt>
      <trkpt lat="43.56915" lon="5.62741">
        <ele>578</ele>
        <time>2017-03-19T09:00:51Z</time>
      </trkpt>
      <trkpt lat="43.56911" lon="5.62767">
        <ele>579</ele>
        <time>2017-03-19T09:01:00Z</time>
      </trkpt>
      <trkpt lat="43.56909" lon="5.62792">
        <ele>579</ele>
        <time>2017-03-19T09:01:09Z</time>
      </trkpt>
      <trkpt lat="43.56907" lon="5.62817">
        <ele>582</ele>
        <time>2017-03-19T09:01:18Z</time>
      </trkpt>
      <trkpt lat="43.56904" lon="5.62843">
        <ele>586</ele>
        <time>2017-03-19T09:01:27Z</time>
      </trkpt>
      <trkpt lat="43.569" lon="5.62868">
        <ele>586</ele>
        <time>2017-03-19T09:01:36Z</time>
      </trkpt>
      <trkpt lat="43.56896" lon="5.62894">
        <ele>588</ele>
        <time>2017-03-19T09:01:46Z</time>
      </trkpt>
      <trkpt lat="43.56894" lon="5.6292">
        <ele>593</ele>
        <time>2017-03-19T09:01:56Z</time>
      </trkpt>
      <trkpt lat="43.56892" lon="5.62945">
        <ele>592</ele>
        <time>2017-03-19T09:02:06Z</time>
      </trkpt>
      <trkpt lat="43.56889" lon="5.62971">
        <ele>593</ele>
        <time>2017-03-19T09:02:16Z</time>
      </trkpt>
      <trkpt lat="43.56884" lon="5.62996">
        <ele>594</ele>
        <time>2017-03-19T09:02:25Z</time>
      </trkpt>
      <trkpt lat="43.5688" lon="5.63022">
        <ele>599</ele>
        <time>2017-03-19T09:02:35Z</time>
      </trkpt>
      <trkpt lat="43.56877" lon="5.63046">
        <ele>599</ele>
        <time>2017-03-19T09:02:45Z</time>
      </trkpt>
      <trkpt lat="43.56871" lon="5.63071">
        <ele>600</ele>
        <time>2017-03-19T09:02:55Z</time>
      </trkpt>
      <trkpt lat="43.56863" lon="5.63097">
        <ele>605</ele>
        <time>2017-03-19T09:03:06Z</time>
      </trkpt>
      <trkpt lat="43.56853" lon="5.6312">
        <ele>606</ele>
        <time>2017-03-19T09:03:17Z</time>
      </trkpt>
      <trkpt lat="43.56843" lon="5.63141">
        <ele>608</ele>
        <time>2017-03-19T09:03:27Z</time>
      </trkpt>
      <trkpt lat="43.56836" lon="5.63164">
        <ele>609</ele>
        <time>2017-03-19T09:03:37Z</time>
      </trkpt>
      <trkpt lat="43.56832" lon="5.63189">
        <ele>610</ele>
        <time>2017-03-19T09:03:47Z</time>
      </trkpt>
      <trkpt lat="43.5683" lon="5.63214">
        <ele>612</ele>
        <time>2017-03-19T09:03:58Z</time>
      </trkpt>
      <trkpt lat="43.56821" lon="5.63238">
        <ele>614</ele>
        <time>2017-03-19T09:04:09Z</time>
      </trkpt>
      <trkpt lat="43.56808" lon="5.63259">
        <ele>618</ele>
        <time>2017-03-19T09:04:20Z</time>
      </trkpt>
      <trkpt lat="43.56797" lon="5.6328">
        <ele>619</ele>
        <time>2017-03-19T09:04:30Z</time>
      </trkpt>
      <trkpt lat="43.56791" lon="5.63306">
        <ele>620</ele>
        <time>2017-03-19T09:04:41Z</time>
      </trkpt>
      <trkpt lat="43.56786" lon="5.6333">
        <ele>621</ele>
        <time>2017-03-19T09:04:51Z</time>
      </trkpt>
      <trkpt lat="43.56784" lon="5.63356">
        <ele>626</ele>
        <time>2017-03-19T09:05:02Z</time>
      </trkpt>
      <trkpt lat="43.56783" lon="5.63381">
        <ele>627</ele>
        <time>2017-03-19T09:05:12Z</time>
      </trkpt>
      <trkpt lat="43.56781" lon="5.63408">
        <ele>628</ele>
        <time>2017-03-19T09:05:22Z</time>
      </trkpt>
      <trkpt lat="43.56774" lon="5.63433">
        <ele>631</ele>
        <time>2017-03-19T09:05:31Z</time>
      </trkpt>
      <trkpt lat="43.56763" lon="5.63457">
        <ele>632</ele>
        <time>2017-03-19T09:05:40Z</time>
      </trkpt>
      <trkpt lat="43.56756" lon="5.63481">
        <ele>633</ele>
        <time>2017-03-19T09:05:49Z</time>
      </trkpt>
      <trkpt lat="43.56749" lon="5.63507">
        <ele>634</ele>
        <time>2017-03-19T09:05:58Z</time>
      </trkpt>
      <trkpt lat="43.56743" lon="5.63532">
        <ele>634</ele>
        <time>2017-03-19T09:06:06Z</time>
      </trkpt>
      <trkpt lat="43.56735" lon="5.63556">
        <ele>634</ele>
        <time>2017-03-19T09:06:15Z</time>
      </trkpt>
      <trkpt lat="43.56719" lon="5.63569">
        <ele>634</ele>
        <time>2017-03-19T09:06:24Z</time>
      </trkpt>
      <trkpt lat="43.56703" lon="5.63584">
        <ele>637</ele>
        <time>2017-03-19T09:06:34Z</time>
      </trkpt>
      <trkpt lat="43.56687" lon="5.63595">
        <ele>637</ele>
        <time>2017-03-19T09:06:43Z</time>
      </trkpt>
      <trkpt lat="43.56674" lon="5.63615">
        <ele>637</ele>
        <time>2017-03-19T09:06:53Z</time>
      </trkpt>
      <trkpt lat="43.5667" lon="5.63641">
        <ele>638</ele>
        <time>2017-03-19T09:07:04Z</time>
      </trkpt>
      <trkpt lat="43.56664" lon="5.63665">
        <ele>637</ele>
        <time>2017-03-19T09:07:14Z</time>
      </trkpt>
      <trkpt lat="43.56659" lon="5.63691">
        <ele>635</ele>
        <time>2017-03-19T09:07:25Z</time>
      </trkpt>
      <trkpt lat="43.56656" lon="5.63716">
        <ele>636</ele>
        <time>2017-03-19T09:07:35Z</time>
      </trkpt>
      <trkpt lat="43.56652" lon="5.63744">
        <ele>638</ele>
        <time>2017-03-19T09:07:45Z</time>
      </trkpt>
      <trkpt lat="43.56651" lon="5.6377">
        <ele>640</ele>
        <time>2017-03-19T09:07:55Z</time>
      </trkpt>
      <trkpt lat="43.5665" lon="5.63795">
        <ele>640</ele>
        <time>2017-03-19T09:08:04Z</time>
      </trkpt>
      <trkpt lat="43.5665" lon="5.6382">
        <ele>642</ele>
        <time>2017-03-19T09:08:13Z</time>
      </trkpt>
      <trkpt lat="43.5665" lon="5.63846">
        <ele>645</ele>
        <time>2017-03-19T09:08:23Z</time>
      </trkpt>
      <trkpt lat="43.56651" lon="5.63873">
        <ele>646</ele>
        <time>2017-03-19T09:08:33Z</time>
      </trkpt>
      <trkpt lat="43.56651" lon="5.63898">
        <ele>648</ele>
        <time>2017-03-19T09:08:42Z</time>
      </trkpt>
      <trkpt lat="43.56651" lon="5.63924">
        <ele>652</ele>
        <time>2017-03-19T09:08:51Z</time>
      </trkpt>
      <trkpt lat="43.56651" lon="5.63951">
        <ele>653</ele>
        <time>2017-03-19T09:09:00Z</time>
      </trkpt>
      <trkpt lat="43.56651" lon="5.63977">
        <ele>654</ele>
        <time>2017-03-19T09:09:09Z</time>
      </trkpt>
      <trkpt lat="43.56652" lon="5.64003">
        <ele>657</ele>
        <time>2017-03-19T09:09:18Z</time>
      </trkpt>
      <trkpt lat="43.56654" lon="5.6403">
        <ele>657</ele>
        <time>2017-03-19T09:09:27Z</time>
      </trkpt>
      <trkpt lat="43.56655" lon="5.64055">
        <ele>657</ele>
        <time>2017-03-19T09:09:35Z</time>
      </trkpt>
      <trkpt lat="43.56657" lon="5.64081">
        <ele>658</ele>
        <time>2017-03-19T09:09:44Z</time>
      </trkpt>
      <trkpt lat="43.56659" lon="5.64107">
        <ele>658</ele>
        <time>2017-03-19T09:09:53Z</time>
      </trkpt>
      <trkpt lat="43.56666" lon="5.6413">
        <ele>658</ele>
        <time>2017-03-19T09:10:01Z</time>
      </trkpt>
      <trkpt lat="43.56676" lon="5.64153">
        <ele>659</ele>
        <time>2017-03-19T09:10:08Z</time>
      </trkpt>
      <trkpt lat="43.56685" lon="5.64175">
        <ele>658</ele>
        <time>2017-03-19T09:10:14Z</time>
      </trkpt>
      <trkpt lat="43.56691" lon="5.64199">
        <ele>659</ele>
        <time>2017-03-19T09:10:19Z</time>
      </trkpt>
      <trkpt lat="43.56698" lon="5.64225">
        <ele>658</ele>
        <time>2017-03-19T09:10:24Z</time>
      </trkpt>
      <trkpt lat="43.56705" lon="5.64249">
        <ele>658</ele>
        <time>2017-03-19T09:10:29Z</time>
      </trkpt>
      <trkpt lat="43.56712" lon="5.64274">
        <ele>657</ele>
        <time>2017-03-19T09:10:34Z</time>
      </trkpt>
      <trkpt lat="43.56722" lon="5.643">
        <ele>657</ele>
        <time>2017-03-19T09:10:40Z</time>
      </trkpt>
      <trkpt lat="43.56727" lon="5.64325">
        <ele>657</ele>
        <time>2017-03-19T09:10:46Z</time>
      </trkpt>
      <trkpt lat="43.56727" lon="5.6435">
        <ele>656</ele>
        <time>2017-03-19T09:10:51Z</time>
      </trkpt>
      <trkpt lat="43.56726" lon="5.64375">
        <ele>656</ele>
        <time>2017-03-19T09:10:57Z</time>
      </trkpt>
      <trkpt lat="43.56726" lon="5.64401">
        <ele>656</ele>
        <time>2017-03-19T09:11:04Z</time>
      </trkpt>
      <trkpt lat="43.56723" lon="5.64427">
        <ele>655</ele>
        <time>2017-03-19T09:11:11Z</time>
      </trkpt>
      <trkpt lat="43.56723" lon="5.64452">
        <ele>655</ele>
        <time>2017-03-19T09:11:18Z</time>
      </trkpt>
      <trkpt lat="43.56722" lon="5.64478">
        <ele>655</ele>
        <time>2017-03-19T09:11:26Z</time>
      </trkpt>
      <trkpt lat="43.56732" lon="5.64499">
        <ele>655</ele>
        <time>2017-03-19T09:15:08Z</time>
      </trkpt>
      <trkpt lat="43.56751" lon="5.64502">
        <ele>655</ele>
        <time>2017-03-19T09:15:16Z</time>
      </trkpt>
      <trkpt lat="43.56772" lon="5.6451">
        <ele>654</ele>
        <time>2017-03-19T09:15:23Z</time>
      </trkpt>
      <trkpt lat="43.56793" lon="5.64518">
        <ele>653</ele>
        <time>2017-03-19T09:15:29Z</time>
      </trkpt>
      <trkpt lat="43.56814" lon="5.64527">
        <ele>653</ele>
        <time>2017-03-19T09:15:34Z</time>
      </trkpt>
      <trkpt lat="43.56827" lon="5.64546">
        <ele>653</ele>
        <time>2017-03-19T09:15:42Z</time>
      </trkpt>
      <trkpt lat="43.5682" lon="5.64569">
        <ele>653</ele>
        <time>2017-03-19T09:15:52Z</time>
      </trkpt>
      <trkpt lat="43.56815" lon="5.64595">
        <ele>653</ele>
        <time>2017-03-19T09:15:58Z</time>
      </trkpt>
      <trkpt lat="43.56808" lon="5.64619">
        <ele>654</ele>
        <time>2017-03-19T09:16:03Z</time>
      </trkpt>
      <trkpt lat="43.56806" lon="5.64644">
        <ele>654</ele>
        <time>2017-03-19T09:16:08Z</time>
      </trkpt>
      <trkpt lat="43.568" lon="5.64671">
        <ele>655</ele>
        <time>2017-03-19T09:16:14Z</time>
      </trkpt>
      <trkpt lat="43.56797" lon="5.64698">
        <ele>655</ele>
        <time>2017-03-19T09:16:19Z</time>
      </trkpt>
      <trkpt lat="43.56794" lon="5.64726">
        <ele>655</ele>
        <time>2017-03-19T09:16:25Z</time>
      </trkpt>
      <trkpt lat="43.5679" lon="5.64754">
        <ele>656</ele>
        <time>2017-03-19T09:16:31Z</time>
      </trkpt>
      <trkpt lat="43.56784" lon="5.64782">
        <ele>656</ele>
        <time>2017-03-19T09:16:37Z</time>
      </trkpt>
      <trkpt lat="43.56778" lon="5.64808">
        <ele>656</ele>
        <time>2017-03-19T09:16:43Z</time>
      </trkpt>
      <trkpt lat="43.56772" lon="5.64835">
        <ele>657</ele>
        <time>2017-03-19T09:16:49Z</time>
      </trkpt>
      <trkpt lat="43.56768" lon="5.64862">
        <ele>657</ele>
        <time>2017-03-19T09:16:55Z</time>
      </trkpt>
      <trkpt lat="43.56764" lon="5.64889">
        <ele>658</ele>
        <time>2017-03-19T09:17:01Z</time>
      </trkpt>
      <trkpt lat="43.56758" lon="5.64916">
        <ele>658</ele>
        <time>2017-03-19T09:17:07Z</time>
      </trkpt>
      <trkpt lat="43.56753" lon="5.6494">
        <ele>659</ele>
        <time>2017-03-19T09:17:12Z</time>
      </trkpt>
      <trkpt lat="43.56748" lon="5.64968">
        <ele>659</ele>
        <time>2017-03-19T09:17:17Z</time>
      </trkpt>
      <trkpt lat="43.56744" lon="5.64993">
        <ele>659</ele>
        <time>2017-03-19T09:17:21Z</time>
      </trkpt>
      <trkpt lat="43.5674" lon="5.6502">
        <ele>659</ele>
        <time>2017-03-19T09:17:25Z</time>
      </trkpt>
      <trkpt lat="43.56734" lon="5.65048">
        <ele>658</ele>
        <time>2017-03-19T09:17:29Z</time>
      </trkpt>
      <trkpt lat="43.56728" lon="5.65076">
        <ele>658</ele>
        <time>2017-03-19T09:17:33Z</time>
      </trkpt>
      <trkpt lat="43.56724" lon="5.65106">
        <ele>656</ele>
        <time>2017-03-19T09:17:37Z</time>
      </trkpt>
      <trkpt lat="43.5672" lon="5.65131">
        <ele>656</ele>
        <time>2017-03-19T09:17:40Z</time>
      </trkpt>
      <trkpt lat="43.56716" lon="5.65156">
        <ele>655</ele>
        <time>2017-03-19T09:17:43Z</time>
      </trkpt>
      <trkpt lat="43.56712" lon="5.65182">
        <ele>653</ele>
        <time>2017-03-19T09:17:46Z</time>
      </trkpt>
      <trkpt lat="43.56705" lon="5.65208">
        <ele>653</ele>
        <time>2017-03-19T09:17:49Z</time>
      </trkpt>
      <trkpt lat="43.56695" lon="5.65232">
        <ele>652</ele>
        <time>2017-03-19T09:17:52Z</time>
      </trkpt>
      <trkpt lat="43.56684" lon="5.65254">
        <ele>651</ele>
        <time>2017-03-19T09:17:55Z</time>
      </trkpt>
      <trkpt lat="43.5667" lon="5.65274">
        <ele>650</ele>
        <time>2017-03-19T09:17:58Z</time>
      </trkpt>
      <trkpt lat="43.56652" lon="5.6529">
        <ele>648</ele>
        <time>2017-03-19T09:18:01Z</time>
      </trkpt>
      <trkpt lat="43.56634" lon="5.65306">
        <ele>647</ele>
        <time>2017-03-19T09:18:04Z</time>
      </trkpt>
      <trkpt lat="43.56616" lon="5.65321">
        <ele>647</ele>
        <time>2017-03-19T09:18:07Z</time>
      </trkpt>
      <trkpt lat="43.56598" lon="5.65337">
        <ele>645</ele>
        <time>2017-03-19T09:18:10Z</time>
      </trkpt>
      <trkpt lat="43.5658" lon="5.65352">
        <ele>642</ele>
        <time>2017-03-19T09:18:13Z</time>
      </trkpt>
      <trkpt lat="43.5656" lon="5.65368">
        <ele>641</ele>
        <time>2017-03-19T09:18:16Z</time>
      </trkpt>
      <trkpt lat="43.56537" lon="5.65385">
        <ele>640</ele>
        <time>2017-03-19T09:18:19Z</time>
      </trkpt>
      <trkpt lat="43.56514" lon="5.65403">
        <ele>638</ele>
        <time>2017-03-19T09:18:22Z</time>
      </trkpt>
      <trkpt lat="43.56492" lon="5.65424">
        <ele>636</ele>
        <time>2017-03-19T09:18:25Z</time>
      </trkpt>
      <trkpt lat="43.56476" lon="5.65438">
        <ele>636</ele>
        <time>2017-03-19T09:18:27Z</time>
      </trkpt>
      <trkpt lat="43.56456" lon="5.65456">
        <ele>636</ele>
        <time>2017-03-19T09:18:30Z</time>
      </trkpt>
      <trkpt lat="43.56437" lon="5.65467">
        <ele>636</ele>
        <time>2017-03-19T09:18:33Z</time>
      </trkpt>
      <trkpt lat="43.56419" lon="5.65478">
        <ele>636</ele>
        <time>2017-03-19T09:18:37Z</time>
      </trkpt>
      <trkpt lat="43.56403" lon="5.65494">
        <ele>637</ele>
        <time>2017-03-19T09:18:42Z</time>
      </trkpt>
      <trkpt lat="43.56383" lon="5.6551">
        <ele>637</ele>
        <time>2017-03-19T09:18:47Z</time>
      </trkpt>
      <trkpt lat="43.56366" lon="5.65525">
        <ele>637</ele>
        <time>2017-03-19T09:18:50Z</time>
      </trkpt>
      <trkpt lat="43.5635" lon="5.6554">
        <ele>638</ele>
        <time>2017-03-19T09:18:53Z</time>
      </trkpt>
      <trkpt lat="43.5634" lon="5.65563">
        <ele>638</ele>
        <time>2017-03-19T09:18:58Z</time>
      </trkpt>
      <trkpt lat="43.56345" lon="5.65589">
        <ele>637</ele>
        <time>2017-03-19T09:19:03Z</time>
      </trkpt>
      <trkpt lat="43.56351" lon="5.65616">
        <ele>636</ele>
        <time>2017-03-19T09:19:08Z</time>
      </trkpt>
      <trkpt lat="43.56354" lon="5.6564">
        <ele>635</ele>
        <time>2017-03-19T09:19:12Z</time>
      </trkpt>
      <trkpt lat="43.56355" lon="5.65667">
        <ele>634</ele>
        <time>2017-03-19T09:19:16Z</time>
      </trkpt>
      <trkpt lat="43.56353" lon="5.65695">
        <ele>634</ele>
        <time>2017-03-19T09:19:20Z</time>
      </trkpt>
      <trkpt lat="43.56345" lon="5.65723">
        <ele>634</ele>
        <time>2017-03-19T09:19:24Z</time>
      </trkpt>
      <trkpt lat="43.56336" lon="5.65751">
        <ele>636</ele>
        <time>2017-03-19T09:19:28Z</time>
      </trkpt>
      <trkpt lat="43.56326" lon="5.65778">
        <ele>638</ele>
        <time>2017-03-19T09:19:32Z</time>
      </trkpt>
      <trkpt lat="43.56316" lon="5.65804">
        <ele>638</ele>
        <time>2017-03-19T09:19:36Z</time>
      </trkpt>
      <trkpt lat="43.56309" lon="5.65832">
        <ele>638</ele>
        <time>2017-03-19T09:19:41Z</time>
      </trkpt>
      <trkpt lat="43.56307" lon="5.65857">
        <ele>637</ele>
        <time>2017-03-19T09:19:45Z</time>
      </trkpt>
      <trkpt lat="43.56303" lon="5.65882">
        <ele>636</ele>
        <time>2017-03-19T09:19:49Z</time>
      </trkpt>
      <trkpt lat="43.56294" lon="5.6591">
        <ele>636</ele>
        <time>2017-03-19T09:19:54Z</time>
      </trkpt>
      <trkpt lat="43.56289" lon="5.6594">
        <ele>634</ele>
        <time>2017-03-19T09:19:58Z</time>
      </trkpt>
      <trkpt lat="43.56286" lon="5.65972">
        <ele>634</ele>
        <time>2017-03-19T09:20:01Z</time>
      </trkpt>
      <trkpt lat="43.56284" lon="5.66005">
        <ele>633</ele>
        <time>2017-03-19T09:20:04Z</time>
      </trkpt>
      <trkpt lat="43.56282" lon="5.66031">
        <ele>633</ele>
        <time>2017-03-19T09:20:07Z</time>
      </trkpt>
      <trkpt lat="43.56277" lon="5.6606">
        <ele>633</ele>
        <time>2017-03-19T09:20:11Z</time>
      </trkpt>
      <trkpt lat="43.56268" lon="5.66082">
        <ele>634</ele>
        <time>2017-03-19T09:20:15Z</time>
      </trkpt>
      <trkpt lat="43.56257" lon="5.66102">
        <ele>633</ele>
        <time>2017-03-19T09:20:19Z</time>
      </trkpt>
      <trkpt lat="43.56245" lon="5.66126">
        <ele>637</ele>
        <time>2017-03-19T09:20:24Z</time>
      </trkpt>
      <trkpt lat="43.56233" lon="5.6615">
        <ele>636</ele>
        <time>2017-03-19T09:20:29Z</time>
      </trkpt>
      <trkpt lat="43.56218" lon="5.66167">
        <ele>635</ele>
        <time>2017-03-19T09:20:34Z</time>
      </trkpt>
      <trkpt lat="43.56199" lon="5.66172">
        <ele>637</ele>
        <time>2017-03-19T09:20:39Z</time>
      </trkpt>
      <trkpt lat="43.5618" lon="5.66173">
        <ele>639</ele>
        <time>2017-03-19T09:20:44Z</time>
      </trkpt>
      <trkpt lat="43.56173" lon="5.66199">
        <ele>637</ele>
        <time>2017-03-19T09:20:53Z</time>
      </trkpt>
      <trkpt lat="43.56181" lon="5.66223">
        <ele>637</ele>
        <time>2017-03-19T09:20:59Z</time>
      </trkpt>
      <trkpt lat="43.56192" lon="5.66248">
        <ele>636</ele>
        <time>2017-03-19T09:21:05Z</time>
      </trkpt>
      <trkpt lat="43.56198" lon="5.66275">
        <ele>636</ele>
        <time>2017-03-19T09:21:09Z</time>
      </trkpt>
      <trkpt lat="43.56205" lon="5.66304">
        <ele>636</ele>
        <time>2017-03-19T09:21:13Z</time>
      </trkpt>
      <trkpt lat="43.5622" lon="5.66322">
        <ele>635</ele>
        <time>2017-03-19T09:21:17Z</time>
      </trkpt>
      <trkpt lat="43.56237" lon="5.66336">
        <ele>634</ele>
        <time>2017-03-19T09:21:21Z</time>
      </trkpt>
      <trkpt lat="43.56252" lon="5.66351">
        <ele>630</ele>
        <time>2017-03-19T09:21:25Z</time>
      </trkpt>
      <trkpt lat="43.5626" lon="5.6638">
        <ele>629</ele>
        <time>2017-03-19T09:21:30Z</time>
      </trkpt>
      <trkpt lat="43.56258" lon="5.66409">
        <ele>631</ele>
        <time>2017-03-19T09:21:35Z</time>
      </trkpt>
      <trkpt lat="43.56258" lon="5.66439">
        <ele>630</ele>
        <time>2017-03-19T09:21:40Z</time>
      </trkpt>
      <trkpt lat="43.56261" lon="5.66464">
        <ele>630</ele>
        <time>2017-03-19T09:21:44Z</time>
      </trkpt>
      <trkpt lat="43.56259" lon="5.66492">
        <ele>630</ele>
        <time>2017-03-19T09:21:48Z</time>
      </trkpt>
      <trkpt lat="43.56254" lon="5.66523">
        <ele>628</ele>
        <time>2017-03-19T09:21:52Z</time>
      </trkpt>
      <trkpt lat="43.56246" lon="5.66549">
        <ele>630</ele>
        <time>2017-03-19T09:21:55Z</time>
      </trkpt>
      <trkpt lat="43.56237" lon="5.66576">
        <ele>629</ele>
        <time>2017-03-19T09:21:58Z</time>
      </trkpt>
      <trkpt lat="43.56231" lon="5.66605">
        <ele>627</ele>
        <time>2017-03-19T09:22:01Z</time>
      </trkpt>
      <trkpt lat="43.5623" lon="5.66641">
        <ele>627</ele>
        <time>2017-03-19T09:22:04Z</time>
      </trkpt>
      <trkpt lat="43.56229" lon="5.66678">
        <ele>623</ele>
        <time>2017-03-19T09:22:07Z</time>
      </trkpt>
      <trkpt lat="43.56228" lon="5.66703">
        <ele>623</ele>
        <time>2017-03-19T09:22:09Z</time>
      </trkpt>
      <trkpt lat="43.56226" lon="5.66729">
        <ele>622</ele>
        <time>2017-03-19T09:22:11Z</time>
      </trkpt>
      <trkpt lat="43.56222" lon="5.66754">
        <ele>619</ele>
        <time>2017-03-19T09:22:13Z</time>
      </trkpt>
      <trkpt lat="43.56217" lon="5.66778">
        <ele>618</ele>
        <time>2017-03-19T09:22:15Z</time>
      </trkpt>
      <trkpt lat="43.56213" lon="5.66802">
        <ele>618</ele>
        <time>2017-03-19T09:22:17Z</time>
      </trkpt>
      <trkpt lat="43.56206" lon="5.66838">
        <ele>615</ele>
        <time>2017-03-19T09:22:20Z</time>
      </trkpt>
      <trkpt lat="43.56202" lon="5.66873">
        <ele>615</ele>
        <time>2017-03-19T09:22:23Z</time>
      </trkpt>
      <trkpt lat="43.56197" lon="5.6691">
        <ele>614</ele>
        <time>2017-03-19T09:22:26Z</time>
      </trkpt>
      <trkpt lat="43.56198" lon="5.66947">
        <ele>611</ele>
        <time>2017-03-19T09:22:29Z</time>
      </trkpt>
      <trkpt lat="43.56195" lon="5.66977">
        <ele>610</ele>
        <time>2017-03-19T09:22:32Z</time>
      </trkpt>
      <trkpt lat="43.56182" lon="5.66998">
        <ele>609</ele>
        <time>2017-03-19T09:22:37Z</time>
      </trkpt>
      <trkpt lat="43.56169" lon="5.67019">
        <ele>607</ele>
        <time>2017-03-19T09:22:42Z</time>
      </trkpt>
      <trkpt lat="43.56154" lon="5.6704">
        <ele>605</ele>
        <time>2017-03-19T09:22:47Z</time>
      </trkpt>
      <trkpt lat="43.56143" lon="5.6706">
        <ele>605</ele>
        <time>2017-03-19T09:22:51Z</time>
      </trkpt>
      <trkpt lat="43.56131" lon="5.6708">
        <ele>604</ele>
        <time>2017-03-19T09:22:55Z</time>
      </trkpt>
      <trkpt lat="43.56118" lon="5.67097">
        <ele>601</ele>
        <time>2017-03-19T09:22:59Z</time>
      </trkpt>
      <trkpt lat="43.56101" lon="5.67111">
        <ele>601</ele>
        <time>2017-03-19T09:23:05Z</time>
      </trkpt>
      <trkpt lat="43.56119" lon="5.67097">
        <ele>601</ele>
        <time>2017-03-19T09:26:15Z</time>
      </trkpt>
      <trkpt lat="43.56133" lon="5.67081">
        <ele>604</ele>
        <time>2017-03-19T09:26:21Z</time>
      </trkpt>
      <trkpt lat="43.56146" lon="5.67059">
        <ele>605</ele>
        <time>2017-03-19T09:26:27Z</time>
      </trkpt>
      <trkpt lat="43.56159" lon="5.67038">
        <ele>605</ele>
        <time>2017-03-19T09:26:33Z</time>
      </trkpt>
      <trkpt lat="43.56173" lon="5.67017">
        <ele>607</ele>
        <time>2017-03-19T09:26:39Z</time>
      </trkpt>
      <trkpt lat="43.56186" lon="5.66995">
        <ele>609</ele>
        <time>2017-03-19T09:26:45Z</time>
      </trkpt>
      <trkpt lat="43.56196" lon="5.66975">
        <ele>610</ele>
        <time>2017-03-19T09:26:50Z</time>
      </trkpt>
      <trkpt lat="43.56201" lon="5.6695">
        <ele>610</ele>
        <time>2017-03-19T09:26:55Z</time>
      </trkpt>
      <trkpt lat="43.56219" lon="5.66965">
        <ele>610</ele>
        <time>2017-03-19T09:27:04Z</time>
      </trkpt>
      <trkpt lat="43.56232" lon="5.66983">
        <ele>609</ele>
        <time>2017-03-19T09:27:10Z</time>
      </trkpt>
      <trkpt lat="43.56238" lon="5.67013">
        <ele>607</ele>
        <time>2017-03-19T09:27:15Z</time>
      </trkpt>
      <trkpt lat="43.56239" lon="5.67042">
        <ele>606</ele>
        <time>2017-03-19T09:27:19Z</time>
      </trkpt>
      <trkpt lat="43.56244" lon="5.67073">
        <ele>603</ele>
        <time>2017-03-19T09:27:23Z</time>
      </trkpt>
      <trkpt lat="43.56248" lon="5.67102">
        <ele>602</ele>
        <time>2017-03-19T09:27:26Z</time>
      </trkpt>
      <trkpt lat="43.5625" lon="5.67134">
        <ele>601</ele>
        <time>2017-03-19T09:27:29Z</time>
      </trkpt>
      <trkpt lat="43.56251" lon="5.67167">
        <ele>598</ele>
        <time>2017-03-19T09:27:32Z</time>
      </trkpt>
      <trkpt lat="43.56252" lon="5.67201">
        <ele>599</ele>
        <time>2017-03-19T09:27:35Z</time>
      </trkpt>
      <trkpt lat="43.56253" lon="5.67236">
        <ele>597</ele>
        <time>2017-03-19T09:27:38Z</time>
      </trkpt>
      <trkpt lat="43.56256" lon="5.67269">
        <ele>594</ele>
        <time>2017-03-19T09:27:41Z</time>
      </trkpt>
      <trkpt lat="43.56261" lon="5.67302">
        <ele>594</ele>
        <time>2017-03-19T09:27:44Z</time>
      </trkpt>
      <trkpt lat="43.56273" lon="5.67324">
        <ele>593</ele>
        <time>2017-03-19T09:27:47Z</time>
      </trkpt>
      <trkpt lat="43.56293" lon="5.67334">
        <ele>592</ele>
        <time>2017-03-19T09:27:50Z</time>
      </trkpt>
      <trkpt lat="43.56313" lon="5.67339">
        <ele>592</ele>
        <time>2017-03-19T09:27:53Z</time>
      </trkpt>
      <trkpt lat="43.56326" lon="5.67357">
        <ele>592</ele>
        <time>2017-03-19T09:27:56Z</time>
      </trkpt>
      <trkpt lat="43.56334" lon="5.67383">
        <ele>595</ele>
        <time>2017-03-19T09:27:59Z</time>
      </trkpt>
      <trkpt lat="43.56334" lon="5.67411">
        <ele>591</ele>
        <time>2017-03-19T09:28:02Z</time>
      </trkpt>
      <trkpt lat="43.5633" lon="5.67442">
        <ele>588</ele>
        <time>2017-03-19T09:28:05Z</time>
      </trkpt>
      <trkpt lat="43.56321" lon="5.67473">
        <ele>587</ele>
        <time>2017-03-19T09:28:08Z</time>
      </trkpt>
      <trkpt lat="43.56308" lon="5.67501">
        <ele>584</ele>
        <time>2017-03-19T09:28:11Z</time>
      </trkpt>
      <trkpt lat="43.56295" lon="5.67529">
        <ele>584</ele>
        <time>2017-03-19T09:28:14Z</time>
      </trkpt>
      <trkpt lat="43.56284" lon="5.67558">
        <ele>583</ele>
        <time>2017-03-19T09:28:17Z</time>
      </trkpt>
      <trkpt lat="43.56279" lon="5.67591">
        <ele>581</ele>
        <time>2017-03-19T09:28:20Z</time>
      </trkpt>
      <trkpt lat="43.56281" lon="5.67624">
        <ele>581</ele>
        <time>2017-03-19T09:28:23Z</time>
      </trkpt>
      <trkpt lat="43.56292" lon="5.6765">
        <ele>580</ele>
        <time>2017-03-19T09:28:26Z</time>
      </trkpt>
      <trkpt lat="43.56312" lon="5.67668">
        <ele>578</ele>
        <time>2017-03-19T09:28:29Z</time>
      </trkpt>
      <trkpt lat="43.56327" lon="5.67691">
        <ele>577</ele>
        <time>2017-03-19T09:28:32Z</time>
      </trkpt>
      <trkpt lat="43.56329" lon="5.67721">
        <ele>576</ele>
        <time>2017-03-19T09:28:35Z</time>
      </trkpt>
      <trkpt lat="43.56317" lon="5.67742">
        <ele>575</ele>
        <time>2017-03-19T09:28:38Z</time>
      </trkpt>
      <trkpt lat="43.56299" lon="5.67759">
        <ele>574</ele>
        <time>2017-03-19T09:28:41Z</time>
      </trkpt>
      <trkpt lat="43.56285" lon="5.67782">
        <ele>574</ele>
        <time>2017-03-19T09:28:44Z</time>
      </trkpt>
      <trkpt lat="43.56281" lon="5.67812">
        <ele>573</ele>
        <time>2017-03-19T09:28:47Z</time>
      </trkpt>
      <trkpt lat="43.56282" lon="5.6784">
        <ele>570</ele>
        <time>2017-03-19T09:28:50Z</time>
      </trkpt>
      <trkpt lat="43.56264" lon="5.67859">
        <ele>570</ele>
        <time>2017-03-19T09:28:54Z</time>
      </trkpt>
      <trkpt lat="43.56247" lon="5.67868">
        <ele>571</ele>
        <time>2017-03-19T09:28:57Z</time>
      </trkpt>
      <trkpt lat="43.56262" lon="5.67885">
        <ele>570</ele>
        <time>2017-03-19T09:29:14Z</time>
      </trkpt>
      <trkpt lat="43.56275" lon="5.67901">
        <ele>570</ele>
        <time>2017-03-19T09:29:25Z</time>
      </trkpt>
      <trkpt lat="43.56275" lon="5.67928">
        <ele>569</ele>
        <time>2017-03-19T09:29:35Z</time>
      </trkpt>
      <trkpt lat="43.56271" lon="5.67957">
        <ele>570</ele>
        <time>2017-03-19T09:29:43Z</time>
      </trkpt>
      <trkpt lat="43.5627" lon="5.67983">
        <ele>570</ele>
        <time>2017-03-19T09:29:48Z</time>
      </trkpt>
      <trkpt lat="43.56267" lon="5.68013">
        <ele>571</ele>
        <time>2017-03-19T09:29:53Z</time>
      </trkpt>
      <trkpt lat="43.5626" lon="5.6804">
        <ele>571</ele>
        <time>2017-03-19T09:29:58Z</time>
      </trkpt>
      <trkpt lat="43.56254" lon="5.68064">
        <ele>572</ele>
        <time>2017-03-19T09:30:04Z</time>
      </trkpt>
      <trkpt lat="43.56245" lon="5.68086">
        <ele>574</ele>
        <time>2017-03-19T09:30:10Z</time>
      </trkpt>
      <trkpt lat="43.5623" lon="5.68102">
        <ele>575</ele>
        <time>2017-03-19T09:30:16Z</time>
      </trkpt>
      <trkpt lat="43.56214" lon="5.68117">
        <ele>575</ele>
        <time>2017-03-19T09:30:22Z</time>
      </trkpt>
      <trkpt lat="43.562" lon="5.68138">
        <ele>575</ele>
        <time>2017-03-19T09:30:28Z</time>
      </trkpt>
      <trkpt lat="43.56186" lon="5.68159">
        <ele>575</ele>
        <time>2017-03-19T09:30:34Z</time>
      </trkpt>
      <trkpt lat="43.5617" lon="5.68176">
        <ele>574</ele>
        <time>2017-03-19T09:30:40Z</time>
      </trkpt>
      <trkpt lat="43.56156" lon="5.68197">
        <ele>574</ele>
        <time>2017-03-19T09:30:46Z</time>
      </trkpt>
      <trkpt lat="43.56149" lon="5.68224">
        <ele>573</ele>
        <time>2017-03-19T09:30:51Z</time>
      </trkpt>
      <trkpt lat="43.56135" lon="5.68248">
        <ele>573</ele>
        <time>2017-03-19T09:30:55Z</time>
      </trkpt>
      <trkpt lat="43.56118" lon="5.68262">
        <ele>572</ele>
        <time>2017-03-19T09:30:59Z</time>
      </trkpt>
      <trkpt lat="43.56102" lon="5.6828">
        <ele>573</ele>
        <time>2017-03-19T09:31:04Z</time>
      </trkpt>
      <trkpt lat="43.56095" lon="5.68304">
        <ele>573</ele>
        <time>2017-03-19T09:31:09Z</time>
      </trkpt>
      <trkpt lat="43.56088" lon="5.6833">
        <ele>574</ele>
        <time>2017-03-19T09:31:14Z</time>
      </trkpt>
      <trkpt lat="43.56081" lon="5.6836">
        <ele>574</ele>
        <time>2017-03-19T09:31:19Z</time>
      </trkpt>
      <trkpt lat="43.56081" lon="5.68385">
        <ele>573</ele>
        <time>2017-03-19T09:31:23Z</time>
      </trkpt>
      <trkpt lat="43.56086" lon="5.68411">
        <ele>570</ele>
        <time>2017-03-19T09:31:27Z</time>
      </trkpt>
      <trkpt lat="43.56093" lon="5.68439">
        <ele>568</ele>
        <time>2017-03-19T09:31:31Z</time>
      </trkpt>
      <trkpt lat="43.56103" lon="5.68466">
        <ele>567</ele>
        <time>2017-03-19T09:31:35Z</time>
      </trkpt>
      <trkpt lat="43.56117" lon="5.6849">
        <ele>567</ele>
        <time>2017-03-19T09:31:39Z</time>
      </trkpt>
      <trkpt lat="43.56134" lon="5.68509">
        <ele>566</ele>
        <time>2017-03-19T09:31:43Z</time>
      </trkpt>
      <trkpt lat="43.56152" lon="5.68523">
        <ele>565</ele>
        <time>2017-03-19T09:31:47Z</time>
      </trkpt>
      <trkpt lat="43.56166" lon="5.68542">
        <ele>565</ele>
        <time>2017-03-19T09:31:51Z</time>
      </trkpt>
      <trkpt lat="43.56173" lon="5.68567">
        <ele>562</ele>
        <time>2017-03-19T09:31:55Z</time>
      </trkpt>
      <trkpt lat="43.56177" lon="5.68594">
        <ele>563</ele>
        <time>2017-03-19T09:31:59Z</time>
      </trkpt>
      <trkpt lat="43.56179" lon="5.68622">
        <ele>562</ele>
        <time>2017-03-19T09:32:03Z</time>
      </trkpt>
      <trkpt lat="43.56176" lon="5.68654">
        <ele>562</ele>
        <time>2017-03-19T09:32:07Z</time>
      </trkpt>
      <trkpt lat="43.56181" lon="5.68685">
        <ele>561</ele>
        <time>2017-03-19T09:32:11Z</time>
      </trkpt>
      <trkpt lat="43.56193" lon="5.68709">
        <ele>560</ele>
        <time>2017-03-19T09:32:15Z</time>
      </trkpt>
      <trkpt lat="43.56204" lon="5.6873">
        <ele>560</ele>
        <time>2017-03-19T09:32:19Z</time>
      </trkpt>
      <trkpt lat="43.56221" lon="5.68743">
        <ele>559</ele>
        <time>2017-03-19T09:32:23Z</time>
      </trkpt>
      <trkpt lat="43.56242" lon="5.68756">
        <ele>558</ele>
        <time>2017-03-19T09:32:27Z</time>
      </trkpt>
      <trkpt lat="43.56259" lon="5.68771">
        <ele>554</ele>
        <time>2017-03-19T09:32:30Z</time>
      </trkpt>
      <trkpt lat="43.56275" lon="5.6879">
        <ele>552</ele>
        <time>2017-03-19T09:32:33Z</time>
      </trkpt>
      <trkpt lat="43.56283" lon="5.68815">
        <ele>551</ele>
        <time>2017-03-19T09:32:36Z</time>
      </trkpt>
      <trkpt lat="43.56284" lon="5.68846">
        <ele>550</ele>
        <time>2017-03-19T09:32:40Z</time>
      </trkpt>
      <trkpt lat="43.56284" lon="5.68872">
        <ele>550</ele>
        <time>2017-03-19T09:32:44Z</time>
      </trkpt>
      <trkpt lat="43.56281" lon="5.689">
        <ele>551</ele>
        <time>2017-03-19T09:32:49Z</time>
      </trkpt>
      <trkpt lat="43.56271" lon="5.68922">
        <ele>552</ele>
        <time>2017-03-19T09:32:54Z</time>
      </trkpt>
      <trkpt lat="43.56252" lon="5.68928">
        <ele>554</ele>
        <time>2017-03-19T09:33:01Z</time>
      </trkpt>
      <trkpt lat="43.56234" lon="5.68913">
        <ele>556</ele>
        <time>2017-03-19T09:33:07Z</time>
      </trkpt>
      <trkpt lat="43.56217" lon="5.68906">
        <ele>557</ele>
        <time>2017-03-19T09:33:12Z</time>
      </trkpt>
      <trkpt lat="43.56198" lon="5.68895">
        <ele>557</ele>
        <time>2017-03-19T09:33:18Z</time>
      </trkpt>
      <trkpt lat="43.56182" lon="5.68879">
        <ele>557</ele>
        <time>2017-03-19T09:33:24Z</time>
      </trkpt>
      <trkpt lat="43.56165" lon="5.68863">
        <ele>558</ele>
        <time>2017-03-19T09:33:30Z</time>
      </trkpt>
      <trkpt lat="43.56149" lon="5.68851">
        <ele>558</ele>
        <time>2017-03-19T09:33:36Z</time>
      </trkpt>
      <trkpt lat="43.5613" lon="5.68845">
        <ele>558</ele>
        <time>2017-03-19T09:33:42Z</time>
      </trkpt>
      <trkpt lat="43.56111" lon="5.68845">
        <ele>558</ele>
        <time>2017-03-19T09:33:48Z</time>
      </trkpt>
      <trkpt lat="43.56093" lon="5.6884">
        <ele>558</ele>
        <time>2017-03-19T09:33:54Z</time>
      </trkpt>
      <trkpt lat="43.56075" lon="5.68832">
        <ele>558</ele>
        <time>2017-03-19T09:34:00Z</time>
      </trkpt>
      <trkpt lat="43.56057" lon="5.68825">
        <ele>558</ele>
        <time>2017-03-19T09:34:10Z</time>
      </trkpt>
      <trkpt lat="43.56038" lon="5.68838">
        <ele>554</ele>
        <time>2017-03-19T09:38:19Z</time>
      </trkpt>
      <trkpt lat="43.56019" lon="5.68848">
        <ele>553</ele>
        <time>2017-03-19T09:38:24Z</time>
      </trkpt>
      <trkpt lat="43.56001" lon="5.68856">
        <ele>553</ele>
        <time>2017-03-19T09:38:28Z</time>
      </trkpt>
      <trkpt lat="43.55984" lon="5.68875">
        <ele>547</ele>
        <time>2017-03-19T09:38:33Z</time>
      </trkpt>
      <trkpt lat="43.55966" lon="5.68878">
        <ele>546</ele>
        <time>2017-03-19T09:38:38Z</time>
      </trkpt>
      <trkpt lat="43.55947" lon="5.68869">
        <ele>546</ele>
        <time>2017-03-19T09:38:42Z</time>
      </trkpt>
      <trkpt lat="43.55928" lon="5.68874">
        <ele>545</ele>
        <time>2017-03-19T09:38:45Z</time>
      </trkpt>
      <trkpt lat="43.55913" lon="5.68888">
        <ele>542</ele>
        <time>2017-03-19T09:38:50Z</time>
      </trkpt>
      <trkpt lat="43.55925" lon="5.68913">
        <ele>542</ele>
        <time>2017-03-19T09:38:56Z</time>
      </trkpt>
      <trkpt lat="43.55932" lon="5.68939">
        <ele>542</ele>
        <time>2017-03-19T09:39:01Z</time>
      </trkpt>
      <trkpt lat="43.55933" lon="5.68965">
        <ele>542</ele>
        <time>2017-03-19T09:39:05Z</time>
      </trkpt>
      <trkpt lat="43.55936" lon="5.6899">
        <ele>541</ele>
        <time>2017-03-19T09:39:09Z</time>
      </trkpt>
      <trkpt lat="43.55938" lon="5.69021">
        <ele>540</ele>
        <time>2017-03-19T09:39:14Z</time>
      </trkpt>
      <trkpt lat="43.5594" lon="5.69051">
        <ele>540</ele>
        <time>2017-03-19T09:39:19Z</time>
      </trkpt>
      <trkpt lat="43.55947" lon="5.69076">
        <ele>540</ele>
        <time>2017-03-19T09:39:24Z</time>
      </trkpt>
      <trkpt lat="43.55955" lon="5.691">
        <ele>539</ele>
        <time>2017-03-19T09:39:28Z</time>
      </trkpt>
      <trkpt lat="43.55965" lon="5.69128">
        <ele>539</ele>
        <time>2017-03-19T09:39:32Z</time>
      </trkpt>
      <trkpt lat="43.55977" lon="5.69155">
        <ele>538</ele>
        <time>2017-03-19T09:39:36Z</time>
      </trkpt>
      <trkpt lat="43.55989" lon="5.69178">
        <ele>538</ele>
        <time>2017-03-19T09:39:40Z</time>
      </trkpt>
      <trkpt lat="43.56" lon="5.69199">
        <ele>538</ele>
        <time>2017-03-19T09:39:44Z</time>
      </trkpt>
      <trkpt lat="43.56013" lon="5.69217">
        <ele>535</ele>
        <time>2017-03-19T09:39:49Z</time>
      </trkpt>
      <trkpt lat="43.5603" lon="5.69233">
        <ele>535</ele>
        <time>2017-03-19T09:39:55Z</time>
      </trkpt>
      <trkpt lat="43.56045" lon="5.69246">
        <ele>535</ele>
        <time>2017-03-19T09:40:00Z</time>
      </trkpt>
      <trkpt lat="43.56065" lon="5.69259">
        <ele>534</ele>
        <time>2017-03-19T09:40:05Z</time>
      </trkpt>
      <trkpt lat="43.56081" lon="5.69269">
        <ele>533</ele>
        <time>2017-03-19T09:40:09Z</time>
      </trkpt>
      <trkpt lat="43.561" lon="5.69284">
        <ele>535</ele>
        <time>2017-03-19T09:40:14Z</time>
      </trkpt>
      <trkpt lat="43.56111" lon="5.69305">
        <ele>535</ele>
        <time>2017-03-19T09:40:19Z</time>
      </trkpt>
      <trkpt lat="43.56111" lon="5.69332">
        <ele>534</ele>
        <time>2017-03-19T09:40:24Z</time>
      </trkpt>
      <trkpt lat="43.56108" lon="5.69359">
        <ele>534</ele>
        <time>2017-03-19T09:40:29Z</time>
      </trkpt>
      <trkpt lat="43.56102" lon="5.69387">
        <ele>533</ele>
        <time>2017-03-19T09:40:34Z</time>
      </trkpt>
      <trkpt lat="43.56092" lon="5.6941">
        <ele>532</ele>
        <time>2017-03-19T09:40:39Z</time>
      </trkpt>
      <trkpt lat="43.56084" lon="5.69434">
        <ele>532</ele>
        <time>2017-03-19T09:40:45Z</time>
      </trkpt>
      <trkpt lat="43.56079" lon="5.69462">
        <ele>532</ele>
        <time>2017-03-19T09:40:50Z</time>
      </trkpt>
      <trkpt lat="43.56072" lon="5.69488">
        <ele>531</ele>
        <time>2017-03-19T09:40:55Z</time>
      </trkpt>
      <trkpt lat="43.56076" lon="5.69516">
        <ele>530</ele>
        <time>2017-03-19T09:41:01Z</time>
      </trkpt>
      <trkpt lat="43.56082" lon="5.69542">
        <ele>530</ele>
        <time>2017-03-19T09:41:06Z</time>
      </trkpt>
      <trkpt lat="43.56092" lon="5.69564">
        <ele>528</ele>
        <time>2017-03-19T09:41:11Z</time>
      </trkpt>
      <trkpt lat="43.56102" lon="5.69588">
        <ele>526</ele>
        <time>2017-03-19T09:41:16Z</time>
      </trkpt>
      <trkpt lat="43.56115" lon="5.69611">
        <ele>526</ele>
        <time>2017-03-19T09:41:21Z</time>
      </trkpt>
      <trkpt lat="43.56119" lon="5.69637">
        <ele>526</ele>
        <time>2017-03-19T09:41:26Z</time>
      </trkpt>
      <trkpt lat="43.5612" lon="5.69662">
        <ele>526</ele>
        <time>2017-03-19T09:41:30Z</time>
      </trkpt>
      <trkpt lat="43.5612" lon="5.69689">
        <ele>524</ele>
        <time>2017-03-19T09:41:34Z</time>
      </trkpt>
      <trkpt lat="43.56117" lon="5.69715">
        <ele>523</ele>
        <time>2017-03-19T09:41:38Z</time>
      </trkpt>
      <trkpt lat="43.5611" lon="5.69738">
        <ele>524</ele>
        <time>2017-03-19T09:41:42Z</time>
      </trkpt>
      <trkpt lat="43.56108" lon="5.69765">
        <ele>525</ele>
        <time>2017-03-19T09:41:47Z</time>
      </trkpt>
      <trkpt lat="43.56117" lon="5.69787">
        <ele>525</ele>
        <time>2017-03-19T09:41:52Z</time>
      </trkpt>
      <trkpt lat="43.56139" lon="5.69784">
        <ele>523</ele>
        <time>2017-03-19T09:41:58Z</time>
      </trkpt>
      <trkpt lat="43.56158" lon="5.69776">
        <ele>522</ele>
        <time>2017-03-19T09:42:03Z</time>
      </trkpt>
      <trkpt lat="43.5618" lon="5.69779">
        <ele>520</ele>
        <time>2017-03-19T09:42:08Z</time>
      </trkpt>
      <trkpt lat="43.56198" lon="5.69787">
        <ele>521</ele>
        <time>2017-03-19T09:42:12Z</time>
      </trkpt>
      <trkpt lat="43.56218" lon="5.69798">
        <ele>521</ele>
        <time>2017-03-19T09:42:17Z</time>
      </trkpt>
      <trkpt lat="43.56235" lon="5.69819">
        <ele>520</ele>
        <time>2017-03-19T09:42:22Z</time>
      </trkpt>
      <trkpt lat="43.56239" lon="5.69847">
        <ele>519</ele>
        <time>2017-03-19T09:42:26Z</time>
      </trkpt>
      <trkpt lat="43.5624" lon="5.69876">
        <ele>519</ele>
        <time>2017-03-19T09:42:30Z</time>
      </trkpt>
      <trkpt lat="43.56242" lon="5.69905">
        <ele>518</ele>
        <time>2017-03-19T09:42:34Z</time>
      </trkpt>
      <trkpt lat="43.56253" lon="5.69925">
        <ele>517</ele>
        <time>2017-03-19T09:42:38Z</time>
      </trkpt>
      <trkpt lat="43.56272" lon="5.69932">
        <ele>518</ele>
        <time>2017-03-19T09:42:43Z</time>
      </trkpt>
      <trkpt lat="43.56289" lon="5.69944">
        <ele>519</ele>
        <time>2017-03-19T09:42:52Z</time>
      </trkpt>
      <trkpt lat="43.56292" lon="5.69971">
        <ele>518</ele>
        <time>2017-03-19T09:44:50Z</time>
      </trkpt>
      <trkpt lat="43.56288" lon="5.69996">
        <ele>517</ele>
        <time>2017-03-19T09:44:56Z</time>
      </trkpt>
      <trkpt lat="43.56295" lon="5.70025">
        <ele>514</ele>
        <time>2017-03-19T09:45:02Z</time>
      </trkpt>
      <trkpt lat="43.56314" lon="5.70035">
        <ele>514</ele>
        <time>2017-03-19T09:45:06Z</time>
      </trkpt>
      <trkpt lat="43.56336" lon="5.70045">
        <ele>513</ele>
        <time>2017-03-19T09:45:10Z</time>
      </trkpt>
      <trkpt lat="43.56357" lon="5.70056">
        <ele>512</ele>
        <time>2017-03-19T09:45:14Z</time>
      </trkpt>
      <trkpt lat="43.56379" lon="5.70064">
        <ele>512</ele>
        <time>2017-03-19T09:45:18Z</time>
      </trkpt>
      <trkpt lat="43.56402" lon="5.70065">
        <ele>511</ele>
        <time>2017-03-19T09:45:22Z</time>
      </trkpt>
      <trkpt lat="43.56425" lon="5.70069">
        <ele>509</ele>
        <time>2017-03-19T09:45:26Z</time>
      </trkpt>
      <trkpt lat="43.56445" lon="5.70085">
        <ele>508</ele>
        <time>2017-03-19T09:45:30Z</time>
      </trkpt>
      <trkpt lat="43.56458" lon="5.70112">
        <ele>508</ele>
        <time>2017-03-19T09:45:34Z</time>
      </trkpt>
      <trkpt lat="43.56479" lon="5.70128">
        <ele>508</ele>
        <time>2017-03-19T09:45:38Z</time>
      </trkpt>
      <trkpt lat="43.56496" lon="5.70144">
        <ele>508</ele>
        <time>2017-03-19T09:45:42Z</time>
      </trkpt>
      <trkpt lat="43.56494" lon="5.70173">
        <ele>508</ele>
        <time>2017-03-19T09:45:46Z</time>
      </trkpt>
      <trkpt lat="43.56487" lon="5.702">
        <ele>510</ele>
        <time>2017-03-19T09:45:50Z</time>
      </trkpt>
      <trkpt lat="43.56488" lon="5.70227">
        <ele>510</ele>
        <time>2017-03-19T09:45:54Z</time>
      </trkpt>
      <trkpt lat="43.565" lon="5.70253">
        <ele>507</ele>
        <time>2017-03-19T09:45:58Z</time>
      </trkpt>
      <trkpt lat="43.5651" lon="5.70282">
        <ele>512</ele>
        <time>2017-03-19T09:46:02Z</time>
      </trkpt>
      <trkpt lat="43.56515" lon="5.70312">
        <ele>512</ele>
        <time>2017-03-19T09:46:06Z</time>
      </trkpt>
      <trkpt lat="43.56521" lon="5.70342">
        <ele>509</ele>
        <time>2017-03-19T09:46:10Z</time>
      </trkpt>
      <trkpt lat="43.5653" lon="5.70372">
        <ele>510</ele>
        <time>2017-03-19T09:46:14Z</time>
      </trkpt>
      <trkpt lat="43.56534" lon="5.70398">
        <ele>509</ele>
        <time>2017-03-19T09:46:17Z</time>
      </trkpt>
      <trkpt lat="43.56539" lon="5.70422">
        <ele>506</ele>
        <time>2017-03-19T09:46:20Z</time>
      </trkpt>
      <trkpt lat="43.56543" lon="5.70453">
        <ele>505</ele>
        <time>2017-03-19T09:46:24Z</time>
      </trkpt>
      <trkpt lat="43.56551" lon="5.70482">
        <ele>504</ele>
        <time>2017-03-19T09:46:28Z</time>
      </trkpt>
      <trkpt lat="43.56564" lon="5.705">
        <ele>502</ele>
        <time>2017-03-19T09:46:31Z</time>
      </trkpt>
      <trkpt lat="43.56579" lon="5.70515">
        <ele>500</ele>
        <time>2017-03-19T09:46:34Z</time>
      </trkpt>
      <trkpt lat="43.56595" lon="5.70528">
        <ele>502</ele>
        <time>2017-03-19T09:46:37Z</time>
      </trkpt>
      <trkpt lat="43.5661" lon="5.70542">
        <ele>503</ele>
        <time>2017-03-19T09:46:40Z</time>
      </trkpt>
      <trkpt lat="43.56618" lon="5.70569">
        <ele>502</ele>
        <time>2017-03-19T09:46:44Z</time>
      </trkpt>
      <trkpt lat="43.56606" lon="5.70593">
        <ele>497</ele>
        <time>2017-03-19T09:46:48Z</time>
      </trkpt>
      <trkpt lat="43.56584" lon="5.70597">
        <ele>496</ele>
        <time>2017-03-19T09:46:52Z</time>
      </trkpt>
      <trkpt lat="43.56576" lon="5.70624">
        <ele>502</ele>
        <time>2017-03-19T09:46:57Z</time>
      </trkpt>
      <trkpt lat="43.5659" lon="5.70645">
        <ele>497</ele>
        <time>2017-03-19T09:47:01Z</time>
      </trkpt>
      <trkpt lat="43.5661" lon="5.70658">
        <ele>497</ele>
        <time>2017-03-19T09:47:05Z</time>
      </trkpt>
      <trkpt lat="43.56632" lon="5.70659">
        <ele>498</ele>
        <time>2017-03-19T09:47:09Z</time>
      </trkpt>
      <trkpt lat="43.56643" lon="5.70683">
        <ele>497</ele>
        <time>2017-03-19T09:47:14Z</time>
      </trkpt>
      <trkpt lat="43.5663" lon="5.70707">
        <ele>496</ele>
        <time>2017-03-19T09:47:18Z</time>
      </trkpt>
      <trkpt lat="43.56623" lon="5.70735">
        <ele>497</ele>
        <time>2017-03-19T09:47:22Z</time>
      </trkpt>
      <trkpt lat="43.56628" lon="5.7076">
        <ele>497</ele>
        <time>2017-03-19T09:47:26Z</time>
      </trkpt>
      <trkpt lat="43.56647" lon="5.70774">
        <ele>495</ele>
        <time>2017-03-19T09:47:30Z</time>
      </trkpt>
      <trkpt lat="43.56665" lon="5.70778">
        <ele>494</ele>
        <time>2017-03-19T09:47:33Z</time>
      </trkpt>
      <trkpt lat="43.56688" lon="5.70786">
        <ele>490</ele>
        <time>2017-03-19T09:47:37Z</time>
      </trkpt>
      <trkpt lat="43.56708" lon="5.70803">
        <ele>489</ele>
        <time>2017-03-19T09:47:41Z</time>
      </trkpt>
      <trkpt lat="43.56717" lon="5.70827">
        <ele>487</ele>
        <time>2017-03-19T09:47:45Z</time>
      </trkpt>
      <trkpt lat="43.56712" lon="5.70855">
        <ele>485</ele>
        <time>2017-03-19T09:47:49Z</time>
      </trkpt>
      <trkpt lat="43.56714" lon="5.70882">
        <ele>486</ele>
        <time>2017-03-19T09:47:53Z</time>
      </trkpt>
      <trkpt lat="43.56735" lon="5.70893">
        <ele>484</ele>
        <time>2017-03-19T09:47:57Z</time>
      </trkpt>
      <trkpt lat="43.56755" lon="5.7088">
        <ele>480</ele>
        <time>2017-03-19T09:48:01Z</time>
      </trkpt>
      <trkpt lat="43.56761" lon="5.70853">
        <ele>480</ele>
        <time>2017-03-19T09:48:05Z</time>
      </trkpt>
      <trkpt lat="43.56763" lon="5.70826">
        <ele>485</ele>
        <time>2017-03-19T09:48:09Z</time>
      </trkpt>
      <trkpt lat="43.5678" lon="5.70807">
        <ele>489</ele>
        <time>2017-03-19T09:48:13Z</time>
      </trkpt>
      <trkpt lat="43.56803" lon="5.70806">
        <ele>489</ele>
        <time>2017-03-19T09:48:17Z</time>
      </trkpt>
      <trkpt lat="43.56825" lon="5.70818">
        <ele>486</ele>
        <time>2017-03-19T09:48:21Z</time>
      </trkpt>
      <trkpt lat="43.5684" lon="5.70831">
        <ele>483</ele>
        <time>2017-03-19T09:48:24Z</time>
      </trkpt>
      <trkpt lat="43.5686" lon="5.70846">
        <ele>479</ele>
        <time>2017-03-19T09:48:28Z</time>
      </trkpt>
      <trkpt lat="43.56877" lon="5.70864">
        <ele>479</ele>
        <time>2017-03-19T09:48:32Z</time>
      </trkpt>
      <trkpt lat="43.5689" lon="5.7089">
        <ele>478</ele>
        <time>2017-03-19T09:48:36Z</time>
      </trkpt>
      <trkpt lat="43.56897" lon="5.70913">
        <ele>476</ele>
        <time>2017-03-19T09:48:40Z</time>
      </trkpt>
      <trkpt lat="43.56915" lon="5.70905">
        <ele>475</ele>
        <time>2017-03-19T09:51:04Z</time>
      </trkpt>
      <trkpt lat="43.56925" lon="5.70882">
        <ele>477</ele>
        <time>2017-03-19T09:51:13Z</time>
      </trkpt>
      <trkpt lat="43.56934" lon="5.7086">
        <ele>479</ele>
        <time>2017-03-19T09:51:21Z</time>
      </trkpt>
      <trkpt lat="43.56949" lon="5.70846">
        <ele>479</ele>
        <time>2017-03-19T09:51:30Z</time>
      </trkpt>
      <trkpt lat="43.56969" lon="5.7085">
        <ele>479</ele>
        <time>2017-03-19T09:51:40Z</time>
      </trkpt>
      <trkpt lat="43.56985" lon="5.70863">
        <ele>478</ele>
        <time>2017-03-19T09:51:49Z</time>
      </trkpt>
      <trkpt lat="43.57004" lon="5.70863">
        <ele>477</ele>
        <time>2017-03-19T09:51:59Z</time>
      </trkpt>
      <trkpt lat="43.57021" lon="5.7085">
        <ele>477</ele>
        <time>2017-03-19T09:52:08Z</time>
      </trkpt>
      <trkpt lat="43.57039" lon="5.70841">
        <ele>476</ele>
        <time>2017-03-19T09:52:17Z</time>
      </trkpt>
      <trkpt lat="43.57058" lon="5.70832">
        <ele>484</ele>
        <time>2017-03-19T09:52:27Z</time>
      </trkpt>
      <trkpt lat="43.57067" lon="5.70808">
        <ele>485</ele>
        <time>2017-03-19T09:52:37Z</time>
      </trkpt>
      <trkpt lat="43.57072" lon="5.70784">
        <ele>488</ele>
        <time>2017-03-19T09:52:45Z</time>
      </trkpt>
      <trkpt lat="43.57079" lon="5.70759">
        <ele>490</ele>
        <time>2017-03-19T09:52:54Z</time>
      </trkpt>
      <trkpt lat="43.57085" lon="5.70734">
        <ele>494</ele>
        <time>2017-03-19T09:53:03Z</time>
      </trkpt>
      <trkpt lat="43.57085" lon="5.70707">
        <ele>496</ele>
        <time>2017-03-19T09:53:12Z</time>
      </trkpt>
      <trkpt lat="43.57085" lon="5.70682">
        <ele>497</ele>
        <time>2017-03-19T09:53:21Z</time>
      </trkpt>
      <trkpt lat="43.57092" lon="5.70659">
        <ele>500</ele>
        <time>2017-03-19T09:53:29Z</time>
      </trkpt>
      <trkpt lat="43.57111" lon="5.70655">
        <ele>502</ele>
        <time>2017-03-19T09:53:37Z</time>
      </trkpt>
      <trkpt lat="43.57113" lon="5.70681">
        <ele>498</ele>
        <time>2017-03-19T09:53:47Z</time>
      </trkpt>
      <trkpt lat="43.57116" lon="5.70706">
        <ele>498</ele>
        <time>2017-03-19T09:53:56Z</time>
      </trkpt>
      <trkpt lat="43.57121" lon="5.70732">
        <ele>497</ele>
        <time>2017-03-19T09:54:07Z</time>
      </trkpt>
      <trkpt lat="43.57124" lon="5.70758">
        <ele>492</ele>
        <time>2017-03-19T09:54:17Z</time>
      </trkpt>
      <trkpt lat="43.57127" lon="5.70783">
        <ele>490</ele>
        <time>2017-03-19T09:54:26Z</time>
      </trkpt>
      <trkpt lat="43.57135" lon="5.70809">
        <ele>489</ele>
        <time>2017-03-19T09:54:35Z</time>
      </trkpt>
      <trkpt lat="43.57148" lon="5.70829">
        <ele>489</ele>
        <time>2017-03-19T09:54:41Z</time>
      </trkpt>
      <trkpt lat="43.57162" lon="5.70844">
        <ele>485</ele>
        <time>2017-03-19T09:54:49Z</time>
      </trkpt>
      <trkpt lat="43.57179" lon="5.70857">
        <ele>487</ele>
        <time>2017-03-19T09:54:58Z</time>
      </trkpt>
      <trkpt lat="43.57197" lon="5.70857">
        <ele>487</ele>
        <time>2017-03-19T09:55:06Z</time>
      </trkpt>
      <trkpt lat="43.57215" lon="5.70849">
        <ele>489</ele>
        <time>2017-03-19T09:55:15Z</time>
      </trkpt>
      <trkpt lat="43.57233" lon="5.70847">
        <ele>493</ele>
        <time>2017-03-19T09:55:24Z</time>
      </trkpt>
      <trkpt lat="43.57251" lon="5.70853">
        <ele>500</ele>
        <time>2017-03-19T09:55:33Z</time>
      </trkpt>
      <trkpt lat="43.5727" lon="5.70857">
        <ele>500</ele>
        <time>2017-03-19T09:55:43Z</time>
      </trkpt>
      <trkpt lat="43.57289" lon="5.70862">
        <ele>500</ele>
        <time>2017-03-19T09:55:52Z</time>
      </trkpt>
      <trkpt lat="43.57306" lon="5.70874">
        <ele>500</ele>
        <time>2017-03-19T09:56:02Z</time>
      </trkpt>
      <trkpt lat="43.57325" lon="5.70878">
        <ele>500</ele>
        <time>2017-03-19T09:56:12Z</time>
      </trkpt>
      <trkpt lat="43.57344" lon="5.70886">
        <ele>510</ele>
        <time>2017-03-19T09:56:23Z</time>
      </trkpt>
      <trkpt lat="43.57358" lon="5.70903">
        <ele>509</ele>
        <time>2017-03-19T09:56:32Z</time>
      </trkpt>
      <trkpt lat="43.57377" lon="5.70912">
        <ele>512</ele>
        <time>2017-03-19T09:56:41Z</time>
      </trkpt>
      <trkpt lat="43.57394" lon="5.70919">
        <ele>503</ele>
        <time>2017-03-19T09:56:49Z</time>
      </trkpt>
      <trkpt lat="43.57407" lon="5.7094">
        <ele>502</ele>
        <time>2017-03-19T09:56:59Z</time>
      </trkpt>
      <trkpt lat="43.57417" lon="5.70962">
        <ele>513</ele>
        <time>2017-03-19T09:57:08Z</time>
      </trkpt>
      <trkpt lat="43.57432" lon="5.70979">
        <ele>511</ele>
        <time>2017-03-19T09:57:17Z</time>
      </trkpt>
      <trkpt lat="43.57446" lon="5.70996">
        <ele>512</ele>
        <time>2017-03-19T09:57:26Z</time>
      </trkpt>
      <trkpt lat="43.57459" lon="5.71015">
        <ele>507</ele>
        <time>2017-03-19T09:57:35Z</time>
      </trkpt>
      <trkpt lat="43.57468" lon="5.71039">
        <ele>508</ele>
        <time>2017-03-19T09:57:45Z</time>
      </trkpt>
      <trkpt lat="43.57472" lon="5.71064">
        <ele>508</ele>
        <time>2017-03-19T09:57:55Z</time>
      </trkpt>
      <trkpt lat="43.5747" lon="5.7109">
        <ele>505</ele>
        <time>2017-03-19T09:58:04Z</time>
      </trkpt>
      <trkpt lat="43.57464" lon="5.71117">
        <ele>503</ele>
        <time>2017-03-19T09:58:13Z</time>
      </trkpt>
      <trkpt lat="43.57459" lon="5.71141">
        <ele>502</ele>
        <time>2017-03-19T09:58:21Z</time>
      </trkpt>
      <trkpt lat="43.57456" lon="5.71168">
        <ele>497</ele>
        <time>2017-03-19T09:58:30Z</time>
      </trkpt>
      <trkpt lat="43.5747" lon="5.71186">
        <ele>499</ele>
        <time>2017-03-19T09:58:40Z</time>
      </trkpt>
      <trkpt lat="43.57489" lon="5.71189">
        <ele>502</ele>
        <time>2017-03-19T09:58:49Z</time>
      </trkpt>
      <trkpt lat="43.5751" lon="5.71191">
        <ele>506</ele>
        <time>2017-03-19T09:58:58Z</time>
      </trkpt>
      <trkpt lat="43.5753" lon="5.71189">
        <ele>506</ele>
        <time>2017-03-19T09:59:06Z</time>
      </trkpt>
      <trkpt lat="43.57544" lon="5.71172">
        <ele>506</ele>
        <time>2017-03-19T09:59:16Z</time>
      </trkpt>
      <trkpt lat="43.5755" lon="5.71148">
        <ele>514</ele>
        <time>2017-03-19T10:01:54Z</time>
      </trkpt>
      <trkpt lat="43.57553" lon="5.71123">
        <ele>515</ele>
        <time>2017-03-19T10:02:07Z</time>
      </trkpt>
      <trkpt lat="43.57556" lon="5.71098">
        <ele>516</ele>
        <time>2017-03-19T10:02:20Z</time>
      </trkpt>
      <trkpt lat="43.57557" lon="5.71073">
        <ele>520</ele>
        <time>2017-03-19T10:02:33Z</time>
      </trkpt>
      <trkpt lat="43.57558" lon="5.71046">
        <ele>521</ele>
        <time>2017-03-19T10:02:46Z</time>
      </trkpt>
      <trkpt lat="43.57558" lon="5.7102">
        <ele>522</ele>
        <time>2017-03-19T10:02:59Z</time>
      </trkpt>
      <trkpt lat="43.57551" lon="5.70996">
        <ele>525</ele>
        <time>2017-03-19T10:03:11Z</time>
      </trkpt>
      <trkpt lat="43.57544" lon="5.70972">
        <ele>526</ele>
        <time>2017-03-19T10:03:23Z</time>
      </trkpt>
      <trkpt lat="43.57536" lon="5.70948">
        <ele>527</ele>
        <time>2017-03-19T10:03:36Z</time>
      </trkpt>
      <trkpt lat="43.57529" lon="5.70923">
        <ele>529</ele>
        <time>2017-03-19T10:03:49Z</time>
      </trkpt>
      <trkpt lat="43.57524" lon="5.70899">
        <ele>533</ele>
        <time>2017-03-19T10:04:01Z</time>
      </trkpt>
      <trkpt lat="43.57521" lon="5.70874">
        <ele>534</ele>
        <time>2017-03-19T10:04:14Z</time>
      </trkpt>
      <trkpt lat="43.57522" lon="5.70849">
        <ele>536</ele>
        <time>2017-03-19T10:04:28Z</time>
      </trkpt>
      <trkpt lat="43.5752" lon="5.70824">
        <ele>539</ele>
        <time>2017-03-19T10:04:41Z</time>
      </trkpt>
      <trkpt lat="43.5752" lon="5.70798">
        <ele>539</ele>
        <time>2017-03-19T10:04:56Z</time>
      </trkpt>
      <trkpt lat="43.57519" lon="5.70772">
        <ele>541</ele>
        <time>2017-03-19T10:05:10Z</time>
      </trkpt>
      <trkpt lat="43.57517" lon="5.70745">
        <ele>545</ele>
        <time>2017-03-19T10:05:23Z</time>
      </trkpt>
      <trkpt lat="43.57516" lon="5.70718">
        <ele>543</ele>
        <time>2017-03-19T10:05:37Z</time>
      </trkpt>
      <trkpt lat="43.57515" lon="5.70693">
        <ele>545</ele>
        <time>2017-03-19T10:05:50Z</time>
      </trkpt>
      <trkpt lat="43.57516" lon="5.70667">
        <ele>548</ele>
        <time>2017-03-19T10:06:05Z</time>
      </trkpt>
      <trkpt lat="43.57513" lon="5.70643">
        <ele>547</ele>
        <time>2017-03-19T10:06:18Z</time>
      </trkpt>
      <trkpt lat="43.57508" lon="5.70617">
        <ele>547</ele>
        <time>2017-03-19T10:06:32Z</time>
      </trkpt>
      <trkpt lat="43.575" lon="5.70594">
        <ele>562</ele>
        <time>2017-03-19T10:06:46Z</time>
      </trkpt>
      <trkpt lat="43.5749" lon="5.70572">
        <ele>561</ele>
        <time>2017-03-19T10:07:00Z</time>
      </trkpt>
      <trkpt lat="43.57476" lon="5.70556">
        <ele>561</ele>
        <time>2017-03-19T10:07:13Z</time>
      </trkpt>
      <trkpt lat="43.57456" lon="5.70557">
        <ele>562</ele>
        <time>2017-03-19T10:07:25Z</time>
      </trkpt>
      <trkpt lat="43.57437" lon="5.70551">
        <ele>563</ele>
        <time>2017-03-19T10:07:37Z</time>
      </trkpt>
      <trkpt lat="43.57421" lon="5.70541">
        <ele>563</ele>
        <time>2017-03-19T10:07:48Z</time>
      </trkpt>
      <trkpt lat="43.57405" lon="5.7053">
        <ele>569</ele>
        <time>2017-03-19T10:07:58Z</time>
      </trkpt>
      <trkpt lat="43.57389" lon="5.70515">
        <ele>569</ele>
        <time>2017-03-19T10:08:08Z</time>
      </trkpt>
      <trkpt lat="43.57374" lon="5.70497">
        <ele>565</ele>
        <time>2017-03-19T10:08:18Z</time>
      </trkpt>
      <trkpt lat="43.5736" lon="5.70481">
        <ele>566</ele>
        <time>2017-03-19T10:08:28Z</time>
      </trkpt>
      <trkpt lat="43.57344" lon="5.70466">
        <ele>566</ele>
        <time>2017-03-19T10:08:37Z</time>
      </trkpt>
      <trkpt lat="43.57331" lon="5.70448">
        <ele>566</ele>
        <time>2017-03-19T10:08:44Z</time>
      </trkpt>
      <trkpt lat="43.57321" lon="5.70427">
        <ele>567</ele>
        <time>2017-03-19T10:08:51Z</time>
      </trkpt>
      <trkpt lat="43.57311" lon="5.70403">
        <ele>568</ele>
        <time>2017-03-19T10:08:58Z</time>
      </trkpt>
      <trkpt lat="43.57302" lon="5.70379">
        <ele>568</ele>
        <time>2017-03-19T10:09:03Z</time>
      </trkpt>
      <trkpt lat="43.57294" lon="5.70354">
        <ele>568</ele>
        <time>2017-03-19T10:09:08Z</time>
      </trkpt>
      <trkpt lat="43.57286" lon="5.7033">
        <ele>573</ele>
        <time>2017-03-19T10:09:13Z</time>
      </trkpt>
      <trkpt lat="43.57278" lon="5.70305">
        <ele>573</ele>
        <time>2017-03-19T10:09:20Z</time>
      </trkpt>
      <trkpt lat="43.57279" lon="5.7028">
        <ele>575</ele>
        <time>2017-03-19T10:09:29Z</time>
      </trkpt>
      <trkpt lat="43.57284" lon="5.70254">
        <ele>575</ele>
        <time>2017-03-19T10:09:41Z</time>
      </trkpt>
      <trkpt lat="43.57283" lon="5.70229">
        <ele>580</ele>
        <time>2017-03-19T10:09:51Z</time>
      </trkpt>
      <trkpt lat="43.5728" lon="5.70203">
        <ele>581</ele>
        <time>2017-03-19T10:10:02Z</time>
      </trkpt>
      <trkpt lat="43.57277" lon="5.70179">
        <ele>582</ele>
        <time>2017-03-19T10:10:13Z</time>
      </trkpt>
      <trkpt lat="43.57274" lon="5.70152">
        <ele>585</ele>
        <time>2017-03-19T10:10:25Z</time>
      </trkpt>
      <trkpt lat="43.57267" lon="5.70128">
        <ele>586</ele>
        <time>2017-03-19T10:10:36Z</time>
      </trkpt>
      <trkpt lat="43.57259" lon="5.70104">
        <ele>588</ele>
        <time>2017-03-19T10:10:48Z</time>
      </trkpt>
      <trkpt lat="43.5725" lon="5.70082">
        <ele>593</ele>
        <time>2017-03-19T10:11:00Z</time>
      </trkpt>
      <trkpt lat="43.57239" lon="5.7006">
        <ele>595</ele>
        <time>2017-03-19T10:11:12Z</time>
      </trkpt>
      <trkpt lat="43.57228" lon="5.70039">
        <ele>596</ele>
        <time>2017-03-19T10:11:24Z</time>
      </trkpt>
      <trkpt lat="43.57214" lon="5.7002">
        <ele>596</ele>
        <time>2017-03-19T10:11:36Z</time>
      </trkpt>
      <trkpt lat="43.572" lon="5.70004">
        <ele>599</ele>
        <time>2017-03-19T10:11:47Z</time>
      </trkpt>
      <trkpt lat="43.57189" lon="5.69983">
        <ele>597</ele>
        <time>2017-03-19T10:11:59Z</time>
      </trkpt>
      <trkpt lat="43.57178" lon="5.69961">
        <ele>596</ele>
        <time>2017-03-19T10:12:11Z</time>
      </trkpt>
      <trkpt lat="43.57164" lon="5.69944">
        <ele>607</ele>
        <time>2017-03-19T10:12:23Z</time>
      </trkpt>
      <trkpt lat="43.57151" lon="5.69926">
        <ele>607</ele>
        <time>2017-03-19T10:12:35Z</time>
      </trkpt>
      <trkpt lat="43.57141" lon="5.69905">
        <ele>605</ele>
        <time>2017-03-19T10:12:46Z</time>
      </trkpt>
      <trkpt lat="43.57129" lon="5.69885">
        <ele>605</ele>
        <time>2017-03-19T10:12:57Z</time>
      </trkpt>
      <trkpt lat="43.57114" lon="5.69868">
        <ele>606</ele>
        <time>2017-03-19T10:13:09Z</time>
      </trkpt>
      <trkpt lat="43.57097" lon="5.69858">
        <ele>607</ele>
        <time>2017-03-19T10:15:32Z</time>
      </trkpt>
      <trkpt lat="43.5708" lon="5.69848">
        <ele>614</ele>
        <time>2017-03-19T10:15:47Z</time>
      </trkpt>
      <trkpt lat="43.57062" lon="5.69838">
        <ele>616</ele>
        <time>2017-03-19T10:16:11Z</time>
      </trkpt>
      <trkpt lat="43.57046" lon="5.69825">
        <ele>612</ele>
        <time>2017-03-19T10:16:23Z</time>
      </trkpt>
      <trkpt lat="43.5703" lon="5.69812">
        <ele>613</ele>
        <time>2017-03-19T10:16:35Z</time>
      </trkpt>
      <trkpt lat="43.57014" lon="5.69797">
        <ele>613</ele>
        <time>2017-03-19T10:16:47Z</time>
      </trkpt>
      <trkpt lat="43.57001" lon="5.69781">
        <ele>613</ele>
        <time>2017-03-19T10:16:58Z</time>
      </trkpt>
      <trkpt lat="43.56986" lon="5.69763">
        <ele>618</ele>
        <time>2017-03-19T10:17:09Z</time>
      </trkpt>
      <trkpt lat="43.56971" lon="5.69746">
        <ele>616</ele>
        <time>2017-03-19T10:17:18Z</time>
      </trkpt>
      <trkpt lat="43.56959" lon="5.69724">
        <ele>616</ele>
        <time>2017-03-19T10:17:24Z</time>
      </trkpt>
      <trkpt lat="43.56947" lon="5.69704">
        <ele>616</ele>
        <time>2017-03-19T10:17:28Z</time>
      </trkpt>
      <trkpt lat="43.56934" lon="5.69684">
        <ele>617</ele>
        <time>2017-03-19T10:17:32Z</time>
      </trkpt>
      <trkpt lat="43.56929" lon="5.69657">
        <ele>617</ele>
        <time>2017-03-19T10:17:37Z</time>
      </trkpt>
      <trkpt lat="43.56928" lon="5.69629">
        <ele>616</ele>
        <time>2017-03-19T10:17:42Z</time>
      </trkpt>
      <trkpt lat="43.56929" lon="5.69601">
        <ele>617</ele>
        <time>2017-03-19T10:17:47Z</time>
      </trkpt>
      <trkpt lat="43.56931" lon="5.69572">
        <ele>617</ele>
        <time>2017-03-19T10:17:52Z</time>
      </trkpt>
      <trkpt lat="43.56939" lon="5.69545">
        <ele>616</ele>
        <time>2017-03-19T10:17:57Z</time>
      </trkpt>
      <trkpt lat="43.56945" lon="5.69516">
        <ele>616</ele>
        <time>2017-03-19T10:18:02Z</time>
      </trkpt>
      <trkpt lat="43.56953" lon="5.69492">
        <ele>615</ele>
        <time>2017-03-19T10:18:06Z</time>
      </trkpt>
      <trkpt lat="43.56957" lon="5.69468">
        <ele>614</ele>
        <time>2017-03-19T10:18:10Z</time>
      </trkpt>
      <trkpt lat="43.56961" lon="5.69441">
        <ele>613</ele>
        <time>2017-03-19T10:18:15Z</time>
      </trkpt>
      <trkpt lat="43.56957" lon="5.69413">
        <ele>610</ele>
        <time>2017-03-19T10:18:20Z</time>
      </trkpt>
      <trkpt lat="43.56952" lon="5.69387">
        <ele>609</ele>
        <time>2017-03-19T10:18:24Z</time>
      </trkpt>
      <trkpt lat="43.56941" lon="5.69361">
        <ele>608</ele>
        <time>2017-03-19T10:18:28Z</time>
      </trkpt>
      <trkpt lat="43.56925" lon="5.69337">
        <ele>607</ele>
        <time>2017-03-19T10:18:32Z</time>
      </trkpt>
      <trkpt lat="43.56911" lon="5.69317">
        <ele>605</ele>
        <time>2017-03-19T10:18:35Z</time>
      </trkpt>
      <trkpt lat="43.56898" lon="5.69296">
        <ele>604</ele>
        <time>2017-03-19T10:18:38Z</time>
      </trkpt>
      <trkpt lat="43.56887" lon="5.69276">
        <ele>604</ele>
        <time>2017-03-19T10:18:41Z</time>
      </trkpt>
      <trkpt lat="43.56873" lon="5.69251">
        <ele>604</ele>
        <time>2017-03-19T10:18:45Z</time>
      </trkpt>
      <trkpt lat="43.5686" lon="5.69224">
        <ele>604</ele>
        <time>2017-03-19T10:18:49Z</time>
      </trkpt>
      <trkpt lat="43.56857" lon="5.69195">
        <ele>604</ele>
        <time>2017-03-19T10:18:53Z</time>
      </trkpt>
      <trkpt lat="43.56859" lon="5.69165">
        <ele>603</ele>
        <time>2017-03-19T10:18:58Z</time>
      </trkpt>
      <trkpt lat="43.56854" lon="5.6914">
        <ele>603</ele>
        <time>2017-03-19T10:19:02Z</time>
      </trkpt>
      <trkpt lat="43.56847" lon="5.69118">
        <ele>602</ele>
        <time>2017-03-19T10:19:06Z</time>
      </trkpt>
      <trkpt lat="43.56846" lon="5.69086">
        <ele>602</ele>
        <time>2017-03-19T10:19:11Z</time>
      </trkpt>
      <trkpt lat="43.56847" lon="5.69056">
        <ele>599</ele>
        <time>2017-03-19T10:19:15Z</time>
      </trkpt>
      <trkpt lat="43.56845" lon="5.69031">
        <ele>598</ele>
        <time>2017-03-19T10:19:18Z</time>
      </trkpt>
      <trkpt lat="43.56843" lon="5.69003">
        <ele>598</ele>
        <time>2017-03-19T10:19:21Z</time>
      </trkpt>
      <trkpt lat="43.56842" lon="5.68976">
        <ele>595</ele>
        <time>2017-03-19T10:19:24Z</time>
      </trkpt>
      <trkpt lat="43.56842" lon="5.6895">
        <ele>594</ele>
        <time>2017-03-19T10:19:27Z</time>
      </trkpt>
      <trkpt lat="43.5684" lon="5.68922">
        <ele>595</ele>
        <time>2017-03-19T10:19:31Z</time>
      </trkpt>
      <trkpt lat="43.56836" lon="5.68898">
        <ele>593</ele>
        <time>2017-03-19T10:21:37Z</time>
      </trkpt>
      <trkpt lat="43.56829" lon="5.68872">
        <ele>593</ele>
        <time>2017-03-19T10:21:44Z</time>
      </trkpt>
      <trkpt lat="43.56829" lon="5.68845">
        <ele>594</ele>
        <time>2017-03-19T10:21:50Z</time>
      </trkpt>
      <trkpt lat="43.56827" lon="5.6882">
        <ele>595</ele>
        <time>2017-03-19T10:21:57Z</time>
      </trkpt>
      <trkpt lat="43.56826" lon="5.68793">
        <ele>595</ele>
        <time>2017-03-19T10:22:04Z</time>
      </trkpt>
      <trkpt lat="43.56827" lon="5.68768">
        <ele>595</ele>
        <time>2017-03-19T10:22:10Z</time>
      </trkpt>
      <trkpt lat="43.56821" lon="5.68742">
        <ele>597</ele>
        <time>2017-03-19T10:22:17Z</time>
      </trkpt>
      <trkpt lat="43.56815" lon="5.68716">
        <ele>597</ele>
        <time>2017-03-19T10:22:26Z</time>
      </trkpt>
      <trkpt lat="43.56811" lon="5.68692">
        <ele>598</ele>
        <time>2017-03-19T10:22:37Z</time>
      </trkpt>
      <trkpt lat="43.56807" lon="5.68666">
        <ele>601</ele>
        <time>2017-03-19T10:22:49Z</time>
      </trkpt>
      <trkpt lat="43.56807" lon="5.68641">
        <ele>602</ele>
        <time>2017-03-19T10:23:01Z</time>
      </trkpt>
      <trkpt lat="43.56808" lon="5.68615">
        <ele>602</ele>
        <time>2017-03-19T10:23:13Z</time>
      </trkpt>
      <trkpt lat="43.56806" lon="5.6859">
        <ele>603</ele>
        <time>2017-03-19T10:23:24Z</time>
      </trkpt>
      <trkpt lat="43.56798" lon="5.68565">
        <ele>604</ele>
        <time>2017-03-19T10:23:34Z</time>
      </trkpt>
      <trkpt lat="43.56793" lon="5.68541">
        <ele>604</ele>
        <time>2017-03-19T10:23:43Z</time>
      </trkpt>
      <trkpt lat="43.56784" lon="5.68518">
        <ele>604</ele>
        <time>2017-03-19T10:23:50Z</time>
      </trkpt>
      <trkpt lat="43.56774" lon="5.68496">
        <ele>605</ele>
        <time>2017-03-19T10:23:56Z</time>
      </trkpt>
      <trkpt lat="43.56767" lon="5.68472">
        <ele>605</ele>
        <time>2017-03-19T10:24:02Z</time>
      </trkpt>
      <trkpt lat="43.56757" lon="5.68448">
        <ele>606</ele>
        <time>2017-03-19T10:24:09Z</time>
      </trkpt>
      <trkpt lat="43.56747" lon="5.68424">
        <ele>610</ele>
        <time>2017-03-19T10:24:17Z</time>
      </trkpt>
      <trkpt lat="43.56732" lon="5.68407">
        <ele>609</ele>
        <time>2017-03-19T10:24:25Z</time>
      </trkpt>
      <trkpt lat="43.56723" lon="5.68383">
        <ele>608</ele>
        <time>2017-03-19T10:24:32Z</time>
      </trkpt>
      <trkpt lat="43.56717" lon="5.68356">
        <ele>608</ele>
        <time>2017-03-19T10:24:39Z</time>
      </trkpt>
      <trkpt lat="43.56716" lon="5.68331">
        <ele>606</ele>
        <time>2017-03-19T10:24:44Z</time>
      </trkpt>
      <trkpt lat="43.56718" lon="5.68305">
        <ele>606</ele>
        <time>2017-03-19T10:24:49Z</time>
      </trkpt>
      <trkpt lat="43.56722" lon="5.6828">
        <ele>605</ele>
        <time>2017-03-19T10:24:54Z</time>
      </trkpt>
      <trkpt lat="43.56725" lon="5.68254">
        <ele>605</ele>
        <time>2017-03-19T10:24:59Z</time>
      </trkpt>
      <trkpt lat="43.56719" lon="5.68228">
        <ele>604</ele>
        <time>2017-03-19T10:25:04Z</time>
      </trkpt>
      <trkpt lat="43.56721" lon="5.682">
        <ele>604</ele>
        <time>2017-03-19T10:25:10Z</time>
      </trkpt>
      <trkpt lat="43.56717" lon="5.68173">
        <ele>604</ele>
        <time>2017-03-19T10:25:17Z</time>
      </trkpt>
      <trkpt lat="43.56705" lon="5.68149">
        <ele>604</ele>
        <time>2017-03-19T10:25:23Z</time>
      </trkpt>
      <trkpt lat="43.56701" lon="5.68124">
        <ele>604</ele>
        <time>2017-03-19T10:25:28Z</time>
      </trkpt>
      <trkpt lat="43.56694" lon="5.681">
        <ele>604</ele>
        <time>2017-03-19T10:25:33Z</time>
      </trkpt>
      <trkpt lat="43.56695" lon="5.68075">
        <ele>602</ele>
        <time>2017-03-19T10:25:38Z</time>
      </trkpt>
      <trkpt lat="43.56709" lon="5.68057">
        <ele>602</ele>
        <time>2017-03-19T10:25:43Z</time>
      </trkpt>
      <trkpt lat="43.567" lon="5.68034">
        <ele>601</ele>
        <time>2017-03-19T10:27:55Z</time>
      </trkpt>
      <trkpt lat="43.56682" lon="5.6802">
        <ele>601</ele>
        <time>2017-03-19T10:28:02Z</time>
      </trkpt>
      <trkpt lat="43.56666" lon="5.68007">
        <ele>599</ele>
        <time>2017-03-19T10:28:06Z</time>
      </trkpt>
      <trkpt lat="43.56652" lon="5.67991">
        <ele>598</ele>
        <time>2017-03-19T10:28:10Z</time>
      </trkpt>
      <trkpt lat="43.56634" lon="5.67986">
        <ele>597</ele>
        <time>2017-03-19T10:28:14Z</time>
      </trkpt>
      <trkpt lat="43.56612" lon="5.67977">
        <ele>596</ele>
        <time>2017-03-19T10:28:18Z</time>
      </trkpt>
      <trkpt lat="43.56594" lon="5.67965">
        <ele>596</ele>
        <time>2017-03-19T10:28:21Z</time>
      </trkpt>
      <trkpt lat="43.56578" lon="5.67952">
        <ele>591</ele>
        <time>2017-03-19T10:28:24Z</time>
      </trkpt>
      <trkpt lat="43.56561" lon="5.6794">
        <ele>590</ele>
        <time>2017-03-19T10:28:27Z</time>
      </trkpt>
      <trkpt lat="43.5654" lon="5.67926">
        <ele>589</ele>
        <time>2017-03-19T10:28:31Z</time>
      </trkpt>
      <trkpt lat="43.56518" lon="5.67919">
        <ele>587</ele>
        <time>2017-03-19T10:28:35Z</time>
      </trkpt>
      <trkpt lat="43.56497" lon="5.67903">
        <ele>583</ele>
        <time>2017-03-19T10:28:39Z</time>
      </trkpt>
      <trkpt lat="43.56479" lon="5.67881">
        <ele>582</ele>
        <time>2017-03-19T10:28:43Z</time>
      </trkpt>
      <trkpt lat="43.56464" lon="5.67859">
        <ele>581</ele>
        <time>2017-03-19T10:28:47Z</time>
      </trkpt>
      <trkpt lat="43.56453" lon="5.67835">
        <ele>581</ele>
        <time>2017-03-19T10:28:51Z</time>
      </trkpt>
      <trkpt lat="43.5644" lon="5.67813">
        <ele>580</ele>
        <time>2017-03-19T10:28:55Z</time>
      </trkpt>
      <trkpt lat="43.56426" lon="5.67794">
        <ele>580</ele>
        <time>2017-03-19T10:28:59Z</time>
      </trkpt>
      <trkpt lat="43.5641" lon="5.6778">
        <ele>575</ele>
        <time>2017-03-19T10:29:03Z</time>
      </trkpt>
      <trkpt lat="43.56395" lon="5.67766">
        <ele>575</ele>
        <time>2017-03-19T10:29:07Z</time>
      </trkpt>
      <trkpt lat="43.56378" lon="5.67756">
        <ele>575</ele>
        <time>2017-03-19T10:29:11Z</time>
      </trkpt>
      <trkpt lat="43.5636" lon="5.67743">
        <ele>576</ele>
        <time>2017-03-19T10:29:17Z</time>
      </trkpt>
      <trkpt lat="43.56348" lon="5.67724">
        <ele>576</ele>
        <time>2017-03-19T10:30:21Z</time>
      </trkpt>
      <trkpt lat="43.56334" lon="5.67708">
        <ele>577</ele>
        <time>2017-03-19T10:30:29Z</time>
      </trkpt>
      <trkpt lat="43.56324" lon="5.67729">
        <ele>576</ele>
        <time>2017-03-19T10:32:52Z</time>
      </trkpt>
      <trkpt lat="43.56307" lon="5.67749">
        <ele>576</ele>
        <time>2017-03-19T10:32:57Z</time>
      </trkpt>
      <trkpt lat="43.5629" lon="5.67768">
        <ele>574</ele>
        <time>2017-03-19T10:33:01Z</time>
      </trkpt>
      <trkpt lat="43.56279" lon="5.67795">
        <ele>573</ele>
        <time>2017-03-19T10:33:05Z</time>
      </trkpt>
      <trkpt lat="43.56279" lon="5.67827">
        <ele>572</ele>
        <time>2017-03-19T10:33:09Z</time>
      </trkpt>
      <trkpt lat="43.56272" lon="5.67853">
        <ele>570</ele>
        <time>2017-03-19T10:33:13Z</time>
      </trkpt>
      <trkpt lat="43.56252" lon="5.67864">
        <ele>570</ele>
        <time>2017-03-19T10:33:17Z</time>
      </trkpt>
      <trkpt lat="43.56235" lon="5.67876">
        <ele>571</ele>
        <time>2017-03-19T10:33:22Z</time>
      </trkpt>
      <trkpt lat="43.56254" lon="5.67884">
        <ele>570</ele>
        <time>2017-03-19T10:33:36Z</time>
      </trkpt>
      <trkpt lat="43.56269" lon="5.67899">
        <ele>570</ele>
        <time>2017-03-19T10:33:47Z</time>
      </trkpt>
      <trkpt lat="43.56272" lon="5.67925">
        <ele>569</ele>
        <time>2017-03-19T10:33:59Z</time>
      </trkpt>
      <trkpt lat="43.56269" lon="5.67954">
        <ele>570</ele>
        <time>2017-03-19T10:34:07Z</time>
      </trkpt>
      <trkpt lat="43.56268" lon="5.6798">
        <ele>570</ele>
        <time>2017-03-19T10:34:12Z</time>
      </trkpt>
      <trkpt lat="43.56267" lon="5.68006">
        <ele>571</ele>
        <time>2017-03-19T10:34:16Z</time>
      </trkpt>
      <trkpt lat="43.56261" lon="5.68035">
        <ele>571</ele>
        <time>2017-03-19T10:34:20Z</time>
      </trkpt>
      <trkpt lat="43.56256" lon="5.6806">
        <ele>571</ele>
        <time>2017-03-19T10:34:24Z</time>
      </trkpt>
      <trkpt lat="43.56248" lon="5.68085">
        <ele>574</ele>
        <time>2017-03-19T10:34:29Z</time>
      </trkpt>
      <trkpt lat="43.56234" lon="5.68104">
        <ele>575</ele>
        <time>2017-03-19T10:34:34Z</time>
      </trkpt>
      <trkpt lat="43.56215" lon="5.68118">
        <ele>575</ele>
        <time>2017-03-19T10:34:39Z</time>
      </trkpt>
      <trkpt lat="43.562" lon="5.6814">
        <ele>575</ele>
        <time>2017-03-19T10:34:44Z</time>
      </trkpt>
      <trkpt lat="43.56184" lon="5.68161">
        <ele>575</ele>
        <time>2017-03-19T10:34:49Z</time>
      </trkpt>
      <trkpt lat="43.56166" lon="5.68179">
        <ele>575</ele>
        <time>2017-03-19T10:34:54Z</time>
      </trkpt>
      <trkpt lat="43.56152" lon="5.68202">
        <ele>574</ele>
        <time>2017-03-19T10:34:59Z</time>
      </trkpt>
      <trkpt lat="43.56147" lon="5.6823">
        <ele>573</ele>
        <time>2017-03-19T10:35:03Z</time>
      </trkpt>
      <trkpt lat="43.56134" lon="5.68251">
        <ele>571</ele>
        <time>2017-03-19T10:35:06Z</time>
      </trkpt>
      <trkpt lat="43.56116" lon="5.68268">
        <ele>572</ele>
        <time>2017-03-19T10:35:09Z</time>
      </trkpt>
      <trkpt lat="43.561" lon="5.68289">
        <ele>573</ele>
        <time>2017-03-19T10:35:13Z</time>
      </trkpt>
      <trkpt lat="43.56093" lon="5.68314">
        <ele>573</ele>
        <time>2017-03-19T10:35:17Z</time>
      </trkpt>
      <trkpt lat="43.56086" lon="5.68338">
        <ele>574</ele>
        <time>2017-03-19T10:35:21Z</time>
      </trkpt>
      <trkpt lat="43.56081" lon="5.68365">
        <ele>573</ele>
        <time>2017-03-19T10:35:25Z</time>
      </trkpt>
      <trkpt lat="43.56081" lon="5.68394">
        <ele>572</ele>
        <time>2017-03-19T10:35:29Z</time>
      </trkpt>
      <trkpt lat="43.56088" lon="5.68422">
        <ele>569</ele>
        <time>2017-03-19T10:35:33Z</time>
      </trkpt>
      <trkpt lat="43.56096" lon="5.68453">
        <ele>568</ele>
        <time>2017-03-19T10:35:37Z</time>
      </trkpt>
      <trkpt lat="43.56105" lon="5.68475">
        <ele>567</ele>
        <time>2017-03-19T10:35:40Z</time>
      </trkpt>
      <trkpt lat="43.56119" lon="5.68495">
        <ele>567</ele>
        <time>2017-03-19T10:35:43Z</time>
      </trkpt>
      <trkpt lat="43.56135" lon="5.68511">
        <ele>566</ele>
        <time>2017-03-19T10:35:46Z</time>
      </trkpt>
      <trkpt lat="43.56153" lon="5.68525">
        <ele>565</ele>
        <time>2017-03-19T10:35:49Z</time>
      </trkpt>
      <trkpt lat="43.56166" lon="5.68545">
        <ele>565</ele>
        <time>2017-03-19T10:35:52Z</time>
      </trkpt>
      <trkpt lat="43.5617" lon="5.68571">
        <ele>563</ele>
        <time>2017-03-19T10:35:55Z</time>
      </trkpt>
      <trkpt lat="43.56174" lon="5.68596">
        <ele>563</ele>
        <time>2017-03-19T10:35:58Z</time>
      </trkpt>
      <trkpt lat="43.56176" lon="5.68621">
        <ele>562</ele>
        <time>2017-03-19T10:36:01Z</time>
      </trkpt>
      <trkpt lat="43.56174" lon="5.68649">
        <ele>562</ele>
        <time>2017-03-19T10:36:04Z</time>
      </trkpt>
      <trkpt lat="43.56176" lon="5.68678">
        <ele>562</ele>
        <time>2017-03-19T10:36:07Z</time>
      </trkpt>
      <trkpt lat="43.56186" lon="5.68704">
        <ele>560</ele>
        <time>2017-03-19T10:36:10Z</time>
      </trkpt>
      <trkpt lat="43.56196" lon="5.68725">
        <ele>560</ele>
        <time>2017-03-19T10:36:13Z</time>
      </trkpt>
      <trkpt lat="43.56212" lon="5.6874">
        <ele>559</ele>
        <time>2017-03-19T10:36:16Z</time>
      </trkpt>
      <trkpt lat="43.56231" lon="5.68751">
        <ele>558</ele>
        <time>2017-03-19T10:36:19Z</time>
      </trkpt>
      <trkpt lat="43.56252" lon="5.68767">
        <ele>554</ele>
        <time>2017-03-19T10:36:22Z</time>
      </trkpt>
      <trkpt lat="43.5627" lon="5.68789">
        <ele>552</ele>
        <time>2017-03-19T10:36:25Z</time>
      </trkpt>
      <trkpt lat="43.56278" lon="5.68814">
        <ele>551</ele>
        <time>2017-03-19T10:36:28Z</time>
      </trkpt>
      <trkpt lat="43.56278" lon="5.68846">
        <ele>551</ele>
        <time>2017-03-19T10:36:32Z</time>
      </trkpt>
      <trkpt lat="43.56281" lon="5.68874">
        <ele>551</ele>
        <time>2017-03-19T10:36:36Z</time>
      </trkpt>
      <trkpt lat="43.56277" lon="5.68904">
        <ele>551</ele>
        <time>2017-03-19T10:36:40Z</time>
      </trkpt>
      <trkpt lat="43.56265" lon="5.68927">
        <ele>553</ele>
        <time>2017-03-19T10:36:44Z</time>
      </trkpt>
      <trkpt lat="43.56243" lon="5.68925">
        <ele>556</ele>
        <time>2017-03-19T10:36:49Z</time>
      </trkpt>
      <trkpt lat="43.56226" lon="5.68912">
        <ele>556</ele>
        <time>2017-03-19T10:36:53Z</time>
      </trkpt>
      <trkpt lat="43.56207" lon="5.68905">
        <ele>557</ele>
        <time>2017-03-19T10:36:57Z</time>
      </trkpt>
      <trkpt lat="43.56191" lon="5.68893">
        <ele>557</ele>
        <time>2017-03-19T10:37:01Z</time>
      </trkpt>
      <trkpt lat="43.56175" lon="5.68879">
        <ele>557</ele>
        <time>2017-03-19T10:37:05Z</time>
      </trkpt>
      <trkpt lat="43.56158" lon="5.68863">
        <ele>558</ele>
        <time>2017-03-19T10:37:10Z</time>
      </trkpt>
      <trkpt lat="43.56142" lon="5.68851">
        <ele>558</ele>
        <time>2017-03-19T10:37:15Z</time>
      </trkpt>
      <trkpt lat="43.56123" lon="5.68846">
        <ele>558</ele>
        <time>2017-03-19T10:37:20Z</time>
      </trkpt>
      <trkpt lat="43.56103" lon="5.68845">
        <ele>558</ele>
        <time>2017-03-19T10:37:25Z</time>
      </trkpt>
      <trkpt lat="43.56081" lon="5.68838">
        <ele>558</ele>
        <time>2017-03-19T10:37:30Z</time>
      </trkpt>
      <trkpt lat="43.56061" lon="5.68829">
        <ele>558</ele>
        <time>2017-03-19T10:37:35Z</time>
      </trkpt>
      <trkpt lat="43.56042" lon="5.6883">
        <ele>557</ele>
        <time>2017-03-19T10:37:41Z</time>
      </trkpt>
      <trkpt lat="43.56025" lon="5.68843">
        <ele>553</ele>
        <time>2017-03-19T10:37:47Z</time>
      </trkpt>
      <trkpt lat="43.56006" lon="5.68852">
        <ele>553</ele>
        <time>2017-03-19T10:37:54Z</time>
      </trkpt>
      <trkpt lat="43.55986" lon="5.68865">
        <ele>548</ele>
        <time>2017-03-19T10:37:59Z</time>
      </trkpt>
      <trkpt lat="43.55968" lon="5.68878">
        <ele>546</ele>
        <time>2017-03-19T10:38:04Z</time>
      </trkpt>
      <trkpt lat="43.55951" lon="5.68867">
        <ele>546</ele>
        <time>2017-03-19T10:38:08Z</time>
      </trkpt>
      <trkpt lat="43.5593" lon="5.68868">
        <ele>545</ele>
        <time>2017-03-19T10:38:11Z</time>
      </trkpt>
      <trkpt lat="43.55912" lon="5.68879">
        <ele>542</ele>
        <time>2017-03-19T10:38:14Z</time>
      </trkpt>
      <trkpt lat="43.55893" lon="5.68879">
        <ele>542</ele>
        <time>2017-03-19T10:38:18Z</time>
      </trkpt>
      <trkpt lat="43.55873" lon="5.68885">
        <ele>542</ele>
        <time>2017-03-19T10:38:24Z</time>
      </trkpt>
      <trkpt lat="43.55853" lon="5.68878">
        <ele>543</ele>
        <time>2017-03-19T10:38:29Z</time>
      </trkpt>
      <trkpt lat="43.55834" lon="5.68866">
        <ele>543</ele>
        <time>2017-03-19T10:38:35Z</time>
      </trkpt>
      <trkpt lat="43.55815" lon="5.68854">
        <ele>544</ele>
        <time>2017-03-19T10:38:41Z</time>
      </trkpt>
      <trkpt lat="43.55798" lon="5.68842">
        <ele>544</ele>
        <time>2017-03-19T10:38:47Z</time>
      </trkpt>
      <trkpt lat="43.55781" lon="5.68827">
        <ele>544</ele>
        <time>2017-03-19T10:38:54Z</time>
      </trkpt>
      <trkpt lat="43.55768" lon="5.68808">
        <ele>544</ele>
        <time>2017-03-19T10:39:00Z</time>
      </trkpt>
      <trkpt lat="43.5576" lon="5.68785">
        <ele>545</ele>
        <time>2017-03-19T10:39:06Z</time>
      </trkpt>
      <trkpt lat="43.55753" lon="5.6876">
        <ele>545</ele>
        <time>2017-03-19T10:39:12Z</time>
      </trkpt>
      <trkpt lat="43.55745" lon="5.68733">
        <ele>546</ele>
        <time>2017-03-19T10:39:18Z</time>
      </trkpt>
      <trkpt lat="43.55737" lon="5.68707">
        <ele>547</ele>
        <time>2017-03-19T10:39:24Z</time>
      </trkpt>
      <trkpt lat="43.55729" lon="5.6868">
        <ele>548</ele>
        <time>2017-03-19T10:39:30Z</time>
      </trkpt>
      <trkpt lat="43.55722" lon="5.68653">
        <ele>550</ele>
        <time>2017-03-19T10:39:36Z</time>
      </trkpt>
      <trkpt lat="43.55717" lon="5.68628">
        <ele>550</ele>
        <time>2017-03-19T10:39:42Z</time>
      </trkpt>
      <trkpt lat="43.55712" lon="5.68602">
        <ele>551</ele>
        <time>2017-03-19T10:39:48Z</time>
      </trkpt>
      <trkpt lat="43.55712" lon="5.68575">
        <ele>553</ele>
        <time>2017-03-19T10:39:54Z</time>
      </trkpt>
      <trkpt lat="43.5571" lon="5.68548">
        <ele>553</ele>
        <time>2017-03-19T10:40:00Z</time>
      </trkpt>
      <trkpt lat="43.55706" lon="5.6852">
        <ele>553</ele>
        <time>2017-03-19T10:40:06Z</time>
      </trkpt>
      <trkpt lat="43.55701" lon="5.68492">
        <ele>554</ele>
        <time>2017-03-19T10:40:12Z</time>
      </trkpt>
      <trkpt lat="43.55695" lon="5.68465">
        <ele>555</ele>
        <time>2017-03-19T10:40:18Z</time>
      </trkpt>
      <trkpt lat="43.55694" lon="5.68438">
        <ele>555</ele>
        <time>2017-03-19T10:40:25Z</time>
      </trkpt>
      <trkpt lat="43.55701" lon="5.68411">
        <ele>556</ele>
        <time>2017-03-19T10:40:32Z</time>
      </trkpt>
      <trkpt lat="43.55705" lon="5.68387">
        <ele>557</ele>
        <time>2017-03-19T10:40:42Z</time>
      </trkpt>
      <trkpt lat="43.55714" lon="5.68364">
        <ele>557</ele>
        <time>2017-03-19T10:40:53Z</time>
      </trkpt>
      <trkpt lat="43.5572" lon="5.68341">
        <ele>558</ele>
        <time>2017-03-19T10:41:43Z</time>
      </trkpt>
      <trkpt lat="43.55721" lon="5.68315">
        <ele>560</ele>
        <time>2017-03-19T10:41:52Z</time>
      </trkpt>
      <trkpt lat="43.55707" lon="5.683">
        <ele>560</ele>
        <time>2017-03-19T10:42:18Z</time>
      </trkpt>
      <trkpt lat="43.55685" lon="5.68307">
        <ele>559</ele>
        <time>2017-03-19T10:43:09Z</time>
      </trkpt>
      <trkpt lat="43.55666" lon="5.68316">
        <ele>559</ele>
        <time>2017-03-19T10:43:16Z</time>
      </trkpt>
      <trkpt lat="43.55648" lon="5.68325">
        <ele>559</ele>
        <time>2017-03-19T10:43:26Z</time>
      </trkpt>
      <trkpt lat="43.55629" lon="5.68335">
        <ele>559</ele>
        <time>2017-03-19T10:43:35Z</time>
      </trkpt>
      <trkpt lat="43.55613" lon="5.68349">
        <ele>560</ele>
        <time>2017-03-19T10:43:42Z</time>
      </trkpt>
      <trkpt lat="43.556" lon="5.68367">
        <ele>560</ele>
        <time>2017-03-19T10:43:49Z</time>
      </trkpt>
      <trkpt lat="43.55587" lon="5.68388">
        <ele>560</ele>
        <time>2017-03-19T10:43:56Z</time>
      </trkpt>
      <trkpt lat="43.55572" lon="5.68403">
        <ele>561</ele>
        <time>2017-03-19T10:44:02Z</time>
      </trkpt>
      <trkpt lat="43.55554" lon="5.68419">
        <ele>560</ele>
        <time>2017-03-19T10:44:08Z</time>
      </trkpt>
      <trkpt lat="43.55543" lon="5.68439">
        <ele>559</ele>
        <time>2017-03-19T10:44:14Z</time>
      </trkpt>
      <trkpt lat="43.55537" lon="5.68467">
        <ele>559</ele>
        <time>2017-03-19T10:44:20Z</time>
      </trkpt>
      <trkpt lat="43.55531" lon="5.68492">
        <ele>559</ele>
        <time>2017-03-19T10:44:25Z</time>
      </trkpt>
      <trkpt lat="43.55527" lon="5.68518">
        <ele>557</ele>
        <time>2017-03-19T10:44:30Z</time>
      </trkpt>
      <trkpt lat="43.55519" lon="5.68544">
        <ele>557</ele>
        <time>2017-03-19T10:44:34Z</time>
      </trkpt>
      <trkpt lat="43.55509" lon="5.68566">
        <ele>556</ele>
        <time>2017-03-19T10:44:38Z</time>
      </trkpt>
      <trkpt lat="43.55494" lon="5.6858">
        <ele>555</ele>
        <time>2017-03-19T10:44:43Z</time>
      </trkpt>
      <trkpt lat="43.5548" lon="5.68597">
        <ele>554</ele>
        <time>2017-03-19T10:44:48Z</time>
      </trkpt>
      <trkpt lat="43.55466" lon="5.68613">
        <ele>553</ele>
        <time>2017-03-19T10:44:53Z</time>
      </trkpt>
      <trkpt lat="43.55448" lon="5.68631">
        <ele>552</ele>
        <time>2017-03-19T10:44:58Z</time>
      </trkpt>
      <trkpt lat="43.55431" lon="5.6865">
        <ele>551</ele>
        <time>2017-03-19T10:45:03Z</time>
      </trkpt>
      <trkpt lat="43.5542" lon="5.68671">
        <ele>548</ele>
        <time>2017-03-19T10:45:07Z</time>
      </trkpt>
      <trkpt lat="43.55412" lon="5.68697">
        <ele>545</ele>
        <time>2017-03-19T10:45:11Z</time>
      </trkpt>
    </trkseg>
  </trk>
</gpx>